Provisional Data: South Branch Codorus Creek near Leader Heights, PA


Please select a monitoring station.
Please select start date.
Please select start date.

<
Toggle Unit: C/F Toggle Unit: C/F
Sample Time Temperature (C) Temperature (F) Specific Conductivity (mS/cm) pH   Turbidity (NTU+) DO (mg/L)
5/4/2021 12:00:00 AM 15.72 60.296 0.244 7.14 107.8 8.09
5/4/2021 12:15:00 AM 15.65 60.17 0.245 7.15 110.9 8.04
5/4/2021 12:30:00 AM 15.66 60.188 0.247 7.15 95.03 8
5/4/2021 12:45:00 AM 15.67 60.206 0.249 7.14 121.4 7.99
5/4/2021 1:00:00 AM 15.72 60.296 0.248 7.14 129.4 7.96
5/4/2021 1:15:00 AM 15.7 60.26 0.247 7.14 110.6 7.96
5/4/2021 1:30:00 AM 15.71 60.278 0.246 7.14 147.9 7.95
5/4/2021 1:45:00 AM 15.77 60.386 0.245 7.14 100.2 7.96
5/4/2021 2:00:00 AM 15.73 60.314 0.245 7.13 72.55 7.94
5/4/2021 2:15:00 AM 15.73 60.314 0.245 7.14 101.7 7.97
5/4/2021 2:30:00 AM 15.73 60.314 0.244 7.14 118.3 7.98
5/4/2021 2:45:00 AM 15.69 60.242 0.244 7.12 97.31 8.02
5/4/2021 3:00:00 AM 15.74 60.332 0.244 7.13 119.5 8.04
5/4/2021 3:15:00 AM 15.76 60.368 0.244 7.13 103.3 8.07
5/4/2021 3:30:00 AM 15.69 60.242 0.243 7.13 101.5 8.09
5/4/2021 3:45:00 AM 15.7 60.26 0.243 7.14 109.8 8.12
5/4/2021 4:00:00 AM 15.75 60.35 0.242 7.15 127.3 8.15
5/4/2021 4:15:00 AM 15.71 60.278 0.242 7.15 94.75 8.18
5/4/2021 4:30:00 AM 15.74 60.332 0.241 7.15 111.7 8.19
5/4/2021 4:45:00 AM 15.69 60.242 0.24 7.16 118.6 8.23
5/4/2021 5:00:00 AM 15.7 60.26 0.24 7.15 101.4 8.21
5/4/2021 5:15:00 AM 15.68 60.224 0.239 7.15 139.4 8.25
5/4/2021 5:30:00 AM 15.69 60.242 0.239 7.14 114.6 8.24
5/4/2021 5:45:00 AM 15.69 60.242 0.239 7.15 103.1 8.24
5/4/2021 6:00:00 AM 15.69 60.242 0.238 7.14 119.4 8.25
5/4/2021 6:15:00 AM 15.74 60.332 0.238 7.15 122.5 8.26
5/4/2021 6:30:00 AM 15.84 60.512 0.236 7.17 125.4 8.27
5/4/2021 6:45:00 AM 15.87 60.566 0.236 7.17 177.2 8.29
5/4/2021 7:00:00 AM 15.96 60.728 0.234 7.17 269.2 8.3
5/4/2021 7:15:00 AM 16.02 60.836 0.232 7.18 251.6 8.3
5/4/2021 7:30:00 AM 16 60.8 0.232 7.18 233.1 8.35
5/4/2021 7:45:00 AM 15.98 60.764 0.232 7.19 252.9 8.38
5/4/2021 8:00:00 AM 15.97 60.746 0.232 7.19 203.5 8.44
5/4/2021 8:15:00 AM 16.01 60.818 0.232 7.18 224.3 8.47
5/4/2021 8:30:00 AM 16.04 60.872 0.232 7.19 192.1 8.51
5/4/2021 8:45:00 AM 16.08 60.944 0.232 7.19 186 8.57
5/4/2021 9:00:00 AM 16.11 60.998 0.232 7.2 183.6 8.62
5/4/2021 9:15:00 AM 16.18 61.124 0.233 7.21 202.3 8.68
5/4/2021 9:30:00 AM 16.28 61.304 0.233 7.24 169.5 8.73
5/4/2021 9:45:00 AM 16.39 61.502 0.233 7.23 187.6 8.78
5/4/2021 10:00:00 AM 16.51 61.718 0.232 7.25 169 8.81
5/4/2021 10:15:00 AM 16.61 61.898 0.232 7.27 188.4 8.86
5/4/2021 10:30:00 AM 16.74 62.132 0.231 7.28 176.9 8.85
5/4/2021 10:45:00 AM 16.83 62.294 0.231 7.28 187.4 8.9
5/4/2021 11:00:00 AM 16.95 62.51 0.231 7.28 169.7 8.93
5/4/2021 11:15:00 AM 17.14 62.852 0.231 7.29 176.2 8.97
5/4/2021 11:30:00 AM 17.33 63.194 0.231 7.31 180.8 9.01
5/4/2021 11:45:00 AM 17.49 63.482 0.232 7.32 178.1 9.04
5/4/2021 12:00:00 PM 17.65 63.77 0.233 7.33 182.4 9.04
5/4/2021 12:15:00 PM 17.76 63.968 0.235 7.34 166.6 9.02
5/4/2021 12:30:00 PM 17.89 64.202 0.236 7.35 174 9.02
5/4/2021 12:45:00 PM 17.95 64.31 0.237 7.35 160.9 9.01
5/4/2021 1:00:00 PM 17.92 64.256 0.237 7.36 173.4 8.96
5/4/2021 1:15:00 PM 17.91 64.238 0.238 7.36 165.6 8.92
5/4/2021 1:30:00 PM 18 64.4 0.236 7.36 197.3 8.95
5/4/2021 1:45:00 PM 18.07 64.526 0.235 7.37 205.9 8.97
5/4/2021 2:00:00 PM 18.15 64.67 0.234 7.38 177.7 9
5/4/2021 2:15:00 PM 18.23 64.814 0.232 7.41 186.1 9.04
5/4/2021 2:30:00 PM 18.3 64.94 0.23 7.42 171.8 9.06
5/4/2021 2:45:00 PM 18.44 65.192 0.227 7.42 183.8 9.08
5/4/2021 3:00:00 PM 18.54 65.372 0.225 7.44 178.3 9.09
5/4/2021 3:15:00 PM 18.55 65.39 0.224 7.46 179.3 9.12
5/4/2021 3:30:00 PM 18.61 65.498 0.223 7.46 219.1 9.1
5/4/2021 3:45:00 PM 18.62 65.516 0.222 7.47 212.2 9.02
5/4/2021 4:00:00 PM 18.73 65.714 0.22 7.47 225.1 8.99
5/4/2021 4:15:00 PM 18.73 65.714 0.22 7.47 211.7 8.9
5/4/2021 4:30:00 PM 18.76 65.768 0.22 7.46 193.7 8.81
5/4/2021 4:45:00 PM 18.81 65.858 0.217 7.45 253.6 8.69
5/4/2021 5:00:00 PM 18.77 65.786 0.217 7.45 272.4 8.66
5/4/2021 5:15:00 PM 18.71 65.67799 0.217 7.44 224.2 8.6
5/4/2021 5:30:00 PM 18.81 65.858 0.215 7.43 238.5 8.55
5/4/2021 5:45:00 PM 18.77 65.786 0.216 7.43 261 8.54
5/4/2021 6:00:00 PM 18.68 65.624 0.216 7.43 273 8.54
5/4/2021 6:15:00 PM 18.68 65.624 0.218 7.43 226.2 8.48
5/4/2021 6:30:00 PM 18.6 65.48 0.219 7.42 241 8.44
5/4/2021 6:45:00 PM 18.49 65.282 0.219 7.41 216.6 8.37
5/4/2021 7:00:00 PM 18.52 65.336 0.218 7.41 303 8.31
5/4/2021 7:15:00 PM 18.51 65.318 0.217 7.39 281 8.26
5/4/2021 7:30:00 PM 18.38 65.084 0.219 7.38 261.8 8.15
5/4/2021 7:45:00 PM 18.36 65.048 0.219 7.36 282 8.01
5/4/2021 8:00:00 PM 18.23 64.814 0.22 7.34 291.1 7.91
5/4/2021 8:15:00 PM 18.24 64.832 0.219 7.33 308.6 7.83
5/4/2021 8:30:00 PM 18.16 64.688 0.22 7.29 275.2 7.76
5/4/2021 8:45:00 PM 18.25 64.85 0.218 7.29 258.9 7.7
5/4/2021 9:00:00 PM 18.16 64.688 0.22 7.27 286.9 7.7
5/4/2021 9:15:00 PM 18.16 64.688 0.22 7.27 250.1 7.68
5/4/2021 9:30:00 PM 18.03 64.454 0.221 7.25 263.2 7.69
5/4/2021 9:45:00 PM 17.99 64.382 0.221 7.25 283.6 7.7
5/4/2021 10:00:00 PM 17.94 64.292 0.22 7.24 288.3 7.66
5/4/2021 10:15:00 PM 17.93 64.274 0.22 7.23 331.1 7.63
5/4/2021 10:30:00 PM 17.89 64.202 0.22 7.22 277.1 7.61
5/4/2021 10:45:00 PM 17.81 64.058 0.221 7.2 288.3 7.61
5/4/2021 11:00:00 PM 17.78 64.004 0.223 7.19 263.2 7.62
5/4/2021 11:15:00 PM 17.82 64.076 0.223 7.19 294.3 7.63
5/4/2021 11:30:00 PM 17.84 64.112 0.223 7.18 261.8 7.67
5/4/2021 11:45:00 PM 17.83 64.094 0.223 7.2 310.7 7.7
5/5/2021 12:00:00 AM 17.8 64.04 0.223 7.19 337.4 7.72
5/5/2021 12:15:00 AM 17.8 64.04 0.223 7.19 323.5 7.73
5/5/2021 12:30:00 AM 17.75 63.95 0.224 7.18 310.9 7.74
5/5/2021 12:45:00 AM 17.77 63.986 0.223 7.19 318.6 7.71
5/5/2021 1:00:00 AM 17.68 63.824 0.224 7.18 253.6 7.69
5/5/2021 1:15:00 AM 17.63 63.734 0.225 7.17 296.6 7.67
5/5/2021 1:30:00 AM 17.6 63.68 0.225 7.16 347.5 7.65
5/5/2021 1:45:00 AM 17.49 63.482 0.227 7.16 323.6 7.62
5/5/2021 2:00:00 AM 17.39 63.302 0.228 7.15 335.6 7.56
5/5/2021 2:15:00 AM 17.41 63.338 0.228 7.13 282.3 7.51
5/5/2021 2:30:00 AM 17.32 63.176 0.229 7.12 334.7 7.46
5/5/2021 2:45:00 AM 17.28 63.104 0.229 7.12 286.3 7.44
5/5/2021 3:00:00 AM 17.28 63.104 0.228 7.11 360.1 7.43
5/5/2021 3:15:00 AM 17.21 62.978 0.229 7.11 330.2 7.44
5/5/2021 3:30:00 AM 17.17 62.906 0.229 7.1 317.7 7.48
5/5/2021 3:45:00 AM 17.05 62.69 0.23 7.09 354.2 7.53
5/5/2021 4:00:00 AM 17.08 62.744 0.231 7.09 273.2 7.56
5/5/2021 4:15:00 AM 17.04 62.672 0.231 7.09 352.9 7.59
5/5/2021 4:30:00 AM 17.03 62.654 0.232 7.08 252.7 7.59
5/5/2021 4:45:00 AM 17.03 62.654 0.232 7.08 351.2 7.62
5/5/2021 5:00:00 AM 16.95 62.51 0.233 7.08 360.6 7.64
5/5/2021 5:15:00 AM 16.99 62.582 0.232 7.09 306 7.65
5/5/2021 5:30:00 AM 16.97 62.546 0.232 7.09 375.1 7.64
5/5/2021 5:45:00 AM 16.99 62.582 0.232 7.07 337.2 7.65
5/5/2021 6:00:00 AM 16.88 62.384 0.233 7.07 362.3 7.65
5/5/2021 6:15:00 AM 16.87 62.366 0.233 7.07 329 7.67
5/5/2021 6:30:00 AM 16.87 62.366 0.234 7.07 408.5 7.7
5/5/2021 6:45:00 AM 16.81 62.258 0.234 7.08 311.5 7.72
5/5/2021 7:00:00 AM 16.8 62.24 0.234 7.08 363 7.75
5/5/2021 7:15:00 AM 16.83 62.294 0.233 7.08 317.6 7.76
5/5/2021 7:30:00 AM 16.78 62.204 0.233 7.08 400.4 7.8
5/5/2021 7:45:00 AM 16.79 62.222 0.233 7.08 356.6 7.86
5/5/2021 8:00:00 AM 16.81 62.258 0.232 7.09 342 7.9
5/5/2021 8:15:00 AM 16.78 62.204 0.233 7.09 365.6 7.94
5/5/2021 8:30:00 AM 16.8 62.24 0.232 7.1 379.4 7.99
5/5/2021 8:45:00 AM 16.74 62.132 0.234 7.1 379.3 8.07
5/5/2021 9:00:00 AM 16.81 62.258 0.233 7.11 408.7 8.13
5/5/2021 9:15:00 AM 16.83 62.294 0.233 7.12 355.7 8.2
5/5/2021 9:30:00 AM 16.91 62.438 0.233 7.13 351.8 8.27
5/5/2021 9:45:00 AM 16.93 62.474 0.233 7.14 378.8 8.31
5/5/2021 10:00:00 AM 16.92 62.456 0.234 7.14 365.8 8.35
5/5/2021 10:15:00 AM 16.92 62.456 0.234 7.15 459.8 8.31
5/5/2021 10:30:00 AM 16.95 62.51 0.231 7.15 424.1 8.31
5/5/2021 10:45:00 AM 16.88 62.384 0.232 7.15 470.9 8.31
5/5/2021 11:00:00 AM 16.93 62.474 0.232 7.15 381.5 8.33
5/5/2021 11:15:00 AM 16.91 62.438 0.234 7.16 449.5 8.41
5/5/2021 11:30:00 AM 17.12 62.816 0.234 7.18 418.9 8.45
5/5/2021 11:45:00 AM 17.24 63.032 0.235 7.2 407.4 8.54
5/5/2021 12:00:00 PM 17.4 63.32 0.236 7.22 437.6 8.68
5/5/2021 12:15:00 PM 17.64 63.752 0.237 7.23 405.7 8.76
5/5/2021 12:30:00 PM 17.88 64.184 0.24 7.26 461.2 8.86
5/5/2021 12:45:00 PM 18.07 64.526 0.241 7.28 395.3 8.91
5/5/2021 1:00:00 PM 18.27 64.886 0.24 7.31 423.7 8.96
5/5/2021 1:15:00 PM 18.4 65.12 0.239 7.33 466.6 8.98
5/5/2021 1:30:00 PM 18.53 65.354 0.237 7.35 406.5 8.99
5/5/2021 1:45:00 PM 18.68 65.624 0.236 7.36 450 9.01
5/5/2021 2:00:00 PM 18.65 65.57 0.237 7.39 446.8 9.02
5/5/2021 2:15:00 PM 18.62 65.516 0.237 7.39 419.8 8.98
5/5/2021 2:30:00 PM 18.66 65.588 0.237 7.41 419.1 8.98
5/5/2021 2:45:00 PM 18.8 65.84 0.236 7.43 352.9 9
5/5/2021 3:00:00 PM 18.85 65.93 0.237 7.44 465.1 9.01
5/5/2021 3:15:00 PM 18.89 66.002 0.237 7.45 408.8 8.94
5/5/2021 3:30:00 PM 18.87 65.966 0.238 7.45 360.9 8.92
5/5/2021 3:45:00 PM 18.9 66.02 0.238 7.45 488.5 8.88
5/5/2021 4:00:00 PM 18.8 65.84 0.239 7.45 463.7 8.77
5/5/2021 4:15:00 PM 18.82 65.876 0.164 7.44 436 8.71
5/5/2021 4:30:00 PM 18.7 65.66 0.238 7.45 424.9 8.71
5/5/2021 4:45:00 PM 18.7 65.66 0.237 7.44 459.3 8.67
5/5/2021 5:00:00 PM 18.59 65.462 0.237 7.45 459.8 8.63
5/5/2021 5:15:00 PM 18.55 65.39 0.236 7.43 483 8.54
5/5/2021 5:30:00 PM 18.39 65.102 0.237 7.43 375.2 8.51
5/5/2021 5:45:00 PM 18.24 64.832 0.237 7.42 353 8.5
5/5/2021 6:00:00 PM 18.19 64.742 0.238 7.43 433.5 8.48
5/5/2021 6:15:00 PM 18.11 64.598 0.238 7.43 449.9 8.45
5/5/2021 6:30:00 PM 18.03 64.454 0.239 7.41 491 8.34
5/5/2021 6:45:00 PM 18.02 64.436 0.239 7.41 419.3 8.21
5/5/2021 7:00:00 PM 17.92 64.256 0.239 7.39 467.8 8.13
5/5/2021 7:15:00 PM 17.78 64.004 0.239 7.37 420.6 8.06
5/5/2021 7:30:00 PM 17.79 64.022 0.238 7.36 445 8.02
5/5/2021 7:45:00 PM 17.63 63.734 0.238 7.35 525.1 8.01
5/5/2021 8:00:00 PM 17.7 63.86 0.237 7.33 430.7 8.01
5/5/2021 8:15:00 PM 17.6 63.68 0.238 7.33 485.1 8
5/5/2021 8:30:00 PM 17.65 63.77 0.237 7.33 458.3 8.04
5/5/2021 8:45:00 PM 17.56 63.608 0.237 7.32 479.5 8.05
5/5/2021 9:00:00 PM 17.41 63.338 0.238 7.33 454.3 8.05
5/5/2021 9:15:00 PM 17.36 63.248 0.238 7.31 419.8 8.06
5/5/2021 9:30:00 PM 17.34 63.212 0.238 7.31 414.1 8.09
5/5/2021 9:45:00 PM 17.28 63.104 0.237 7.3 480.1 8.08
5/5/2021 10:00:00 PM 17.24 63.032 0.237 7.3 434.7 8.03
5/5/2021 10:15:00 PM 17.17 62.906 0.237 7.28 402.1 7.97
5/5/2021 10:30:00 PM 17.04 62.672 0.236 7.28 502.6 7.92
5/5/2021 10:45:00 PM 16.88 62.384 0.235 7.26 481.4 7.9
5/5/2021 11:00:00 PM 16.74 62.132 0.236 7.25 412.1 7.88
5/5/2021 11:15:00 PM 16.71 62.078 0.237 7.24 451.9 7.89
5/5/2021 11:30:00 PM 16.64 61.952 0.237 7.24 414.8 7.93
5/5/2021 11:45:00 PM 16.55 61.79 0.237 7.23 444.4 7.99
5/6/2021 12:00:00 AM 16.45 61.61 0.237 7.23 447.4 8.01
5/6/2021 12:15:00 AM 16.4 61.52 0.237 7.23 409.2 8.05
5/6/2021 12:30:00 AM 16.34 61.412 0.235 7.22 421.7 8.06
5/6/2021 12:45:00 AM 16.27 61.286 0.236 7.21 381.1 8.06
5/6/2021 1:00:00 AM 16.3 61.34 0.235 7.2 456.1 8.06
5/6/2021 1:15:00 AM 16.17 61.106 0.235 7.19 448.5 8.08
5/6/2021 1:30:00 AM 16 60.8 0.232 7.18 429.1 8.09
5/6/2021 1:45:00 AM 15.96 60.728 0.236 7.18 456.4 8.08
5/6/2021 2:00:00 AM 15.85 60.53 0.236 7.17 475.1 8.1
5/6/2021 2:15:00 AM 15.8 60.44 0.236 7.16 386.8 8.13
5/6/2021 2:30:00 AM 15.8 60.44 0.235 7.16 453 8.16
5/6/2021 2:45:00 AM 15.76 60.368 0.235 7.15 479 8.19
5/6/2021 3:00:00 AM 15.68 60.224 0.235 7.15 448.2 8.19
5/6/2021 3:15:00 AM 15.61 60.098 0.235 7.13 441.5 8.17
5/6/2021 3:30:00 AM 15.52 59.936 0.235 7.12 451.4 8.18
5/6/2021 3:45:00 AM 15.46 59.828 0.236 7.12 427 8.19
5/6/2021 4:00:00 AM 15.39 59.702 0.236 7.12 442.4 8.22
5/6/2021 4:15:00 AM 15.32 59.576 0.236 7.1 554.2 8.25
5/6/2021 4:30:00 AM 15.23 59.414 0.237 7.1 488 8.26
5/6/2021 4:45:00 AM 15.16 59.288 0.238 7.09 432.1 8.27
5/6/2021 5:00:00 AM 15.12 59.216 0.237 7.08 514.8 8.27
5/6/2021 5:15:00 AM 15.03 59.054 0.238 7.09 458.1 8.29
5/6/2021 5:30:00 AM 15.01 59.018 0.237 7.08 389.6 8.32
5/6/2021 5:45:00 AM 14.94 58.892 0.237 7.08 482.4 8.34
5/6/2021 6:00:00 AM 14.89 58.802 0.237 7.07 380.8 8.34
5/6/2021 6:15:00 AM 14.79 58.622 0.238 7.08 389.2 8.39
5/6/2021 6:30:00 AM 14.76 58.568 0.238 7.07 468 8.41
5/6/2021 6:45:00 AM 14.71 58.478 0.238 7.06 497.5 8.46
5/6/2021 7:00:00 AM 14.65 58.37 0.238 7.07 452.4 8.49
5/6/2021 7:15:00 AM 14.65 58.37 0.238 7.07 455.3 8.54
5/6/2021 7:30:00 AM 14.63 58.334 0.238 7.07 465 8.58
5/6/2021 7:45:00 AM 14.65 58.37 0.238 7.07 469.6 8.66
5/6/2021 8:00:00 AM 14.65 58.37 0.238 7.08 404 8.72
5/6/2021 8:15:00 AM 14.66 58.388 0.238 7.08 433.2 8.81
5/6/2021 8:30:00 AM 14.69 58.442 0.239 7.09 378.6 8.92
5/6/2021 8:45:00 AM 14.72 58.496 0.239 7.09 424.7 8.99
5/6/2021 9:00:00 AM 14.81 58.658 0.238 7.12 497.7 9.1
5/6/2021 9:15:00 AM 14.9 58.82 0.238 7.13 419 9.18
5/6/2021 9:30:00 AM 15.01 59.018 0.237 7.14 495.3 9.26
5/6/2021 9:45:00 AM 15.09 59.162 0.238 7.15 375.2 9.31
5/6/2021 10:00:00 AM 15.13 59.234 0.237 7.17 411.6 9.33
5/6/2021 10:15:00 AM 15.27 59.486 0.238 7.18 427.9 9.41
5/6/2021 10:30:00 AM 15.45 59.81 0.238 7.2 477.8 9.47
5/6/2021 10:45:00 AM 15.54 59.972 0.238 7.2 414.3 9.49
5/6/2021 11:00:00 AM 15.69 60.242 0.238 7.23 429.9 9.53
5/6/2021 11:15:00 AM 15.86 60.548 0.238 7.24 383.1 9.59
5/6/2021 11:30:00 AM 16.04 60.872 0.238 7.26 462.6 9.64
5/6/2021 11:45:00 AM 16.14 61.052 0.238 7.28 401.3 9.67
5/6/2021 12:00:00 PM 16.25 61.25 0.238 7.3 401.8 9.7
5/6/2021 12:15:00 PM 16.42 61.556 0.237 7.32 370.7 9.7
5/6/2021 12:30:00 PM 16.57 61.826 0.237 7.33 377.8 9.73
5/6/2021 12:45:00 PM 16.76 62.168 0.237 7.34 393.8 9.76
5/6/2021 1:00:00 PM 16.91 62.438 0.237 7.37 395.1 9.74
5/6/2021 1:15:00 PM 16.97 62.546 0.238 7.37 387.3 9.73
5/6/2021 1:30:00 PM 17.03 62.654 0.238 7.37 420.1 9.72
5/6/2021 1:45:00 PM 17.1 62.78 0.238 7.39 355.2 9.68
5/6/2021 2:00:00 PM 17.16 62.888 0.238 7.39 409.7 9.63
5/6/2021 2:15:00 PM 17.16 62.888 0.238 7.38 388.3 9.56
5/6/2021 2:30:00 PM 17.17 62.906 0.238 7.38 403.9 9.5
5/6/2021 2:45:00 PM 17.12 62.816 0.238 7.37 346.2 9.45
5/6/2021 3:00:00 PM 17.09 62.762 0.238 7.37 369.7 9.41
5/6/2021 3:15:00 PM 17.09 62.762 0.238 7.37 442 9.43
5/6/2021 3:30:00 PM 17.1 62.78 0.238 7.37 442.8 9.41
5/6/2021 3:45:00 PM 17.07 62.726 0.238 7.37 419.8 9.4
5/6/2021 4:00:00 PM 17.1 62.78 0.238 7.38 360.5 9.42
5/6/2021 4:15:00 PM 17.06 62.708 0.239 7.39 337.1 9.43
5/6/2021 4:30:00 PM 17.03 62.654 0.239 7.39 439.3 9.46
5/6/2021 4:45:00 PM 16.97 62.546 0.239 7.4 306.6 9.44
5/6/2021 5:00:00 PM 16.92 62.456 0.239 7.41 345.6 9.42
5/6/2021 5:15:00 PM 16.84 62.312 0.239 7.4 419.2 9.4
5/6/2021 5:30:00 PM 16.8 62.24 0.239 7.41 354.1 9.39
5/6/2021 5:45:00 PM 16.71 62.078 0.239 7.41 500.2 9.36
5/6/2021 6:00:00 PM 16.62 61.916 0.239 7.4 358.7 9.3
5/6/2021 6:15:00 PM 16.58 61.844 0.24 7.39 334.8 9.27
5/6/2021 6:30:00 PM 16.5 61.7 0.24 7.4 318.2 9.22
5/6/2021 6:45:00 PM 16.45 61.61 0.24 7.39 381 9.14
5/6/2021 7:00:00 PM 16.41 61.538 0.24 7.37 339.4 9.06
5/6/2021 7:15:00 PM 16.27 61.286 0.241 7.36 364.9 8.99
5/6/2021 7:30:00 PM 16.22 61.196 0.24 7.35 446.8 8.92
5/6/2021 7:45:00 PM 16.1 60.98 0.241 7.34 323 8.86
5/6/2021 8:00:00 PM 16.04 60.872 0.24 7.32 292.3 8.78
5/6/2021 8:15:00 PM 15.95 60.71 0.24 7.29 346.7 8.68
5/6/2021 8:30:00 PM 15.85 60.53 0.241 7.28 349.3 8.61
5/6/2021 8:45:00 PM 15.82 60.476 0.241 7.27 401.7 8.53
5/6/2021 9:00:00 PM 15.72 60.296 0.242 7.25 345.7 8.52
5/6/2021 9:15:00 PM 15.66 60.188 0.242 7.23 442 8.49
5/6/2021 9:30:00 PM 15.61 60.098 0.242 7.22 352.7 8.43
5/6/2021 9:45:00 PM 15.54 59.972 0.242 7.2 292.4 8.36
5/6/2021 10:00:00 PM 15.48 59.864 0.242 7.18 339.3 8.31
5/6/2021 10:15:00 PM 15.44 59.792 0.242 7.17 384.2 8.24
5/6/2021 10:30:00 PM 15.35 59.63 0.242 7.14 281.6 8.18
5/6/2021 10:45:00 PM 15.29 59.522 0.242 7.12 432.8 8.13
5/6/2021 11:00:00 PM 15.19 59.342 0.243 7.12 404.4 8.11
5/6/2021 11:15:00 PM 15.18 59.324 0.243 7.1 350.3 8.08
5/6/2021 11:30:00 PM 15.18 59.324 0.243 7.1 387.1 8.07
5/6/2021 11:45:00 PM 15.08 59.144 0.244 7.08 304 8.08
5/7/2021 12:00:00 AM 15.09 59.162 0.243 7.08 407.5 8.07
5/7/2021 12:15:00 AM 15.04 59.072 0.243 7.07 327 8.11
5/7/2021 12:30:00 AM 15 59 0.243 7.06 232.9 8.12
5/7/2021 12:45:00 AM 15.01 59.018 0.242 7.05 326.5 8.17
5/7/2021 1:00:00 AM 14.98 58.964 0.242 7.05 314.8 8.18
5/7/2021 1:15:00 AM 14.89 58.802 0.243 7.05 323.8 8.22
5/7/2021 1:30:00 AM 14.86 58.748 0.243 7.05 359.2 8.25
5/7/2021 1:45:00 AM 14.87 58.766 0.243 7.05 349.3 8.29
5/7/2021 2:00:00 AM 14.76 58.568 0.244 7.05 295.7 8.32
5/7/2021 2:15:00 AM 14.69 58.442 0.244 7.04 365.8 8.32
5/7/2021 2:30:00 AM 14.67 58.406 0.244 7.04 329.9 8.33
5/7/2021 2:45:00 AM 14.59 58.262 0.244 7.04 402.2 8.32
5/7/2021 3:00:00 AM 14.54 58.172 0.244 7.04 355.9 8.31
5/7/2021 3:15:00 AM 14.51 58.118 0.244 7.03 337 8.32
5/7/2021 3:30:00 AM 14.47 58.046 0.243 7.03 368 8.32
5/7/2021 3:45:00 AM 14.36 57.848 0.244 7.03 372.7 8.34
5/7/2021 4:00:00 AM 14.31 57.758 0.244 7.02 466.6 8.36
5/7/2021 4:15:00 AM 14.19 57.542 0.245 7.02 362.9 8.38
5/7/2021 4:30:00 AM 14.15 57.47 0.245 7.01 375.1 8.38
5/7/2021 4:45:00 AM 14.06 57.308 0.245 7.01 408.2 8.37
5/7/2021 5:00:00 AM 14.01 57.218 0.245 6.99 366.7 8.37
5/7/2021 5:15:00 AM 13.94 57.092 0.245 6.98 387.3 8.35
5/7/2021 5:30:00 AM 13.88 56.984 0.245 6.99 312.3 8.35
5/7/2021 5:45:00 AM 13.81 56.858 0.245 6.97 397.6 8.32
5/7/2021 6:00:00 AM 13.77 56.786 0.244 6.95 477.7 8.35
5/7/2021 6:15:00 AM 13.72 56.696 0.244 6.97 357.4 8.33
5/7/2021 6:30:00 AM 13.67 56.606 0.245 6.95 321.1 8.39
5/7/2021 6:45:00 AM 13.65 56.57 0.245 6.95 359.6 8.45
5/7/2021 7:00:00 AM 13.62 56.516 0.245 6.94 333.5 8.47
5/7/2021 7:15:00 AM 13.61 56.498 0.245 6.96 395.4 8.5
5/7/2021 7:30:00 AM 13.61 56.498 0.245 6.96 288.3 8.56
5/7/2021 7:45:00 AM 13.64 56.552 0.244 6.95 308.7 8.63
5/7/2021 8:00:00 AM 13.68 56.624 0.244 6.96 340.9 8.75
5/7/2021 8:15:00 AM 13.77 56.786 0.244 6.98 294.4 8.91
5/7/2021 8:30:00 AM 13.85 56.93 0.244 6.99 308.9 9.05
5/7/2021 8:45:00 AM 13.9 57.02 0.244 7 350.4 9.16
5/7/2021 9:00:00 AM 13.96 57.128 0.244 7.02 356.3 9.25
5/7/2021 9:15:00 AM 14 57.2 0.244 7.04 363.5 9.32
5/7/2021 9:30:00 AM 14.08 57.344 0.244 7.06 322.7 9.36
5/7/2021 9:45:00 AM 14.17 57.506 0.243 7.07 418.4 9.44
5/7/2021 10:00:00 AM 14.31 57.758 0.243 7.09 327 9.52
5/7/2021 10:15:00 AM 14.42 57.956 0.243 7.12 413.8 9.57
5/7/2021 10:30:00 AM 14.47 58.046 0.243 7.12 337.6 9.61
5/7/2021 10:45:00 AM 14.56 58.208 0.243 7.13 298.1 9.66
5/7/2021 11:00:00 AM 14.62 58.316 0.243 7.15 286.2 9.67
5/7/2021 11:15:00 AM 14.62 58.316 0.243 7.15 318.8 9.69
5/7/2021 11:30:00 AM 14.63 58.334 0.244 7.17 270.1 9.72
5/7/2021 11:45:00 AM 14.67 58.406 0.243 7.19 333 9.75
5/7/2021 12:00:00 PM 14.73 58.514 0.243 7.19 304 9.79
5/7/2021 12:15:00 PM 14.84 58.712 0.243 7.21 424.6 9.84
5/7/2021 12:30:00 PM 14.94 58.892 0.242 7.23 332.1 9.86
5/7/2021 12:45:00 PM 14.97 58.946 0.243 7.23 300.4 9.83
5/7/2021 1:00:00 PM 15 59 0.243 7.24 349.9 9.83
5/7/2021 1:15:00 PM 14.98 58.964 0.242 7.24 307.8 9.77
5/7/2021 1:30:00 PM 14.93 58.874 0.243 7.24 285.6 9.68
5/7/2021 1:45:00 PM 14.89 58.802 0.244 7.23 340.7 9.64
5/7/2021 2:00:00 PM 14.86 58.748 0.244 7.24 323.1 9.61
5/7/2021 2:15:00 PM 14.8 58.64 0.244 7.23 337.4 9.54
5/7/2021 2:30:00 PM 14.75 58.55 0.244 7.23 281.5 9.52
5/7/2021 2:45:00 PM 14.72 58.496 0.244 7.23 390.8 9.53
5/7/2021 3:00:00 PM 14.69 58.442 0.244 7.23 263.2 9.51
5/7/2021 3:15:00 PM 14.67 58.406 0.243 7.21 382.1 9.5
5/7/2021 3:30:00 PM 14.65 58.37 0.243 7.21 311.2 9.49
5/7/2021 3:45:00 PM 14.61 58.298 0.243 7.21 360.7 9.45
5/7/2021 4:00:00 PM 14.59 58.262 0.243 7.2 398 9.47
5/7/2021 4:15:00 PM 14.57 58.226 0.244 7.2 410.3 9.47
5/7/2021 4:30:00 PM 14.54 58.172 0.244 7.2 317.6 9.42
5/7/2021 4:45:00 PM 14.52 58.136 0.244 7.19 382.8 9.34
5/7/2021 5:00:00 PM 14.49 58.082 0.245 7.2 333.3 9.3
5/7/2021 5:15:00 PM 14.46 58.028 0.244 7.19 327.6 9.3
5/7/2021 5:30:00 PM 14.42 57.956 0.244 7.19 379.5 9.23
5/7/2021 5:45:00 PM 14.38 57.884 0.244 7.17 303.5 9.16
5/7/2021 6:00:00 PM 14.33 57.794 0.244 7.16 428.7 9.07
5/7/2021 6:15:00 PM 14.28 57.704 0.244 7.15 306 9.03
5/7/2021 6:30:00 PM 14.24 57.632 0.245 7.13 342.5 8.98
5/7/2021 6:45:00 PM 14.2 57.56 0.245 7.12 457.4 8.95
5/7/2021 7:00:00 PM 14.18 57.524 0.245 7.12 372.4 8.96
5/7/2021 7:15:00 PM 14.17 57.506 0.245 7.12 335.7 8.95
5/7/2021 7:30:00 PM 14.13 57.434 0.245 7.11 394.4 8.91
5/7/2021 7:45:00 PM 14.09 57.362 0.246 7.11 336.8 8.86
5/7/2021 8:00:00 PM 14.05 57.29 0.245 7.09 293.6 8.79
5/7/2021 8:15:00 PM 14 57.2 0.245 7.07 376.5 8.7
5/7/2021 8:30:00 PM 13.97 57.146 0.245 7.06 353.5 8.66
5/7/2021 8:45:00 PM 13.94 57.092 0.246 7.06 293 8.65
5/7/2021 9:00:00 PM 13.92 57.056 0.246 7.05 399.5 8.66
5/7/2021 9:15:00 PM 13.92 57.056 0.246 7.04 301.7 8.67
5/7/2021 9:30:00 PM 13.91 57.038 0.247 7.04 280 8.66
5/7/2021 9:45:00 PM 13.9 57.02 0.247 7.02 295.2 8.65
5/7/2021 10:00:00 PM 13.88 56.984 0.247 7.03 384 8.66
5/7/2021 10:15:00 PM 13.86 56.948 0.246 7.03 407.4 8.64
5/7/2021 10:30:00 PM 13.83 56.894 0.246 7.02 469 8.63
5/7/2021 10:45:00 PM 13.8 56.84 0.247 7.02 362.2 8.62
5/7/2021 11:00:00 PM 13.76 56.768 0.247 7.01 220.6 8.64
5/7/2021 11:15:00 PM 13.72 56.696 0.247 7 472 8.62
5/7/2021 11:30:00 PM 13.69 56.642 0.247 7 316.3 8.64
5/7/2021 11:45:00 PM 13.66 56.588 0.247 7 196.5 8.63
5/8/2021 12:00:00 AM 13.64 56.552 0.246 7 375.7 8.65
5/8/2021 12:15:00 AM 13.61 56.498 0.246 7 376.4 8.68
5/8/2021 12:30:00 AM 13.58 56.444 0.245 7.01 385.2 8.68
5/8/2021 12:45:00 AM 13.54 56.372 0.244 7.01 293.6 8.7
5/8/2021 1:00:00 AM 13.51 56.318 0.244 7 383.5 8.71
5/8/2021 1:15:00 AM 13.47 56.246 0.245 7 416.3 8.74
5/8/2021 1:30:00 AM 13.43 56.174 0.245 7 371.7 8.75
5/8/2021 1:45:00 AM 13.39 56.102 0.245 7 360.7 8.78
5/8/2021 2:00:00 AM 13.34 56.012 0.245 7.01 350.8 8.82
5/8/2021 2:15:00 AM 13.3 55.94 0.246 7.01 321.7 8.84
5/8/2021 2:30:00 AM 13.25 55.85 0.246 7 351.2 8.85
5/8/2021 2:45:00 AM 13.18 55.724 0.245 7 314.4 8.86
5/8/2021 3:00:00 AM 13.11 55.598 0.244 7 403 8.84
5/8/2021 3:15:00 AM 13.04 55.472 0.244 6.99 363 8.81
5/8/2021 3:30:00 AM 12.98 55.364 0.244 6.98 400.2 8.75
5/8/2021 3:45:00 AM 12.91 55.238 0.244 6.97 467.8 8.73
5/8/2021 4:00:00 AM 12.83 55.094 0.244 6.96 528 8.72
5/8/2021 4:15:00 AM 12.78 55.004 0.245 6.95 473 8.71
5/8/2021 4:30:00 AM 12.71 54.878 0.245 6.93 443.4 8.7
5/8/2021 4:45:00 AM 12.66 54.788 0.245 6.93 386.7 8.69
5/8/2021 5:00:00 AM 12.58 54.644 0.244 6.92 398.7 8.69
5/8/2021 5:15:00 AM 12.55 54.59 0.244 6.91 465.9 8.68
5/8/2021 5:30:00 AM 12.53 54.554 0.244 6.91 407.2 8.65
5/8/2021 5:45:00 AM 12.48 54.464 0.243 6.9 465.7 8.69
5/8/2021 6:00:00 AM 12.47 54.446 0.243 6.9 433.5 8.69
5/8/2021 6:15:00 AM 12.44 54.392 0.243 6.89 480.2 8.71
5/8/2021 6:30:00 AM 12.42 54.356 0.244 6.88 353.9 8.76
5/8/2021 6:45:00 AM 12.38 54.284 0.243 6.89 306.6 8.83
5/8/2021 7:00:00 AM 12.41 54.338 0.243 6.89 461.4 8.93
5/8/2021 7:15:00 AM 12.43 54.374 0.243 6.9 286.6 9.02
5/8/2021 7:30:00 AM 12.47 54.446 0.243 6.9 332.6 9.09
5/8/2021 7:45:00 AM 12.5 54.5 0.242 6.91 373.5 9.13
5/8/2021 8:00:00 AM 12.5 54.5 0.242 6.92 357.7 9.18
5/8/2021 8:15:00 AM 12.53 54.554 0.242 6.93 364.2 9.19
5/8/2021 8:30:00 AM 12.55 54.59 0.242 6.92 428.6 9.21
5/8/2021 8:45:00 AM 12.52 54.536 0.242 6.93 350 9.24
5/8/2021 9:00:00 AM 12.56 54.608 0.242 6.93 249.8 9.32
5/8/2021 9:15:00 AM 12.56 54.608 0.24 6.93 358 9.43
5/8/2021 9:30:00 AM 12.69 54.842 0.241 6.95 329.1 9.56
5/8/2021 9:45:00 AM 12.78 55.004 0.241 6.97 410.7 9.64
5/8/2021 10:00:00 AM 12.81 55.058 0.24 6.98 289.3 9.74
5/8/2021 10:15:00 AM 12.88 55.184 0.241 7 403 9.78
5/8/2021 10:30:00 AM 12.92 55.256 0.24 7 316.7 9.85
5/8/2021 10:45:00 AM 13 55.4 0.24 7.02 306.6 9.92
5/8/2021 11:00:00 AM 13.15 55.67 0.24 7.03 441.8 10
5/8/2021 11:15:00 AM 13.25 55.85 0.241 7.05 362.9 10.05
5/8/2021 11:30:00 AM 13.27 55.886 0.241 7.04 363.7 9.99
5/8/2021 11:45:00 AM 13.31 55.958 0.24 7.07 344.9 10.04
5/8/2021 12:00:00 PM 13.4 56.12 0.24 7.08 335.4 10.11
5/8/2021 12:15:00 PM 13.62 56.516 0.24 7.1 388.1 10.18
5/8/2021 12:30:00 PM 13.74 56.732 0.239 7.13 408.1 10.19
5/8/2021 12:45:00 PM 13.96 57.128 0.24 7.14 461.2 10.21
5/8/2021 1:00:00 PM 13.97 57.146 0.24 7.14 427 10.17
5/8/2021 1:15:00 PM 13.94 57.092 0.24 7.15 460.1 10.15
5/8/2021 1:30:00 PM 13.86 56.948 0.24 7.15 286 9.98
5/8/2021 1:45:00 PM 13.66 56.588 0.239 7.13 308.8 9.84
5/8/2021 2:00:00 PM 13.71 56.678 0.24 7.14 400.9 9.89
5/8/2021 2:15:00 PM 13.85 56.93 0.239 7.15 304.9 9.99
5/8/2021 2:30:00 PM 14.04 57.272 0.239 7.17 392.7 10.08
5/8/2021 2:45:00 PM 14.1 57.38 0.239 7.18 376.1 10.02
5/8/2021 3:00:00 PM 14.14 57.452 0.239 7.18 339.6 10
5/8/2021 3:15:00 PM 14.28 57.704 0.239 7.19 350.1 10
5/8/2021 3:30:00 PM 14.39 57.902 0.239 7.21 341.5 10.02
5/8/2021 3:45:00 PM 14.43 57.974 0.24 7.2 370.8 10.01
5/8/2021 4:00:00 PM 14.44 57.992 0.24 7.21 350.1 9.99
5/8/2021 4:15:00 PM 14.42 57.956 0.24 7.21 442.5 9.93
5/8/2021 4:30:00 PM 14.42 57.956 0.241 7.21 368.7 9.93
5/8/2021 4:45:00 PM 14.43 57.974 0.241 7.21 551 9.9
5/8/2021 5:00:00 PM 14.42 57.956 0.242 7.22 397.1 9.87
5/8/2021 5:15:00 PM 14.4 57.92 0.242 7.22 368.9 9.87
5/8/2021 5:30:00 PM 14.36 57.848 0.242 7.22 454.4 9.82
5/8/2021 5:45:00 PM 14.28 57.704 0.242 7.22 405.2 9.76
5/8/2021 6:00:00 PM 14.23 57.614 0.243 7.21 253.9 9.72
5/8/2021 6:15:00 PM 14.17 57.506 0.243 7.2 347.6 9.68
5/8/2021 6:30:00 PM 14.09 57.362 0.243 7.2 343.7 9.62
5/8/2021 6:45:00 PM 13.99 57.182 0.243 7.19 356.3 9.56
5/8/2021 7:00:00 PM 13.92 57.056 0.243 7.18 281.3 9.46
5/8/2021 7:15:00 PM 13.85 56.93 0.243 7.17 418.2 9.4
5/8/2021 7:30:00 PM 13.8 56.84 0.243 7.16 345.2 9.34
5/8/2021 7:45:00 PM 13.74 56.732 0.242 7.15 310 9.3
5/8/2021 8:00:00 PM 13.68 56.624 0.241 7.14 457.7 9.25
5/8/2021 8:15:00 PM 13.63 56.534 0.241 7.13 418.1 9.19
5/8/2021 8:30:00 PM 13.57 56.426 0.242 7.12 340 9.14
5/8/2021 8:45:00 PM 13.5 56.3 0.242 7.09 376.6 9.06
5/8/2021 9:00:00 PM 13.42 56.156 0.243 7.08 377.9 9.03
5/8/2021 9:15:00 PM 13.34 56.012 0.243 7.07 396.4 8.96
5/8/2021 9:30:00 PM 13.28 55.904 0.243 7.06 126 8.92
5/8/2021 9:45:00 PM 13.23 55.814 0.243 7.05 507.8 8.91
5/8/2021 10:00:00 PM 13.2 55.76 0.242 7.04 317.3 8.91
5/8/2021 10:15:00 PM 13.19 55.742 0.242 7.03 455.4 8.9
5/8/2021 10:30:00 PM 13.17 55.706 0.242 7.03 261.4 8.94
5/8/2021 10:45:00 PM 13.15 55.67 0.241 7.02 519.7 8.94
5/8/2021 11:00:00 PM 13.11 55.598 0.242 7.01 464.4 8.93
5/8/2021 11:15:00 PM 13.06 55.508 0.242 7 357.7 8.94
5/8/2021 11:30:00 PM 13.02 55.436 0.242 7 417.9 8.9
5/8/2021 11:45:00 PM 12.97 55.346 0.242 6.97 454.2 8.93
5/9/2021 12:00:00 AM 12.93 55.274 0.242 6.98 285.4 8.92
5/9/2021 12:15:00 AM 12.88 55.184 0.241 6.97 808.1 8.93
5/9/2021 12:30:00 AM 12.85 55.13 0.241 6.96 545.6 8.91
5/9/2021 12:45:00 AM 12.78 55.004 0.241 6.96 612.9 8.9
5/9/2021 1:00:00 AM 12.75 54.95 0.241 6.95 560.9 8.86
5/9/2021 1:15:00 AM 12.68 54.824 0.24 6.93 599.6 8.86
5/9/2021 1:30:00 AM 12.63 54.734 0.241 6.93 530.5 8.88
5/9/2021 1:45:00 AM 12.57 54.626 0.241 6.93 409.7 8.91
5/9/2021 2:00:00 AM 12.53 54.554 0.241 6.92 726.9 8.91
5/9/2021 2:15:00 AM 12.51 54.518 0.242 6.93 559.3 8.94
5/9/2021 2:30:00 AM 12.47 54.446 0.241 6.92 479.9 8.96
5/9/2021 2:45:00 AM 12.44 54.392 0.241 6.92 622.3 8.97
5/9/2021 3:00:00 AM 12.41 54.338 0.241 6.91 521.8 8.96
5/9/2021 3:15:00 AM 12.36 54.248 0.24 6.91 584.5 8.99
5/9/2021 3:30:00 AM 12.36 54.248 0.24 6.9 456.4 8.96
5/9/2021 3:45:00 AM 12.34 54.212 0.241 6.9 451.6 8.96
5/9/2021 4:00:00 AM 12.32 54.176 0.242 6.9 528.6 8.96
5/9/2021 4:15:00 AM 12.28 54.104 0.242 6.89 461 8.98
5/9/2021 4:30:00 AM 12.23 54.014 0.242 6.88 552.5 9
5/9/2021 4:45:00 AM 12.19 53.942 0.242 6.87 548.4 9.01
5/9/2021 5:00:00 AM 12.15 53.87 0.241 6.87 550.3 9.05
5/9/2021 5:15:00 AM 12.13 53.834 0.241 6.88 372.4 9.05
5/9/2021 5:30:00 AM 12.16 53.888 0.241 6.89 673.3 9.06
5/9/2021 5:45:00 AM 12.14 53.852 0.241 6.89 612.8 9.09
5/9/2021 6:00:00 AM 12.11 53.798 0.241 6.88 440.9 9.08
5/9/2021 6:15:00 AM 12.1 53.78 0.241 6.87 667.7 9.08
5/9/2021 6:30:00 AM 12.05 53.69 0.241 6.86 532.8 9.11
5/9/2021 6:45:00 AM 12.01 53.618 0.241 6.87 639.6 9.15
5/9/2021 7:00:00 AM 11.99 53.582 0.241 6.87 572.4 9.17
5/9/2021 7:15:00 AM 11.99 53.582 0.241 6.86 566.3 9.22
5/9/2021 7:30:00 AM 12.04 53.672 0.241 6.86 583.9 9.26
5/9/2021 7:45:00 AM 12.02 53.636 0.24 6.88 572.4 9.36
5/9/2021 8:00:00 AM 12.06 53.708 0.24 6.89 602.5 9.43
5/9/2021 8:15:00 AM 12.11 53.798 0.24 6.9 607.5 9.46
5/9/2021 8:30:00 AM 12.16 53.888 0.24 6.91 510.7 9.53
5/9/2021 8:45:00 AM 12.14 53.852 0.24 6.9 592 9.62
5/9/2021 9:00:00 AM 12.18 53.924 0.241 6.91 481.3 9.64
5/9/2021 9:15:00 AM 12.23 54.014 0.24 6.92 580.4 9.69
5/9/2021 9:30:00 AM 12.24 54.032 0.239 6.92 700.1 9.8
5/9/2021 9:45:00 AM 12.31 54.158 0.239 6.93 595.2 9.86
5/9/2021 10:00:00 AM 12.34 54.212 0.239 6.93 430.2 9.87
5/9/2021 10:15:00 AM 12.4 54.32 0.239 6.95 488.1 9.9
5/9/2021 10:30:00 AM 12.48 54.464 0.239 6.97 441 9.96
5/9/2021 10:45:00 AM 12.53 54.554 0.238 6.99 503 10.06
5/9/2021 11:00:00 AM 12.57 54.626 0.238 6.98 472.2 10.09
5/9/2021 11:15:00 AM 12.59 54.662 0.239 6.98 487.7 10.03
5/9/2021 11:30:00 AM 12.51 54.518 0.239 6.98 451.1 10.02
5/9/2021 11:45:00 AM 12.56 54.608 0.238 6.99 602.9 10.02
5/9/2021 12:00:00 PM 12.56 54.608 0.238 6.99 487.7 10.02
5/9/2021 12:15:00 PM 12.64 54.752 0.238 7.01 386.8 10.04
5/9/2021 12:30:00 PM 12.59 54.662 0.237 7 417.8 10.03
5/9/2021 12:45:00 PM 12.59 54.662 0.237 7 517 9.95
5/9/2021 1:00:00 PM 12.59 54.662 0.237 7 494.7 9.86
5/9/2021 1:15:00 PM 12.67 54.806 0.238 7 612.5 9.92
5/9/2021 1:30:00 PM 12.7 54.86 0.238 7.01 542.6 10.01
5/9/2021 1:45:00 PM 12.68 54.824 0.238 7.02 490.4 10.02
5/9/2021 2:00:00 PM 12.7 54.86 0.239 7.02 248 9.99
5/9/2021 2:15:00 PM 12.71 54.878 0.238 7.03 329.1 10
5/9/2021 2:30:00 PM 12.76 54.968 0.238 7.04 477.2 10.04
5/9/2021 2:45:00 PM 12.75 54.95 0.238 7.05 489.2 10.04
5/9/2021 3:00:00 PM 12.83 55.094 0.238 7.06 546 10.15
5/9/2021 3:15:00 PM 12.92 55.256 0.238 7.06 340.7 10.24
5/9/2021 3:30:00 PM 12.99 55.382 0.238 7.09 356 10.27
5/9/2021 3:45:00 PM 13.05 55.49 0.238 7.1 499.6 10.29
5/9/2021 4:00:00 PM 13.08 55.544 0.24 7.11 344.6 10.29
5/9/2021 4:15:00 PM 13.1 55.58 0.24 7.12 441.6 10.27
5/9/2021 4:30:00 PM 13.11 55.598 0.24 7.12 599.5 10.22
5/9/2021 4:45:00 PM 13.08 55.544 0.24 7.12 486.1 10.19
5/9/2021 5:00:00 PM 13.12 55.616 0.241 7.14 411.3 10.1
5/9/2021 5:15:00 PM 13.05 55.49 0.241 7.13 593.6 10
5/9/2021 5:30:00 PM 13.06 55.508 0.241 7.12 280.5 9.93
5/9/2021 5:45:00 PM 13.05 55.49 0.24 7.11 378.2 9.87
5/9/2021 6:00:00 PM 13.06 55.508 0.241 7.12 332.4 9.83
5/9/2021 6:15:00 PM 12.99 55.382 0.241 7.1 429.6 9.77
5/9/2021 6:30:00 PM 12.96 55.328 0.242 7.1 363.9 9.69
5/9/2021 6:45:00 PM 12.9 55.22 0.242 7.09 446.8 9.6
5/9/2021 7:00:00 PM 12.89 55.202 0.242 7.07 295.4 9.53
5/9/2021 7:15:00 PM 12.86 55.148 0.243 7.06 450.7 9.45
5/9/2021 7:30:00 PM 12.84 55.112 0.243 7.06 305.7 9.33
5/9/2021 7:45:00 PM 12.87 55.166 0.243 7.04 469.7 9.27
5/9/2021 8:00:00 PM 12.83 55.094 0.242 7.02 407 9.23
5/9/2021 8:15:00 PM 12.81 55.058 0.242 7.02 374.9 9.2
5/9/2021 8:30:00 PM 12.81 55.058 0.241 7.02 254.6 9.14
5/9/2021 8:45:00 PM 12.81 55.058 0.242 7.01 400.3 9.12
5/9/2021 9:00:00 PM 12.78 55.004 0.243 7 311.8 9.07
5/9/2021 9:15:00 PM 12.68 54.824 0.242 6.99 317.1 9.08
5/9/2021 9:30:00 PM 12.73 54.914 0.243 6.97 318.4 9.04
5/9/2021 9:45:00 PM 12.73 54.914 0.243 6.98 338.2 9.01
5/9/2021 10:00:00 PM 12.69 54.842 0.242 6.97 373 9.02
5/9/2021 10:15:00 PM 12.67 54.806 0.242 6.96 216.2 9.02
5/9/2021 10:30:00 PM 12.68 54.824 0.242 6.96 477.1 9.01
5/9/2021 10:45:00 PM 12.69 54.842 0.242 6.96 549.6 9.02
5/9/2021 11:00:00 PM 12.74 54.932 0.242 6.96 352.8 9.02
5/9/2021 11:15:00 PM 12.7 54.86 0.242 6.95 295.3 9.08
5/9/2021 11:30:00 PM 12.7 54.86 0.243 6.94 343.9 9.08
5/9/2021 11:45:00 PM 12.67 54.806 0.243 6.94 182.5 9.07
5/10/2021 12:00:00 AM 12.71 54.878 0.243 6.94 372 9.02
5/10/2021 12:15:00 AM 12.67 54.806 0.243 6.94 399.9 9.02
5/10/2021 12:30:00 AM 12.67 54.806 0.243 6.93 269.1 9
5/10/2021 12:45:00 AM 12.66 54.788 0.243 6.91 329.8 8.97
5/10/2021 1:00:00 AM 12.61 54.698 0.242 6.92 287.7 8.96
5/10/2021 1:15:00 AM 12.62 54.716 0.242 6.91 247 8.94
5/10/2021 1:30:00 AM 12.65 54.77 0.243 6.91 371.1 8.9
5/10/2021 1:45:00 AM 12.6 54.68 0.243 6.91 562.4 8.92
5/10/2021 2:00:00 AM 12.58 54.644 0.244 6.91 383.1 8.88
5/10/2021 2:15:00 AM 12.58 54.644 0.244 6.89 304.2 8.85
5/10/2021 2:30:00 AM 12.52 54.536 0.243 6.89 333.1 8.87
5/10/2021 2:45:00 AM 12.53 54.554 0.244 6.89 288.6 8.85
5/10/2021 3:00:00 AM 12.51 54.518 0.243 6.89 372.9 8.85
5/10/2021 3:15:00 AM 12.45 54.41 0.242 6.89 592.9 8.85
5/10/2021 3:30:00 AM 12.48 54.464 0.243 6.88 424.4 8.85
5/10/2021 3:45:00 AM 12.49 54.482 0.243 6.88 411.2 8.83
5/10/2021 4:00:00 AM 12.46 54.428 0.243 6.88 357.1 8.83
5/10/2021 4:15:00 AM 12.41 54.338 0.243 6.87 374.7 8.87
5/10/2021 4:30:00 AM 12.37 54.266 0.243 6.86 338.9 8.91
5/10/2021 4:45:00 AM 12.34 54.212 0.243 6.86 322.6 8.93
5/10/2021 5:00:00 AM 12.28 54.104 0.243 6.87 311.8 8.94
5/10/2021 5:15:00 AM 12.3 54.14 0.243 6.87 467.2 8.92
5/10/2021 5:30:00 AM 12.27 54.086 0.243 6.87 459.1 8.9
5/10/2021 5:45:00 AM 12.24 54.032 0.242 6.86 535.2 8.93
5/10/2021 6:00:00 AM 12.25 54.05 0.242 6.86 403.4 8.92
5/10/2021 6:15:00 AM 12.26 54.068 0.242 6.86 370 8.9
5/10/2021 6:30:00 AM 12.24 54.032 0.243 6.85 410.5 8.94
5/10/2021 6:45:00 AM 12.15 53.87 0.243 6.85 458.4 8.98
5/10/2021 7:00:00 AM 12.17 53.906 0.243 6.85 286.4 9.01
5/10/2021 7:15:00 AM 12.18 53.924 0.243 6.84 273.6 9.04
5/10/2021 7:30:00 AM 12.18 53.924 0.243 6.85 291.9 9.07
5/10/2021 7:45:00 AM 12.19 53.942 0.242 6.85 215.5 9.13
5/10/2021 8:00:00 AM 12.22 53.996 0.242 6.86 308.6 9.22
5/10/2021 8:15:00 AM 12.26 54.068 0.242 6.87 353.7 9.37
5/10/2021 8:30:00 AM 12.32 54.176 0.241 6.89 211.6 9.48
5/10/2021 8:45:00 AM 12.36 54.248 0.242 6.89 555.3 9.55
5/10/2021 9:00:00 AM 12.39 54.302 0.243 6.9 128.4 9.59
5/10/2021 9:15:00 AM 12.35 54.23 0.241 6.91 400.3 9.69
5/10/2021 9:30:00 AM 12.5 54.5 0.241 6.93 268.1 9.83
5/10/2021 9:45:00 AM 12.59 54.662 0.24 6.95 338.5 9.93
5/10/2021 10:00:00 AM 12.74 54.932 0.24 6.96 393.5 9.99
5/10/2021 10:15:00 AM 12.99 55.382 0.241 6.98 311.9 9.99
5/10/2021 10:30:00 AM 13.05 55.49 0.241 6.99 499.4 10.01
5/10/2021 10:45:00 AM 13.17 55.706 0.241 7 335.3 10.02
5/10/2021 11:00:00 AM 13.24 55.832 0.241 7 448.4 10.06
5/10/2021 11:15:00 AM 13.36 56.048 0.241 7.01 405.3 10.08
5/10/2021 11:30:00 AM 13.41 56.138 0.241 7.03 300.6 10.18
5/10/2021 11:45:00 AM 13.68 56.624 0.241 7.04 260.3 10.22
5/10/2021 12:00:00 PM 13.97 57.146 0.241 7.09 270 10.28
5/10/2021 12:15:00 PM 14.25 57.65 0.24 7.1 459.6 10.29
5/10/2021 12:30:00 PM 14.51 58.118 0.24 7.13 466.7 10.3
5/10/2021 12:45:00 PM 14.72 58.496 0.24 7.15 315 10.32
5/10/2021 1:00:00 PM 14.84 58.712 0.24 7.16 331.4 10.35
5/10/2021 1:15:00 PM 14.98 58.964 0.24 7.17 322.3 10.31
5/10/2021 1:30:00 PM 15.15 59.27 0.241 7.19 387 10.31
5/10/2021 1:45:00 PM 15.28 59.504 0.241 7.2 344.8 10.33
5/10/2021 2:00:00 PM 15.34 59.612 0.242 7.23 218 10.29
5/10/2021 2:15:00 PM 15.4 59.72 0.241 7.24 273.7 10.28
5/10/2021 2:30:00 PM 15.52 59.936 0.241 7.27 448.6 10.29
5/10/2021 2:45:00 PM 15.64 60.152 0.241 7.27 271.8 10.24
5/10/2021 3:00:00 PM 15.67 60.206 0.241 7.29 346.9 10.23
5/10/2021 3:15:00 PM 15.74 60.332 0.241 7.3 300.8 10.23
5/10/2021 3:30:00 PM 15.79 60.422 0.24 7.31 434.1 10.19
5/10/2021 3:45:00 PM 15.8 60.44 0.24 7.31 202.2 10.11
5/10/2021 4:00:00 PM 15.78 60.404 0.241 7.31 445.3 10.03
5/10/2021 4:15:00 PM 15.76 60.368 0.242 7.31 384.5 9.97
5/10/2021 4:30:00 PM 15.74 60.332 0.242 7.31 320.8 9.91
5/10/2021 4:45:00 PM 15.69 60.242 0.242 7.31 412.7 9.86
5/10/2021 5:00:00 PM 15.63 60.134 0.242 7.31 530.2 9.8
5/10/2021 5:15:00 PM 15.58 60.044 0.242 7.31 362.4 9.74
5/10/2021 5:30:00 PM 15.51 59.918 0.242 7.3 317.9 9.69
5/10/2021 5:45:00 PM 15.4 59.72 0.242 7.28 425.8 9.61
5/10/2021 6:00:00 PM 15.3 59.54 0.242 7.28 460.8 9.5
5/10/2021 6:15:00 PM 15.16 59.288 0.243 7.26 333.2 9.32
5/10/2021 6:30:00 PM 15.03 59.054 0.244 7.23 408.1 9.14
5/10/2021 6:45:00 PM 14.92 58.856 0.244 7.21 361.8 8.93
5/10/2021 7:00:00 PM 14.83 58.694 0.245 7.18 265.3 8.85
5/10/2021 7:15:00 PM 14.76 58.568 0.245 7.16 336.8 8.72
5/10/2021 7:30:00 PM 14.68 58.424 0.245 7.14 561.4 8.67
5/10/2021 7:45:00 PM 14.62 58.316 0.244 7.11 359 8.62
5/10/2021 8:00:00 PM 14.58 58.244 0.244 7.1 294.7 8.56
5/10/2021 8:15:00 PM 14.52 58.136 0.244 7.09 368.9 8.53
5/10/2021 8:30:00 PM 14.48 58.064 0.244 7.08 286.6 8.51
5/10/2021 8:45:00 PM 14.44 57.992 0.244 7.08 355.3 8.49
5/10/2021 9:00:00 PM 14.42 57.956 0.244 7.06 332.9 8.51
5/10/2021 9:15:00 PM 14.36 57.848 0.245 7.05 363 8.49
5/10/2021 9:30:00 PM 14.33 57.794 0.245 7.05 231.9 8.51
5/10/2021 9:45:00 PM 14.29 57.722 0.245 7.04 288.4 8.52
5/10/2021 10:00:00 PM 14.27 57.686 0.244 7.03 349.8 8.53
5/10/2021 10:15:00 PM 14.24 57.632 0.244 7.03 248.7 8.55
5/10/2021 10:30:00 PM 14.2 57.56 0.244 7.03 244.8 8.56
5/10/2021 10:45:00 PM 14.18 57.524 0.243 7.03 245.3 8.58
5/10/2021 11:00:00 PM 14.15 57.47 0.243 7.03 545.7 8.59
5/10/2021 11:15:00 PM 14.12 57.416 0.244 7.02 331 8.62
5/10/2021 11:30:00 PM 14.1 57.38 0.244 7.01 282.9 8.64
5/10/2021 11:45:00 PM 14.08 57.344 0.244 7.01 360.1 8.66
5/11/2021 12:00:00 AM 14.06 57.308 0.244 7.02 326.7 8.66
5/11/2021 12:15:00 AM 14.06 57.308 0.244 7.01 374.1 8.64
5/11/2021 12:30:00 AM 14.06 57.308 0.244 7.01 393.5 8.62
5/11/2021 12:45:00 AM 14.05 57.29 0.243 7 361.4 8.58
5/11/2021 1:00:00 AM 14.04 57.272 0.243 6.99 283.8 8.57
5/11/2021 1:15:00 AM 14.03 57.254 0.243 7 310.5 8.53
5/11/2021 1:30:00 AM 14.02 57.236 0.244 6.99 302.7 8.51
5/11/2021 1:45:00 AM 13.98 57.164 0.245 6.99 262.3 8.48
5/11/2021 2:00:00 AM 13.95 57.11 0.245 6.96 378.6 8.46
5/11/2021 2:15:00 AM 13.91 57.038 0.245 6.96 338.6 8.43
5/11/2021 2:30:00 AM 13.89 57.002 0.245 6.94 394.6 8.41
5/11/2021 2:45:00 AM 13.85 56.93 0.245 6.94 314.9 8.41
5/11/2021 3:00:00 AM 13.82 56.876 0.245 6.92 553.4 8.4
5/11/2021 3:15:00 AM 13.8 56.84 0.245 6.93 449.2 8.42
5/11/2021 3:30:00 AM 13.79 56.822 0.244 6.93 434.2 8.45
5/11/2021 3:45:00 AM 13.78 56.804 0.244 6.92 340.8 8.46
5/11/2021 4:00:00 AM 13.74 56.732 0.244 6.92 470.4 8.49
5/11/2021 4:15:00 AM 13.69 56.642 0.245 6.92 404.9 8.52
5/11/2021 4:30:00 AM 13.63 56.534 0.245 6.93 370.6 8.52
5/11/2021 4:45:00 AM 13.56 56.408 0.245 6.92 467.5 8.49
5/11/2021 5:00:00 AM 13.5 56.3 0.245 6.92 486.7 8.48
5/11/2021 5:15:00 AM 13.45 56.21 0.245 6.89 338.5 8.46
5/11/2021 5:30:00 AM 13.41 56.138 0.244 6.9 312.6 8.46
5/11/2021 5:45:00 AM 13.36 56.048 0.244 6.89 375.1 8.46
5/11/2021 6:00:00 AM 13.32 55.976 0.244 6.9 236.3 8.47
5/11/2021 6:15:00 AM 13.28 55.904 0.244 6.88 123.2 8.47
5/11/2021 6:30:00 AM 13.23 55.814 0.244 6.88 130.5 8.51
5/11/2021 6:45:00 AM 13.17 55.706 0.244 6.86 478.9 8.56
5/11/2021 7:00:00 AM 13.14 55.652 0.245 6.86 275.6 8.62
5/11/2021 7:15:00 AM 13.12 55.616 0.244 6.86 240.1 8.68
5/11/2021 7:30:00 AM 13.12 55.616 0.244 6.89 310.4 8.77
5/11/2021 7:45:00 AM 13.15 55.67 0.244 6.88 222.2 8.84
5/11/2021 8:00:00 AM 13.18 55.724 0.243 6.89 404.8 8.95
5/11/2021 8:15:00 AM 13.23 55.814 0.243 6.9 285.6 9.07
5/11/2021 8:30:00 AM 13.32 55.976 0.243 6.91 172.4 9.16
5/11/2021 8:45:00 AM 13.38 56.084 0.243 6.92 387 9.23
5/11/2021 9:00:00 AM 13.45 56.21 0.244 6.93 132.6 9.36
5/11/2021 9:15:00 AM 13.51 56.318 0.243 6.94 423.5 9.45
5/11/2021 9:30:00 AM 13.62 56.516 0.243 6.95 111.9 9.56
5/11/2021 9:45:00 AM 13.74 56.732 0.242 6.97 378.5 9.63
5/11/2021 10:00:00 AM 13.88 56.984 0.242 6.99 266.7 9.71
5/11/2021 10:15:00 AM 14.02 57.236 0.242 7.01 258.1 9.78
5/11/2021 10:30:00 AM 14.19 57.542 0.241 7.02 446.9 9.88
5/11/2021 10:45:00 AM 14.34 57.812 0.241 7.05 300.1 9.92
5/11/2021 11:00:00 AM 14.52 58.136 0.241 7.05 149.6 9.91
5/11/2021 11:15:00 AM 14.7 58.46 0.241 7.08 270.8 9.98
5/11/2021 11:30:00 AM 14.87 58.766 0.242 7.09 223.4 10.02
5/11/2021 11:45:00 AM 15.01 59.018 0.242 7.11 235.8 10.07
5/11/2021 12:00:00 PM 15.17 59.306 0.242 7.13 117.8 10.08
5/11/2021 12:15:00 PM 15.33 59.594 0.242 7.13 359.5 10.09
5/11/2021 12:30:00 PM 15.42 59.756 0.241 7.16 131.4 10.07
5/11/2021 12:45:00 PM 15.37 59.666 0.241 7.17 364.9 9.95
5/11/2021 1:00:00 PM 15.28 59.504 0.241 7.16 146 9.87
5/11/2021 1:15:00 PM 15.19 59.342 0.241 7.15 224.6 9.79
5/11/2021 1:30:00 PM 15.08 59.144 0.241 7.15 233.3 9.7
5/11/2021 1:45:00 PM 15 59 0.242 7.16 187.8 9.71
5/11/2021 2:00:00 PM 14.98 58.964 0.242 7.16 351 9.77
5/11/2021 2:15:00 PM 14.97 58.946 0.242 7.17 307 9.83
5/11/2021 2:30:00 PM 14.9 58.82 0.242 7.17 93.02 9.75
5/11/2021 2:45:00 PM 14.82 58.676 0.242 7.18 199.5 9.65
5/11/2021 3:00:00 PM 14.73 58.514 0.242 7.17 125.3 9.52
5/11/2021 3:15:00 PM 14.66 58.388 0.242 7.16 210.6 9.47
5/11/2021 3:30:00 PM 14.6 58.28 0.242 7.14 413.3 9.46
5/11/2021 3:45:00 PM 14.61 58.298 0.242 7.16 448.9 9.56
5/11/2021 4:00:00 PM 14.63 58.334 0.241 7.17 366.2 9.65
5/11/2021 4:15:00 PM 14.65 58.37 0.242 7.16 388.8 9.72
5/11/2021 4:30:00 PM 14.71 58.478 0.242 7.18 340.1 9.76
5/11/2021 4:45:00 PM 14.72 58.496 0.243 7.18 317.5 9.74
5/11/2021 5:00:00 PM 14.7 58.46 0.243 7.18 303.2 9.68
5/11/2021 5:15:00 PM 14.71 58.478 0.242 7.19 469 9.66
5/11/2021 5:30:00 PM 14.71 58.478 0.242 7.18 436.2 9.64
5/11/2021 5:45:00 PM 14.71 58.478 0.242 7.18 274 9.59
5/11/2021 6:00:00 PM 14.68 58.424 0.242 7.18 331.4 9.51
5/11/2021 6:15:00 PM 14.65 58.37 0.243 7.18 342.6 9.39
5/11/2021 6:30:00 PM 14.62 58.316 0.243 7.17 480.4 9.33
5/11/2021 6:45:00 PM 14.56 58.208 0.244 7.15 508.2 9.25
5/11/2021 7:00:00 PM 14.51 58.118 0.244 7.15 578.1 9.19
5/11/2021 7:15:00 PM 14.46 58.028 0.244 7.14 215.5 9.11
5/11/2021 7:30:00 PM 14.42 57.956 0.244 7.13 234.6 9.07
5/11/2021 7:45:00 PM 14.39 57.902 0.243 7.13 164.7 9.02
5/11/2021 8:00:00 PM 14.34 57.812 0.243 7.1 325.3 8.94
5/11/2021 8:15:00 PM 14.3 57.74 0.243 7.11 236.8 8.91
5/11/2021 8:30:00 PM 14.27 57.686 0.243 7.1 235 8.86
5/11/2021 8:45:00 PM 14.24 57.632 0.243 7.09 221.7 8.81
5/11/2021 9:00:00 PM 14.19 57.542 0.244 7.08 244.4 8.78
5/11/2021 9:15:00 PM 14.16 57.488 0.245 7.08 295.4 8.78
5/11/2021 9:30:00 PM 14.12 57.416 0.245 7.08 231.5 8.78
5/11/2021 9:45:00 PM 14.1 57.38 0.244 7.07 239.1 8.78
5/11/2021 10:00:00 PM 14.07 57.326 0.244 7.07 264.9 8.8
5/11/2021 10:15:00 PM 14.04 57.272 0.244 7.06 222 8.79
5/11/2021 10:30:00 PM 13.99 57.182 0.244 7.06 275 8.82
5/11/2021 10:45:00 PM 13.95 57.11 0.244 7.05 256.7 8.81
5/11/2021 11:00:00 PM 13.9 57.02 0.244 7.04 256.2 8.81
5/11/2021 11:15:00 PM 13.82 56.876 0.245 7.03 230.7 8.8
5/11/2021 11:30:00 PM 13.74 56.732 0.246 7.03 325.5 8.8
5/11/2021 11:45:00 PM 13.68 56.624 0.246 7.02 329.3 8.79
5/12/2021 12:00:00 AM 13.59 56.462 0.246 7.01 536 8.76
5/12/2021 12:15:00 AM 13.51 56.318 0.246 7 239.7 8.7
5/12/2021 12:30:00 AM 13.43 56.174 0.245 6.98 164.7 8.65
5/12/2021 12:45:00 AM 13.36 56.048 0.245 6.98 331.1 8.57
5/12/2021 1:00:00 AM 13.28 55.904 0.245 6.96 333.9 8.52
5/12/2021 1:15:00 AM 13.23 55.814 0.246 6.94 261.7 8.45
5/12/2021 1:30:00 AM 13.16 55.688 0.245 6.94 239.2 8.39
5/12/2021 1:45:00 AM 13.1 55.58 0.246 6.92 267.5 8.39
5/12/2021 2:00:00 AM 13.05 55.49 0.247 6.91 230.6 8.35
5/12/2021 2:15:00 AM 13 55.4 0.247 6.91 300.4 8.36
5/12/2021 2:30:00 AM 12.97 55.346 0.247 6.89 388.3 8.36
5/12/2021 2:45:00 AM 12.94 55.292 0.247 6.89 304.5 8.39
5/12/2021 3:00:00 AM 12.92 55.256 0.247 6.89 271.7 8.41
5/12/2021 3:15:00 AM 12.91 55.238 0.246 6.89 271 8.44
5/12/2021 3:30:00 AM 12.88 55.184 0.246 6.88 356.1 8.49
5/12/2021 3:45:00 AM 12.86 55.148 0.246 6.88 354.9 8.49
5/12/2021 4:00:00 AM 12.83 55.094 0.246 6.88 254.7 8.56
5/12/2021 4:15:00 AM 12.78 55.004 0.247 6.87 331.3 8.6
5/12/2021 4:30:00 AM 12.73 54.914 0.247 6.87 361.1 8.65
5/12/2021 4:45:00 AM 12.67 54.806 0.246 6.86 378.2 8.7
5/12/2021 5:00:00 AM 12.63 54.734 0.247 6.87 298.7 8.72
5/12/2021 5:15:00 AM 12.57 54.626 0.246 6.88 398 8.79
5/12/2021 5:30:00 AM 12.56 54.608 0.246 6.87 271.4 8.78
5/12/2021 5:45:00 AM 12.52 54.536 0.246 6.87 261.1 8.81
5/12/2021 6:00:00 AM 12.5 54.5 0.245 6.87 312.1 8.85
5/12/2021 6:15:00 AM 12.49 54.482 0.245 6.87 148.9 8.89
5/12/2021 6:30:00 AM 12.45 54.41 0.245 6.86 158.3 8.92
5/12/2021 6:45:00 AM 12.4 54.32 0.246 6.87 187.4 8.99
5/12/2021 7:00:00 AM 12.39 54.302 0.246 6.87 343 9.08
5/12/2021 7:15:00 AM 12.39 54.302 0.246 6.86 331.7 9.16
5/12/2021 7:30:00 AM 12.4 54.32 0.245 6.88 290.3 9.24
5/12/2021 7:45:00 AM 12.4 54.32 0.245 6.89 314.1 9.32
5/12/2021 8:00:00 AM 12.46 54.428 0.244 6.9 323.2 9.4
5/12/2021 8:15:00 AM 12.52 54.536 0.244 6.9 327.8 9.49
5/12/2021 8:30:00 AM 12.59 54.662 0.244 6.93 444.2 9.55
5/12/2021 8:45:00 AM 12.71 54.878 0.244 6.93 231.2 9.64
5/12/2021 9:00:00 AM 12.73 54.914 0.245 6.94 302.2 9.78
5/12/2021 9:15:00 AM 12.87 55.166 0.245 6.95 238.8 9.83
5/12/2021 9:30:00 AM 12.95 55.31 0.245 6.96 313.3 9.91
5/12/2021 9:45:00 AM 13.05 55.49 0.244 6.97 265.5 9.99
5/12/2021 10:00:00 AM 13.21 55.778 0.244 6.99 225.3 10.02
5/12/2021 10:15:00 AM 13.36 56.048 0.243 7 213.6 10.05
5/12/2021 10:30:00 AM 13.52 56.336 0.243 7.01 332.1 10.09
5/12/2021 10:45:00 AM 13.67 56.606 0.243 7.03 314.2 10.14
5/12/2021 11:00:00 AM 13.89 57.002 0.243 7.04 399 10.15
5/12/2021 11:15:00 AM 14.04 57.272 0.243 7.06 213.6 10.19
5/12/2021 11:30:00 AM 14.22 57.596 0.244 7.08 278.8 10.22
5/12/2021 11:45:00 AM 14.38 57.884 0.243 7.09 292.3 10.3
5/12/2021 12:00:00 PM 14.58 58.244 0.243 7.1 299.9 10.3
5/12/2021 12:15:00 PM 14.8 58.64 0.243 7.14 247.2 10.3
5/12/2021 12:30:00 PM 14.98 58.964 0.242 7.14 257.6 10.32
5/12/2021 12:45:00 PM 15.19 59.342 0.242 7.16 309.9 10.32
5/12/2021 1:00:00 PM 15.33 59.594 0.242 7.16 310.7 10.31
5/12/2021 1:15:00 PM 15.47 59.846 0.242 7.18 276.2 10.32
5/12/2021 1:30:00 PM 15.62 60.116 0.242 7.21 357.5 10.29
5/12/2021 1:45:00 PM 15.78 60.404 0.243 7.21 292.9 10.31
5/12/2021 2:00:00 PM 15.94 60.692 0.243 7.22 321.4 10.33
5/12/2021 2:15:00 PM 16.07 60.926 0.243 7.23 230.8 10.32
5/12/2021 2:30:00 PM 16.19 61.142 0.243 7.25 278 10.33
5/12/2021 2:45:00 PM 16.19 61.142 0.243 7.26 347.9 10.26
5/12/2021 3:00:00 PM 16.28 61.304 0.243 7.27 302.9 10.24
5/12/2021 3:15:00 PM 16.34 61.412 0.242 7.28 254.5 10.24
5/12/2021 3:30:00 PM 16.42 61.556 0.242 7.3 200.5 10.28
5/12/2021 3:45:00 PM 16.43 61.574 0.242 7.31 246 10.26
5/12/2021 4:00:00 PM 16.44 61.592 0.242 7.32 218.7 10.17
5/12/2021 4:15:00 PM 16.46 61.628 0.242 7.33 274.7 10.18
5/12/2021 4:30:00 PM 16.42 61.556 0.243 7.34 226.7 10.05
5/12/2021 4:45:00 PM 16.31 61.358 0.243 7.34 139.2 9.92
5/12/2021 5:00:00 PM 16.24 61.232 0.243 7.33 245.8 9.83
5/12/2021 5:15:00 PM 16.12 61.016 0.244 7.32 269 9.7
5/12/2021 5:30:00 PM 15.98 60.764 0.244 7.29 248.6 9.55
5/12/2021 5:45:00 PM 15.86 60.548 0.244 7.27 346.7 9.36
5/12/2021 6:00:00 PM 15.74 60.332 0.244 7.25 288.8 9.2
5/12/2021 6:15:00 PM 15.63 60.134 0.244 7.22 180.4 9.06
5/12/2021 6:30:00 PM 15.53 59.954 0.245 7.2 191.2 8.94
5/12/2021 6:45:00 PM 15.45 59.81 0.246 7.19 263.3 8.82
5/12/2021 7:00:00 PM 15.39 59.702 0.246 7.16 213.6 8.71
5/12/2021 7:15:00 PM 15.3 59.54 0.246 7.14 278 8.62
5/12/2021 7:30:00 PM 15.23 59.414 0.246 7.12 276.6 8.55
5/12/2021 7:45:00 PM 15.14 59.252 0.245 7.11 267.1 8.48
5/12/2021 8:00:00 PM 15.05 59.09 0.245 7.09 249 8.42
5/12/2021 8:15:00 PM 15.04 59.072 0.244 7.08 286.8 8.39
5/12/2021 8:30:00 PM 14.93 58.874 0.245 7.06 267 8.31
5/12/2021 8:45:00 PM 14.87 58.766 0.245 7.05 312.7 8.31
5/12/2021 9:00:00 PM 14.85 58.73 0.245 7.05 179.8 8.33
5/12/2021 9:15:00 PM 14.81 58.658 0.246 7.04 208.8 8.35
5/12/2021 9:30:00 PM 14.78 58.604 0.246 7.03 260.3 8.38
5/12/2021 9:45:00 PM 14.72 58.496 0.246 7.02 283.3 8.41
5/12/2021 10:00:00 PM 14.71 58.478 0.245 7.01 289.1 8.44
5/12/2021 10:15:00 PM 14.66 58.388 0.245 7.03 228.7 8.48
5/12/2021 10:30:00 PM 14.64 58.352 0.244 7.02 320.3 8.49
5/12/2021 10:45:00 PM 14.6 58.28 0.244 7.01 284.9 8.51
5/12/2021 11:00:00 PM 14.57 58.226 0.244 7.02 158.5 8.52
5/12/2021 11:15:00 PM 14.53 58.154 0.245 7.01 258.3 8.54
5/12/2021 11:30:00 PM 14.49 58.082 0.245 7.01 225 8.54
5/12/2021 11:45:00 PM 14.44 57.992 0.245 7 342.9 8.53
5/13/2021 12:00:00 AM 14.38 57.884 0.245 7 294.6 8.5
5/13/2021 12:15:00 AM 14.32 57.776 0.245 6.99 256.4 8.46
5/13/2021 12:30:00 AM 14.27 57.686 0.245 6.98 219.5 8.43
5/13/2021 12:45:00 AM 14.23 57.614 0.244 6.97 242.8 8.43
5/13/2021 1:00:00 AM 14.2 57.56 0.244 6.96 261.4 8.41
5/13/2021 1:15:00 AM 14.17 57.506 0.244 6.97 305.1 8.41
5/13/2021 1:30:00 AM 14.15 57.47 0.244 6.96 339 8.44
5/13/2021 1:45:00 AM 14.11 57.398 0.244 6.96 362 8.47
5/13/2021 2:00:00 AM 14.08 57.344 0.245 6.95 274.5 8.51
5/13/2021 2:15:00 AM 14.05 57.29 0.245 6.94 294.5 8.53
5/13/2021 2:30:00 AM 14.02 57.236 0.245 6.94 251.8 8.57
5/13/2021 2:45:00 AM 13.99 57.182 0.245 6.95 397.8 8.6
5/13/2021 3:00:00 AM 13.96 57.128 0.244 6.95 340.4 8.6
5/13/2021 3:15:00 AM 13.92 57.056 0.244 6.94 248 8.58
5/13/2021 3:30:00 AM 13.86 56.948 0.244 6.93 285.7 8.56
5/13/2021 3:45:00 AM 13.8 56.84 0.244 6.92 200.7 8.52
5/13/2021 4:00:00 AM 13.72 56.696 0.244 6.91 224.9 8.47
5/13/2021 4:15:00 AM 13.62 56.516 0.245 6.89 350.4 8.45
5/13/2021 4:30:00 AM 13.54 56.372 0.246 6.89 416 8.43
5/13/2021 4:45:00 AM 13.46 56.228 0.245 6.88 371.4 8.45
5/13/2021 5:00:00 AM 13.4 56.12 0.245 6.88 291.3 8.47
5/13/2021 5:15:00 AM 13.34 56.012 0.245 6.87 415.7 8.48
5/13/2021 5:30:00 AM 13.29 55.922 0.245 6.87 260.5 8.47
5/13/2021 5:45:00 AM 13.25 55.85 0.245 6.87 256.1 8.52
5/13/2021 6:00:00 AM 13.21 55.778 0.244 6.86 372.5 8.52
5/13/2021 6:15:00 AM 13.17 55.706 0.244 6.85 321.6 8.55
5/13/2021 6:30:00 AM 13.13 55.634 0.244 6.85 238.1 8.6
5/13/2021 6:45:00 AM 13.05 55.49 0.245 6.85 365.2 8.65
5/13/2021 7:00:00 AM 13 55.4 0.245 6.84 360.2 8.7
5/13/2021 7:15:00 AM 12.97 55.346 0.245 6.85 465.1 8.76
5/13/2021 7:30:00 AM 12.95 55.31 0.244 6.85 300.2 8.84
5/13/2021 7:45:00 AM 12.96 55.328 0.244 6.85 496.4 8.9
5/13/2021 8:00:00 AM 12.99 55.382 0.244 6.87 293.3 8.97
5/13/2021 8:15:00 AM 13.04 55.472 0.244 6.87 475.6 9.05
5/13/2021 8:30:00 AM 13.11 55.598 0.244 6.87 313.7 9.1
5/13/2021 8:45:00 AM 13.19 55.742 0.244 6.88 397.3 9.2
5/13/2021 9:00:00 AM 13.27 55.886 0.244 6.89 392.1 9.3
5/13/2021 9:15:00 AM 13.37 56.066 0.244 6.9 349.9 9.44
5/13/2021 9:30:00 AM 13.51 56.318 0.244 6.91 433.1 9.54
5/13/2021 9:45:00 AM 13.66 56.588 0.243 6.93 316.5 9.61
5/13/2021 10:00:00 AM 13.84 56.912 0.243 6.95 408.4 9.74
5/13/2021 10:15:00 AM 14.01 57.218 0.242 6.96 215.7 9.82
5/13/2021 10:30:00 AM 14.18 57.524 0.242 6.98 353.3 9.91
5/13/2021 10:45:00 AM 14.34 57.812 0.242 7 358.6 9.98
5/13/2021 11:00:00 AM 14.56 58.208 0.242 7.03 377.5 10.03
5/13/2021 11:15:00 AM 14.73 58.514 0.242 7.05 333 10.09
5/13/2021 11:30:00 AM 14.92 58.856 0.243 7.07 193.8 10.13
5/13/2021 11:45:00 AM 15.09 59.162 0.242 7.08 329.3 10.18
5/13/2021 12:00:00 PM 15.29 59.522 0.242 7.11 329.9 10.22
5/13/2021 12:15:00 PM 15.43 59.774 0.242 7.12 317.3 10.21
5/13/2021 12:30:00 PM 15.57 60.026 0.242 7.13 286 10.22
5/13/2021 12:45:00 PM 15.7 60.26 0.242 7.15 308.9 10.23
5/13/2021 1:00:00 PM 15.77 60.386 0.242 7.18 349.2 10.13
5/13/2021 1:15:00 PM 15.93 60.674 0.241 7.2 238.6 10.19
5/13/2021 1:30:00 PM 16.04 60.872 0.241 7.21 161.5 10.19
5/13/2021 1:45:00 PM 15.93 60.674 0.242 7.21 78.76 10.08
5/13/2021 2:00:00 PM 16.03 60.854 0.243 7.22 218.1 10.11
5/13/2021 2:15:00 PM 16.15 61.07 0.243 7.24 186 10.15
5/13/2021 2:30:00 PM 16.31 61.358 0.242 7.26 184.9 10.22
5/13/2021 2:45:00 PM 16.27 61.286 0.241 7.26 208.4 10.11
5/13/2021 3:00:00 PM 16.36 61.448 0.241 7.28 150.7 10.14
5/13/2021 3:15:00 PM 16.46 61.628 0.241 7.28 183.9 10.17
5/13/2021 3:30:00 PM 16.54 61.772 0.241 7.29 205.1 10.18
5/13/2021 3:45:00 PM 16.6 61.88 0.24 7.31 239.5 10.19
5/13/2021 4:00:00 PM 16.64 61.952 0.24 7.32 141.8 10.14
5/13/2021 4:15:00 PM 16.66 61.988 0.241 7.33 169.1 10.08
5/13/2021 4:30:00 PM 16.6 61.88 0.242 7.34 215.3 9.91
5/13/2021 4:45:00 PM 16.54 61.772 0.242 7.33 199.7 9.79
5/13/2021 5:00:00 PM 16.5 61.7 0.242 7.32 186.2 9.67
5/13/2021 5:15:00 PM 16.38 61.484 0.242 7.32 201.3 9.58
5/13/2021 5:30:00 PM 16.28 61.304 0.242 7.31 149 9.45
5/13/2021 5:45:00 PM 16.08 60.944 0.242 7.28 294.9 9.19
5/13/2021 6:00:00 PM 15.88 60.584 0.243 7.25 252.8 8.93
5/13/2021 6:15:00 PM 15.7 60.26 0.244 7.21 209.7 8.69
5/13/2021 6:30:00 PM 15.6 60.08 0.244 7.18 224 8.57
5/13/2021 6:45:00 PM 15.51 59.918 0.245 7.16 401.8 8.49
5/13/2021 7:00:00 PM 15.47 59.846 0.245 7.13 356.3 8.47
5/13/2021 7:15:00 PM 15.42 59.756 0.245 7.12 255 8.42
5/13/2021 7:30:00 PM 15.4 59.72 0.245 7.1 320.2 8.42
5/13/2021 7:45:00 PM 15.37 59.666 0.245 7.1 443.2 8.41
5/13/2021 8:00:00 PM 15.34 59.612 0.245 7.09 280.7 8.45
5/13/2021 8:15:00 PM 15.32 59.576 0.245 7.07 319.8 8.45
5/13/2021 8:30:00 PM 15.25 59.45 0.245 7.07 159.6 8.45
5/13/2021 8:45:00 PM 15.24 59.432 0.245 7.07 383.9 8.44
5/13/2021 9:00:00 PM 15.22 59.396 0.245 7.07 310.7 8.45
5/13/2021 9:15:00 PM 15.2 59.36 0.245 7.06 312.2 8.45
5/13/2021 9:30:00 PM 15.16 59.288 0.246 7.05 308.1 8.4
5/13/2021 9:45:00 PM 15.11 59.198 0.246 7.05 290.7 8.4
5/13/2021 10:00:00 PM 15.06 59.108 0.246 7.03 209.9 8.38
5/13/2021 10:15:00 PM 15.01 59.018 0.246 7.03 170.8 8.37
5/13/2021 10:30:00 PM 14.96 58.928 0.246 7.03 169.7 8.34
5/13/2021 10:45:00 PM 14.9 58.82 0.246 7.01 152.2 8.31
5/13/2021 11:00:00 PM 14.84 58.712 0.246 7.01 225.8 8.32
5/13/2021 11:15:00 PM 14.81 58.658 0.247 7 260.3 8.31
5/13/2021 11:30:00 PM 14.77 58.586 0.247 6.99 221.9 8.31
5/13/2021 11:45:00 PM 14.74 58.532 0.247 7 150.8 8.33
5/14/2021 12:00:00 AM 14.7 58.46 0.247 6.99 178.1 8.32
5/14/2021 12:15:00 AM 14.69 58.442 0.247 6.99 405.8 8.32
5/14/2021 12:30:00 AM 14.65 58.37 0.247 6.98 162.9 8.31
5/14/2021 12:45:00 AM 14.64 58.352 0.246 6.98 142.8 8.31
5/14/2021 1:00:00 AM 14.6 58.28 0.245 6.98 180.1 8.32
5/14/2021 1:15:00 AM 14.56 58.208 0.245 6.96 196.5 8.32
5/14/2021 1:30:00 AM 14.53 58.154 0.245 6.97 274.3 8.32
5/14/2021 1:45:00 AM 14.47 58.046 0.246 6.96 282.5 8.34
5/14/2021 2:00:00 AM 14.43 57.974 0.246 6.96 270.5 8.35
5/14/2021 2:15:00 AM 14.38 57.884 0.246 6.94 175 8.35
5/14/2021 2:30:00 AM 14.36 57.848 0.247 6.95 459.2 8.37
5/14/2021 2:45:00 AM 14.32 57.776 0.246 6.94 53.79 8.38
5/14/2021 3:00:00 AM 14.28 57.704 0.246 6.93 136.2 8.38
5/14/2021 3:15:00 AM 14.24 57.632 0.246 6.92 151.8 8.37
5/14/2021 3:30:00 AM 14.19 57.542 0.245 6.92 315.5 8.35
5/14/2021 3:45:00 AM 14.13 57.434 0.245 6.91 86.79 8.31
5/14/2021 4:00:00 AM 14.06 57.308 0.246 6.9 269.3 8.31
5/14/2021 4:15:00 AM 13.97 57.146 0.246 6.9 201.4 8.29
5/14/2021 4:30:00 AM 13.9 57.02 0.247 6.88 53.34 8.31
5/14/2021 4:45:00 AM 13.83 56.894 0.247 6.87 100.4 8.32
5/14/2021 5:00:00 AM 13.75 56.75 0.246 6.88 161.8 8.31
5/14/2021 5:15:00 AM 13.69 56.642 0.246 6.88 86.24 8.3
5/14/2021 5:30:00 AM 13.63 56.534 0.246 6.87 183.4 8.3
5/14/2021 5:45:00 AM 13.57 56.426 0.246 6.85 181 8.28
5/14/2021 6:00:00 AM 13.52 56.336 0.245 6.84 140.2 8.3
5/14/2021 6:15:00 AM 13.47 56.246 0.244 6.84 181.5 8.28
5/14/2021 6:30:00 AM 13.41 56.138 0.245 6.83 135.2 8.34
5/14/2021 6:45:00 AM 13.36 56.048 0.245 6.83 169.3 8.41
5/14/2021 7:00:00 AM 13.32 55.976 0.245 6.83 127.9 8.48
5/14/2021 7:15:00 AM 13.32 55.976 0.245 6.82 139.7 8.55
5/14/2021 7:30:00 AM 13.33 55.994 0.244 6.85 324.6 8.62
5/14/2021 7:45:00 AM 13.37 56.066 0.244 6.83 177.4 8.74
5/14/2021 8:00:00 AM 13.42 56.156 0.244 6.85 205 8.86
5/14/2021 8:15:00 AM 13.49 56.282 0.243 6.86 199.5 8.96
5/14/2021 8:30:00 AM 13.57 56.426 0.243 6.87 159.1 9.1
5/14/2021 8:45:00 AM 13.66 56.588 0.242 6.89 127.8 9.21
5/14/2021 9:00:00 AM 13.77 56.786 0.243 6.89 282.9 9.33
5/14/2021 9:15:00 AM 13.88 56.984 0.243 6.91 127.3 9.47
5/14/2021 9:30:00 AM 14.02 57.236 0.242 6.93 178 9.55
5/14/2021 9:45:00 AM 14.16 57.488 0.242 6.95 77.53 9.66
5/14/2021 10:00:00 AM 14.34 57.812 0.242 6.97 188.1 9.73
5/14/2021 10:15:00 AM 14.51 58.118 0.241 6.99 250 9.82
5/14/2021 10:30:00 AM 14.69 58.442 0.241 7.01 300.8 9.9
5/14/2021 10:45:00 AM 14.88 58.784 0.241 7.04 262.7 9.97
5/14/2021 11:00:00 AM 15.09 59.162 0.241 7.06 143.6 10.02
5/14/2021 11:15:00 AM 15.25 59.45 0.241 7.07 207.9 10.09
5/14/2021 11:30:00 AM 15.43 59.774 0.241 7.09 144.2 10.12
5/14/2021 11:45:00 AM 15.62 60.116 0.242 7.11 131 10.18
5/14/2021 12:00:00 PM 15.82 60.476 0.241 7.12 246.1 10.22
5/14/2021 12:15:00 PM 15.99 60.782 0.241 7.15 148.6 10.23
5/14/2021 12:30:00 PM 16.07 60.926 0.24 7.15 405.3 10.13
5/14/2021 12:45:00 PM 16.34 61.412 0.24 7.17 183.2 10.23
5/14/2021 1:00:00 PM 16.53 61.754 0.24 7.19 390.1 10.28
5/14/2021 1:15:00 PM 16.72 62.096 0.24 7.2 236 10.28
5/14/2021 1:30:00 PM 16.81 62.258 0.24 7.22 138.8 10.21
5/14/2021 1:45:00 PM 16.94 62.492 0.241 7.23 192.2 10.2
5/14/2021 2:00:00 PM 17.02 62.636 0.241 7.25 172.7 10.18
5/14/2021 2:15:00 PM 17.13 62.834 0.242 7.25 135 10.18
5/14/2021 2:30:00 PM 17.17 62.906 0.241 7.26 137.2 10.15
5/14/2021 2:45:00 PM 17.18 62.924 0.241 7.26 116.3 10.08
5/14/2021 3:00:00 PM 17.09 62.762 0.241 7.26 142.7 9.94
5/14/2021 3:15:00 PM 17.04 62.672 0.241 7.27 140.3 9.85
5/14/2021 3:30:00 PM 17.07 62.726 0.241 7.27 77.9 9.87
5/14/2021 3:45:00 PM 17.11 62.798 0.24 7.28 117.9 9.88
5/14/2021 4:00:00 PM 17.1 62.78 0.24 7.28 109.3 9.84
5/14/2021 4:15:00 PM 17.05 62.69 0.241 7.28 148.9 9.7
5/14/2021 4:30:00 PM 17.04 62.672 0.241 7.28 102.9 9.59
5/14/2021 4:45:00 PM 17.15 62.87 0.24 7.29 66.47 9.69
5/14/2021 5:00:00 PM 17.21 62.978 0.24 7.3 142 9.7
5/14/2021 5:15:00 PM 17.28 63.104 0.24 7.31 81.31 9.75
5/14/2021 5:30:00 PM 17.26 63.068 0.241 7.3 35.57 9.72
5/14/2021 5:45:00 PM 17.26 63.068 0.241 7.32 167.6 9.66
5/14/2021 6:00:00 PM 17.2 62.96 0.242 7.3 150.8 9.57
5/14/2021 6:15:00 PM 17.14 62.852 0.242 7.31 170.4 9.43
5/14/2021 6:30:00 PM 17.01 62.618 0.242 7.3 222 9.26
5/14/2021 6:45:00 PM 16.93 62.474 0.243 7.28 33.01 9.12
5/14/2021 7:00:00 PM 16.85 62.33 0.243 7.27 34.82 9.02
5/14/2021 7:15:00 PM 16.79 62.222 0.244 7.26 36.98 8.95
5/14/2021 7:30:00 PM 16.67 62.006 0.244 7.24 35.77 8.84
5/14/2021 7:45:00 PM 16.62 61.916 0.244 7.23 42.95 8.78
5/14/2021 8:00:00 PM 16.54 61.772 0.243 7.23 47.58 8.67
5/14/2021 8:15:00 PM 16.44 61.592 0.244 7.21 52.75 8.57
5/14/2021 8:30:00 PM 16.36 61.448 0.243 7.19 77.69 8.49
5/14/2021 8:45:00 PM 16.27 61.286 0.243 7.18 73.61 8.42
5/14/2021 9:00:00 PM 16.19 61.142 0.243 7.18 84.85 8.36
5/14/2021 9:15:00 PM 16.13 61.034 0.244 7.16 90.68 8.33
5/14/2021 9:30:00 PM 16.1 60.98 0.244 7.15 89.66 8.31
5/14/2021 9:45:00 PM 16.02 60.836 0.245 7.13 80.35 8.33
5/14/2021 10:00:00 PM 15.97 60.746 0.245 7.13 92.5 8.3
5/14/2021 10:15:00 PM 15.88 60.584 0.245 7.12 109.4 8.29
5/14/2021 10:30:00 PM 15.84 60.512 0.245 7.11 93.43 8.27
5/14/2021 10:45:00 PM 15.77 60.386 0.244 7.09 108.2 8.25
5/14/2021 11:00:00 PM 15.71 60.278 0.244 7.09 202.9 8.2
5/14/2021 11:15:00 PM 15.65 60.17 0.244 7.08 170.9 8.18
5/14/2021 11:30:00 PM 15.58 60.044 0.244 7.07 184.8 8.17
5/14/2021 11:45:00 PM 15.52 59.936 0.245 7.06 323.6 8.17
5/15/2021 12:00:00 AM 15.5 59.9 0.245 7.05 249.6 8.16
5/15/2021 12:15:00 AM 15.41 59.738 0.245 7.04 225.5 8.17
5/15/2021 12:30:00 AM 15.33 59.594 0.245 7.04 123.4 8.16
5/15/2021 12:45:00 AM 15.27 59.486 0.245 7.03 227.7 8.15
5/15/2021 1:00:00 AM 15.24 59.432 0.244 7.02 177.2 8.17
5/15/2021 1:15:00 AM 15.21 59.378 0.244 7.02 188.3 8.16
5/15/2021 1:30:00 AM 15.13 59.234 0.244 7 304.8 8.16
5/15/2021 1:45:00 AM 15.07 59.126 0.244 6.99 103 8.17
5/15/2021 2:00:00 AM 15.01 59.018 0.244 6.98 428.9 8.18
5/15/2021 2:15:00 AM 14.95 58.91 0.245 6.98 343.8 8.18
5/15/2021 2:30:00 AM 14.89 58.802 0.245 6.97 142.5 8.19
5/15/2021 2:45:00 AM 14.85 58.73 0.245 6.96 111 8.2
5/15/2021 3:00:00 AM 14.79 58.622 0.245 6.96 286.2 8.21
5/15/2021 3:15:00 AM 14.75 58.55 0.244 6.95 67.34 8.22
5/15/2021 3:30:00 AM 14.68 58.424 0.244 6.95 128.5 8.24
5/15/2021 3:45:00 AM 14.66 58.388 0.244 6.95 146.3 8.25
5/15/2021 4:00:00 AM 14.59 58.262 0.244 6.95 99.52 8.28
5/15/2021 4:15:00 AM 14.54 58.172 0.244 6.94 144.8 8.29
5/15/2021 4:30:00 AM 14.48 58.064 0.244 6.93 156.5 8.33
5/15/2021 4:45:00 AM 14.41 57.938 0.244 6.93 134.5 8.36
5/15/2021 5:00:00 AM 14.33 57.794 0.245 6.93 261 8.38
5/15/2021 5:15:00 AM 14.26 57.668 0.245 6.91 207.8 8.38
5/15/2021 5:30:00 AM 14.18 57.524 0.244 6.92 314.7 8.38
5/15/2021 5:45:00 AM 14.12 57.416 0.244 6.91 222.2 8.42
5/15/2021 6:00:00 AM 14.03 57.254 0.244 6.9 304 8.42
5/15/2021 6:15:00 AM 13.97 57.146 0.244 6.9 381.6 8.42
5/15/2021 6:30:00 AM 13.91 57.038 0.243 6.9 207.7 8.46
5/15/2021 6:45:00 AM 13.85 56.93 0.243 6.9 256.4 8.51
5/15/2021 7:00:00 AM 13.78 56.804 0.244 6.9 187.1 8.57
5/15/2021 7:15:00 AM 13.73 56.714 0.244 6.89 142.2 8.64
5/15/2021 7:30:00 AM 13.71 56.678 0.244 6.89 264.7 8.73
5/15/2021 7:45:00 AM 13.7 56.66 0.244 6.89 137.5 8.85
5/15/2021 8:00:00 AM 13.72 56.696 0.243 6.89 412.5 8.95
5/15/2021 8:15:00 AM 13.77 56.786 0.243 6.91 346.2 9.07
5/15/2021 8:30:00 AM 13.85 56.93 0.242 6.91 109.8 9.2
5/15/2021 8:45:00 AM 13.94 57.092 0.242 6.93 113.6 9.31
5/15/2021 9:00:00 AM 14.05 57.29 0.242 6.94 134.1 9.42
5/15/2021 9:15:00 AM 14.16 57.488 0.242 6.95 158.5 9.57
5/15/2021 9:30:00 AM 14.29 57.722 0.243 6.97 138.6 9.68
5/15/2021 9:45:00 AM 14.43 57.974 0.242 6.99 134.6 9.79
5/15/2021 10:00:00 AM 14.59 58.262 0.242 6.99 237.8 9.88
5/15/2021 10:15:00 AM 14.78 58.604 0.241 7.02 122.4 9.96
5/15/2021 10:30:00 AM 14.98 58.964 0.241 7.04 110.7 10.04
5/15/2021 10:45:00 AM 15.18 59.324 0.241 7.07 123.1 10.1
5/15/2021 11:00:00 AM 15.42 59.756 0.241 7.1 272.3 10.15
5/15/2021 11:15:00 AM 15.64 60.152 0.241 7.11 93.08 10.22
5/15/2021 11:30:00 AM 15.89 60.602 0.241 7.13 110.8 10.24
5/15/2021 11:45:00 AM 16.11 60.998 0.241 7.15 276.9 10.27
5/15/2021 12:00:00 PM 16.35 61.43 0.241 7.16 112.1 10.33
5/15/2021 12:15:00 PM 16.58 61.844 0.241 7.18 108.4 10.4
5/15/2021 12:30:00 PM 16.84 62.312 0.241 7.2 130.4 10.43
5/15/2021 12:45:00 PM 16.97 62.546 0.241 7.21 134.6 10.39
5/15/2021 1:00:00 PM 17.11 62.798 0.24 7.23 86.21 10.35
5/15/2021 1:15:00 PM 17.01 62.618 0.24 7.23 125.2 10.16
5/15/2021 1:30:00 PM 16.95 62.51 0.24 7.23 304.8 10.03
5/15/2021 1:45:00 PM 17.01 62.618 0.24 7.23 172.4 10.07
5/15/2021 2:00:00 PM 17.21 62.978 0.241 7.25 157.3 10.24
5/15/2021 2:15:00 PM 17.25 63.05 0.241 7.26 198.6 10.25
5/15/2021 2:30:00 PM 17.36 63.248 0.241 7.29 94.68 10.33
5/15/2021 2:45:00 PM 17.41 63.338 0.241 7.3 135.5 10.33
5/15/2021 3:00:00 PM 17.48 63.464 0.24 7.31 267.1 10.33
5/15/2021 3:15:00 PM 17.51 63.518 0.24 7.32 80.08 10.31
5/15/2021 3:30:00 PM 17.52 63.536 0.24 7.33 73.19 10.26
5/15/2021 3:45:00 PM 17.53 63.554 0.24 7.34 137.1 10.23
5/15/2021 4:00:00 PM 17.53 63.554 0.24 7.35 185.1 10.16
5/15/2021 4:15:00 PM 17.55 63.59 0.24 7.36 160.5 10.1
5/15/2021 4:30:00 PM 17.59 63.662 0.24 7.36 123.2 10.08
5/15/2021 4:45:00 PM 17.62 63.716 0.241 7.36 287.7 10.07
5/15/2021 5:00:00 PM 17.62 63.716 0.241 7.37 70.92 10.01
5/15/2021 5:15:00 PM 17.6 63.68 0.241 7.38 296.3 9.93
5/15/2021 5:30:00 PM 17.55 63.59 0.242 7.37 72.57 9.81
5/15/2021 5:45:00 PM 17.51 63.518 0.242 7.37 142.3 9.66
5/15/2021 6:00:00 PM 17.44 63.392 0.241 7.37 179.4 9.54
5/15/2021 6:15:00 PM 17.34 63.212 0.242 7.35 119 9.38
5/15/2021 6:30:00 PM 17.25 63.05 0.241 7.34 94.89 9.23
5/15/2021 6:45:00 PM 17.15 62.87 0.242 7.32 190.6 9.08
5/15/2021 7:00:00 PM 17.07 62.726 0.242 7.3 156.6 9
5/15/2021 7:15:00 PM 17 62.6 0.243 7.3 278.7 8.93
5/15/2021 7:30:00 PM 16.93 62.474 0.243 7.29 221.8 8.86
5/15/2021 7:45:00 PM 16.9 62.42 0.243 7.28 93.13 8.78
5/15/2021 8:00:00 PM 16.85 62.33 0.243 7.26 178.7 8.71
5/15/2021 8:15:00 PM 16.79 62.222 0.242 7.25 151 8.62
5/15/2021 8:30:00 PM 16.69 62.042 0.243 7.24 221.4 8.54
5/15/2021 8:45:00 PM 16.63 61.934 0.242 7.23 112.6 8.47
5/15/2021 9:00:00 PM 16.55 61.79 0.243 7.21 118 8.39
5/15/2021 9:15:00 PM 16.46 61.628 0.243 7.19 96.94 8.33
5/15/2021 9:30:00 PM 16.35 61.43 0.244 7.17 286.8 8.26
5/15/2021 9:45:00 PM 16.27 61.286 0.245 7.15 119.3 8.16
5/15/2021 10:00:00 PM 16.18 61.124 0.244 7.13 218.6 8.11
5/15/2021 10:15:00 PM 16.15 61.07 0.244 7.11 213.3 8.04
5/15/2021 10:30:00 PM 16.08 60.944 0.244 7.09 103.2 8.03
5/15/2021 10:45:00 PM 15.98 60.764 0.245 7.07 224.3 7.97
5/15/2021 11:00:00 PM 15.91 60.638 0.245 7.06 548.1 7.94
5/15/2021 11:15:00 PM 15.87 60.566 0.244 7.04 309.7 7.94
5/15/2021 11:30:00 PM 15.83 60.494 0.244 7.04 121.4 7.95
5/15/2021 11:45:00 PM 15.78 60.404 0.245 7.03 166.6 7.96
5/16/2021 12:00:00 AM 15.74 60.332 0.245 7.01 185.2 8
5/16/2021 12:15:00 AM 15.7 60.26 0.245 7.01 105.2 8.03
5/16/2021 12:30:00 AM 15.68 60.224 0.245 7.01 140.2 8.08
5/16/2021 12:45:00 AM 15.7 60.26 0.244 7 288.8 8.09
5/16/2021 1:00:00 AM 15.64 60.152 0.244 7 225.2 8.1
5/16/2021 1:15:00 AM 15.65 60.17 0.243 7 319.2 8.11
5/16/2021 1:30:00 AM 15.58 60.044 0.244 6.99 91.85 8.1
5/16/2021 1:45:00 AM 15.51 59.918 0.243 6.97 158.7 8.05
5/16/2021 2:00:00 AM 15.46 59.828 0.244 6.96 111.5 8.01
5/16/2021 2:15:00 AM 15.36 59.648 0.244 6.94 95.75 7.97
5/16/2021 2:30:00 AM 15.29 59.522 0.245 6.94 284.9 7.95
5/16/2021 2:45:00 AM 15.24 59.432 0.245 6.93 140 7.94
5/16/2021 3:00:00 AM 15.2 59.36 0.245 6.93 602.6 7.93
5/16/2021 3:15:00 AM 15.2 59.36 0.244 6.92 130 7.94
5/16/2021 3:30:00 AM 15.11 59.198 0.245 6.92 310.9 7.91
5/16/2021 3:45:00 AM 15.07 59.126 0.244 6.92 538.4 7.92
5/16/2021 4:00:00 AM 15.03 59.054 0.244 6.91 218.9 7.92
5/16/2021 4:15:00 AM 14.98 58.964 0.244 6.9 192.7 7.95
5/16/2021 4:30:00 AM 14.96 58.928 0.244 6.9 263.3 8
5/16/2021 4:45:00 AM 14.89 58.802 0.245 6.9 528.2 8.06
5/16/2021 5:00:00 AM 14.83 58.694 0.245 6.89 516.4 8.1
5/16/2021 5:15:00 AM 14.81 58.658 0.245 6.89 491.1 8.15
5/16/2021 5:30:00 AM 14.75 58.55 0.244 6.89 294.8 8.18
5/16/2021 5:45:00 AM 14.71 58.478 0.244 6.89 179.5 8.23
5/16/2021 6:00:00 AM 14.65 58.37 0.243 6.9 189.5 8.26
5/16/2021 6:15:00 AM 14.6 58.28 0.243 6.89 149 8.29
5/16/2021 6:30:00 AM 14.53 58.154 0.243 6.9 333.8 8.28
5/16/2021 6:45:00 AM 14.49 58.082 0.243 6.9 170.4 8.31
5/16/2021 7:00:00 AM 14.42 57.956 0.243 6.89 470.9 8.36
5/16/2021 7:15:00 AM 14.4 57.92 0.244 6.88 173 8.43
5/16/2021 7:30:00 AM 14.37 57.866 0.244 6.89 165.7 8.51
5/16/2021 7:45:00 AM 14.36 57.848 0.243 6.89 174.9 8.61
5/16/2021 8:00:00 AM 14.39 57.902 0.242 6.9 148 8.72
5/16/2021 8:15:00 AM 14.41 57.938 0.242 6.9 222.5 8.78
5/16/2021 8:30:00 AM 14.44 57.992 0.242 6.91 334.7 8.86
5/16/2021 8:45:00 AM 14.47 58.046 0.241 6.92 203.7 8.9
5/16/2021 9:00:00 AM 14.5 58.1 0.241 6.92 391.1 8.99
5/16/2021 9:15:00 AM 14.53 58.154 0.241 6.93 209.7 9.08
5/16/2021 9:30:00 AM 14.56 58.208 0.241 6.93 242.7 9.16
5/16/2021 9:45:00 AM 14.6 58.28 0.241 6.94 203.8 9.23
5/16/2021 10:00:00 AM 14.65 58.37 0.241 6.95 224.1 9.36
5/16/2021 10:15:00 AM 14.71 58.478 0.24 6.96 129.7 9.46
5/16/2021 10:30:00 AM 14.8 58.64 0.24 6.98 175.5 9.63
5/16/2021 10:45:00 AM 14.93 58.874 0.239 7 155.9 9.83
5/16/2021 11:00:00 AM 15.08 59.144 0.238 7.01 175 10.01
5/16/2021 11:15:00 AM 15.23 59.414 0.238 7.03 242.3 10.12
5/16/2021 11:30:00 AM 15.43 59.774 0.238 7.05 165.3 10.25
5/16/2021 11:45:00 AM 15.5 59.9 0.239 7.07 139 10.25
5/16/2021 12:00:00 PM 15.58 60.044 0.239 7.09 221.4 10.26
5/16/2021 12:15:00 PM 15.63 60.134 0.239 7.1 156.8 10.28
5/16/2021 12:30:00 PM 15.67 60.206 0.239 7.11 172.8 10.29
5/16/2021 12:45:00 PM 15.7 60.26 0.238 7.12 193 10.3
5/16/2021 1:00:00 PM 15.72 60.296 0.238 7.14 143.3 10.24
5/16/2021 1:15:00 PM 15.77 60.386 0.238 7.15 181.2 10.28
5/16/2021 1:30:00 PM 15.9 60.62 0.237 7.17 381.8 10.38
5/16/2021 1:45:00 PM 15.99 60.782 0.237 7.19 50.1 10.43
5/16/2021 2:00:00 PM 16.02 60.836 0.238 7.19 170.5 10.33
5/16/2021 2:15:00 PM 16 60.8 0.239 7.19 88.05 10.17
5/16/2021 2:30:00 PM 15.98 60.764 0.238 7.2 143.2 10
5/16/2021 2:45:00 PM 15.97 60.746 0.238 7.2 152.8 10
5/16/2021 3:00:00 PM 15.94 60.692 0.238 7.2 177.2 9.94
5/16/2021 3:15:00 PM 15.9 60.62 0.237 7.21 307 9.85
5/16/2021 3:30:00 PM 15.85 60.53 0.237 7.2 190.8 9.73
5/16/2021 3:45:00 PM 15.8 60.44 0.238 7.19 190.9 9.65
5/16/2021 4:00:00 PM 15.75 60.35 0.237 7.2 149.3 9.57
5/16/2021 4:15:00 PM 15.69 60.242 0.237 7.18 243.8 9.45
5/16/2021 4:30:00 PM 15.64 60.152 0.238 7.18 169.3 9.3
5/16/2021 4:45:00 PM 15.59 60.062 0.239 7.17 114.3 9.23
5/16/2021 5:00:00 PM 15.56 60.008 0.238 7.15 159.6 9.17
5/16/2021 5:15:00 PM 15.52 59.936 0.239 7.14 258.7 9.17
5/16/2021 5:30:00 PM 15.49 59.882 0.238 7.15 124.2 9.15
5/16/2021 5:45:00 PM 15.45 59.81 0.238 7.14 107 9.1
5/16/2021 6:00:00 PM 15.42 59.756 0.238 7.12 497.8 9.05
5/16/2021 6:15:00 PM 15.38 59.684 0.238 7.12 161.2 9.02
5/16/2021 6:30:00 PM 15.36 59.648 0.238 7.11 198.1 8.99
5/16/2021 6:45:00 PM 15.33 59.594 0.238 7.1 205.9 8.97
5/16/2021 7:00:00 PM 15.27 59.486 0.238 7.09 158.3 8.9
5/16/2021 7:15:00 PM 15.2 59.36 0.239 7.07 237.7 8.8
5/16/2021 7:30:00 PM 15.13 59.234 0.239 7.05 396.7 8.72
5/16/2021 7:45:00 PM 15.06 59.108 0.239 7.05 171.9 8.61
5/16/2021 8:00:00 PM 15.01 59.018 0.24 7.02 121.9 8.53
5/16/2021 8:15:00 PM 14.98 58.964 0.24 7.02 176.9 8.47
5/16/2021 8:30:00 PM 14.94 58.892 0.24 7 123.9 8.39
5/16/2021 8:45:00 PM 14.93 58.874 0.24 6.99 170.8 8.39
5/16/2021 9:00:00 PM 14.93 58.874 0.239 6.99 60.99 8.38
5/16/2021 9:15:00 PM 14.93 58.874 0.24 6.98 147.5 8.39
5/16/2021 9:30:00 PM 14.92 58.856 0.24 6.98 199 8.39
5/16/2021 9:45:00 PM 14.92 58.856 0.24 6.97 353.8 8.41
5/16/2021 10:00:00 PM 14.91 58.838 0.24 6.97 373.5 8.43
5/16/2021 10:15:00 PM 14.9 58.82 0.241 6.96 238.7 8.43
5/16/2021 10:30:00 PM 14.9 58.82 0.24 6.96 168.1 8.43
5/16/2021 10:45:00 PM 14.89 58.802 0.24 6.96 157.1 8.44
5/16/2021 11:00:00 PM 14.88 58.784 0.24 6.96 180.4 8.44
5/16/2021 11:15:00 PM 14.88 58.784 0.24 6.96 157.3 8.43
5/16/2021 11:30:00 PM 14.86 58.748 0.24 6.96 236.5 8.45
5/16/2021 11:45:00 PM 14.82 58.676 0.241 6.96 161.9 8.46
5/17/2021 12:00:00 AM 14.77 58.586 0.241 6.95 471.5 8.45
5/17/2021 12:15:00 AM 14.72 58.496 0.241 6.96 394.2 8.44
5/17/2021 12:30:00 AM 14.68 58.424 0.241 6.95 308.8 8.44
5/17/2021 12:45:00 AM 14.64 58.352 0.24 6.95 195.6 8.44
5/17/2021 1:00:00 AM 14.6 58.28 0.24 6.95 228.1 8.45
5/17/2021 1:15:00 AM 14.56 58.208 0.24 6.95 328.1 8.44
5/17/2021 1:30:00 AM 14.53 58.154 0.24 6.94 264.1 8.45
5/17/2021 1:45:00 AM 14.49 58.082 0.239 6.94 250 8.44
5/17/2021 2:00:00 AM 14.45 58.01 0.24 6.93 192.7 8.46
5/17/2021 2:15:00 AM 14.41 57.938 0.24 6.92 239.3 8.5
5/17/2021 2:30:00 AM 14.36 57.848 0.24 6.91 285.3 8.51
5/17/2021 2:45:00 AM 14.32 57.776 0.24 6.89 303.8 8.5
5/17/2021 3:00:00 AM 14.29 57.722 0.24 6.88 273.8 8.53
5/17/2021 3:15:00 AM 14.26 57.668 0.24 6.89 240.9 8.55
5/17/2021 3:30:00 AM 14.22 57.596 0.24 6.88 1029 8.54
5/17/2021 3:45:00 AM 14.19 57.542 0.24 6.88 201.8 8.54
5/17/2021 4:00:00 AM 14.17 57.506 0.239 6.88 263.7 8.52
5/17/2021 4:15:00 AM 14.13 57.434 0.239 6.86 129.1 8.55
5/17/2021 4:30:00 AM 14.09 57.362 0.239 6.87 258.2 8.55
5/17/2021 4:45:00 AM 14.05 57.29 0.239 6.87 294.9 8.58
5/17/2021 5:00:00 AM 14.01 57.218 0.239 6.86 298.8 8.6
5/17/2021 5:15:00 AM 13.97 57.146 0.239 6.86 342.2 8.62
5/17/2021 5:30:00 AM 13.93 57.074 0.239 6.86 306.3 8.63
5/17/2021 5:45:00 AM 13.88 56.984 0.238 6.86 292.3 8.64
5/17/2021 6:00:00 AM 13.84 56.912 0.238 6.86 228.5 8.65
5/17/2021 6:15:00 AM 13.81 56.858 0.238 6.86 203.8 8.66
5/17/2021 6:30:00 AM 13.78 56.804 0.237 6.86 279.1 8.68
5/17/2021 6:45:00 AM 13.76 56.768 0.238 6.86 223.4 8.77
5/17/2021 7:00:00 AM 13.74 56.732 0.238 6.86 247.5 8.84
5/17/2021 7:15:00 AM 13.72 56.696 0.238 6.86 258.8 8.94
5/17/2021 7:30:00 AM 13.73 56.714 0.238 6.86 319.3 9.01
5/17/2021 7:45:00 AM 13.75 56.75 0.237 6.87 279.7 9.14
5/17/2021 8:00:00 AM 13.82 56.876 0.237 6.88 185.6 9.23
5/17/2021 8:15:00 AM 13.85 56.93 0.236 6.88 284 9.35
5/17/2021 8:30:00 AM 13.95 57.11 0.236 6.9 185.2 9.48
5/17/2021 8:45:00 AM 14.03 57.254 0.235 6.92 178.4 9.58
5/17/2021 9:00:00 AM 14.12 57.416 0.236 6.93 232.9 9.69
5/17/2021 9:15:00 AM 14.22 57.596 0.236 6.93 258 9.82
5/17/2021 9:30:00 AM 14.34 57.812 0.235 6.95 359.5 9.92
5/17/2021 9:45:00 AM 14.46 58.028 0.236 6.97 246.2 10.03
5/17/2021 10:00:00 AM 14.6 58.28 0.235 6.98 215.5 10.1
5/17/2021 10:15:00 AM 14.73 58.514 0.234 7 257.5 10.17
5/17/2021 10:30:00 AM 14.88 58.784 0.234 7.02 190.9 10.24
5/17/2021 10:45:00 AM 15 59 0.234 7.05 351.9 10.32
5/17/2021 11:00:00 AM 15.14 59.252 0.233 7.06 210 10.36
5/17/2021 11:15:00 AM 15.29 59.522 0.234 7.07 229.2 10.37
5/17/2021 11:30:00 AM 15.4 59.72 0.234 7.09 207.9 10.4
5/17/2021 11:45:00 AM 15.5 59.9 0.235 7.1 268.4 10.46
5/17/2021 12:00:00 PM 15.58 60.044 0.235 7.11 326.2 10.44
5/17/2021 12:15:00 PM 15.65 60.17 0.235 7.12 211.7 10.42
5/17/2021 12:30:00 PM 15.74 60.332 0.234 7.15 224.7 10.45
5/17/2021 12:45:00 PM 15.84 60.512 0.234 7.16 268.4 10.43
5/17/2021 1:00:00 PM 15.94 60.692 0.234 7.17 176.5 10.43
5/17/2021 1:15:00 PM 16.05 60.89 0.234 7.18 155.9 10.43
5/17/2021 1:30:00 PM 16.19 61.142 0.234 7.19 156.7 10.42
5/17/2021 1:45:00 PM 16.25 61.25 0.234 7.2 181.7 10.35
5/17/2021 2:00:00 PM 16.39 61.502 0.235 7.2 120.4 10.37
5/17/2021 2:15:00 PM 16.47 61.646 0.235 7.22 208.3 10.35
5/17/2021 2:30:00 PM 16.58 61.844 0.235 7.23 197.9 10.3
5/17/2021 2:45:00 PM 16.68 62.024 0.235 7.23 331.8 10.3
5/17/2021 3:00:00 PM 16.81 62.258 0.235 7.24 209 10.28
5/17/2021 3:15:00 PM 16.89 62.402 0.235 7.25 228.1 10.27
5/17/2021 3:30:00 PM 17.01 62.618 0.234 7.25 360.1 10.28
5/17/2021 3:45:00 PM 17.1 62.78 0.234 7.26 307.2 10.23
5/17/2021 4:00:00 PM 17.14 62.852 0.234 7.26 220.5 10.11
5/17/2021 4:15:00 PM 17.12 62.816 0.234 7.27 421 9.94
5/17/2021 4:30:00 PM 17.17 62.906 0.234 7.27 82.09 9.83
5/17/2021 4:45:00 PM 17.25 63.05 0.234 7.26 209 9.87
5/17/2021 5:00:00 PM 17.31 63.158 0.235 7.26 266.3 9.87
5/17/2021 5:15:00 PM 17.3 63.14 0.234 7.27 158.5 9.82
5/17/2021 5:30:00 PM 17.29 63.122 0.234 7.27 188.8 9.67
5/17/2021 5:45:00 PM 17.28 63.104 0.234 7.27 245 9.61
5/17/2021 6:00:00 PM 17.24 63.032 0.234 7.28 195.2 9.5
5/17/2021 6:15:00 PM 17.19 62.942 0.234 7.26 419.6 9.39
5/17/2021 6:30:00 PM 17.15 62.87 0.234 7.26 202 9.3
5/17/2021 6:45:00 PM 17.09 62.762 0.234 7.26 199.6 9.21
5/17/2021 7:00:00 PM 17.03 62.654 0.235 7.25 217.8 9.1
5/17/2021 7:15:00 PM 16.98 62.564 0.235 7.24 229.8 8.99
5/17/2021 7:30:00 PM 16.92 62.456 0.236 7.23 213.8 8.87
5/17/2021 7:45:00 PM 16.87 62.366 0.235 7.22 258.3 8.79
5/17/2021 8:00:00 PM 16.8 62.24 0.235 7.21 277.1 8.7
5/17/2021 8:15:00 PM 16.72 62.096 0.235 7.18 321.8 8.59
5/17/2021 8:30:00 PM 16.63 61.934 0.235 7.18 165.1 8.49
5/17/2021 8:45:00 PM 16.55 61.79 0.235 7.16 254.5 8.42
5/17/2021 9:00:00 PM 16.46 61.628 0.235 7.14 117 8.36
5/17/2021 9:15:00 PM 16.37 61.466 0.236 7.13 289.7 8.29
5/17/2021 9:30:00 PM 16.29 61.322 0.237 7.11 202.6 8.25
5/17/2021 9:45:00 PM 16.21 61.178 0.237 7.1 485.1 8.22
5/17/2021 10:00:00 PM 16.12 61.016 0.237 7.08 117.1 8.19
5/17/2021 10:15:00 PM 16.05 60.89 0.237 7.07 213.8 8.16
5/17/2021 10:30:00 PM 15.97 60.746 0.237 7.06 219.5 8.13
5/17/2021 10:45:00 PM 15.91 60.638 0.237 7.05 303.1 8.13
5/17/2021 11:00:00 PM 15.86 60.548 0.236 7.04 113.2 8.12
5/17/2021 11:15:00 PM 15.79 60.422 0.237 7.02 172.9 8.1
5/17/2021 11:30:00 PM 15.74 60.332 0.237 7.02 262.2 8.1
5/17/2021 11:45:00 PM 15.68 60.224 0.237 7.01 132.1 8.12
5/18/2021 12:00:00 AM 15.64 60.152 0.237 7 188.2 8.13
5/18/2021 12:15:00 AM 15.59 60.062 0.238 6.98 293.4 8.14
5/18/2021 12:30:00 AM 15.56 60.008 0.237 6.98 110 8.14
5/18/2021 12:45:00 AM 15.53 59.954 0.237 6.96 150.2 8.16
5/18/2021 1:00:00 AM 15.5 59.9 0.237 6.96 431.3 8.15
5/18/2021 1:15:00 AM 15.48 59.864 0.237 6.96 309.5 8.17
5/18/2021 1:30:00 AM 15.46 59.828 0.236 6.96 379.8 8.17
5/18/2021 1:45:00 AM 15.44 59.792 0.236 6.95 235.8 8.18
5/18/2021 2:00:00 AM 15.41 59.738 0.237 6.94 301.8 8.2
5/18/2021 2:15:00 AM 15.38 59.684 0.238 6.94 142.5 8.19
5/18/2021 2:30:00 AM 15.34 59.612 0.238 6.93 192.7 8.19
5/18/2021 2:45:00 AM 15.3 59.54 0.238 6.93 105.2 8.18
5/18/2021 3:00:00 AM 15.27 59.486 0.238 6.92 196.2 8.18
5/18/2021 3:15:00 AM 15.23 59.414 0.238 6.91 152.1 8.17
5/18/2021 3:30:00 AM 15.18 59.324 0.238 6.91 86.4 8.14
5/18/2021 3:45:00 AM 15.14 59.252 0.238 6.9 153 8.11
5/18/2021 4:00:00 AM 15.1 59.18 0.237 6.9 476.5 8.1
5/18/2021 4:15:00 AM 15.04 59.072 0.238 6.89 309.8 8.1
5/18/2021 4:30:00 AM 14.97 58.946 0.238 6.88 104.9 8.1
5/18/2021 4:45:00 AM 14.91 58.838 0.238 6.88 192.8 8.1
5/18/2021 5:00:00 AM 14.84 58.712 0.239 6.86 262.9 8.1
5/18/2021 5:15:00 AM 14.79 58.622 0.239 6.86 127 8.13
5/18/2021 5:30:00 AM 14.74 58.532 0.239 6.86 155.1 8.13
5/18/2021 5:45:00 AM 14.69 58.442 0.239 6.86 85.14 8.12
5/18/2021 6:00:00 AM 14.64 58.352 0.238 6.85 100.3 8.17
5/18/2021 6:15:00 AM 14.6 58.28 0.238 6.85 91.6 8.18
5/18/2021 6:30:00 AM 14.57 58.226 0.238 6.84 99.91 8.21
5/18/2021 6:45:00 AM 14.53 58.154 0.238 6.85 296.3 8.26
5/18/2021 7:00:00 AM 14.49 58.082 0.239 6.84 170.8 8.35
5/18/2021 7:15:00 AM 14.48 58.064 0.239 6.85 107.1 8.45
5/18/2021 7:30:00 AM 14.49 58.082 0.239 6.85 174.2 8.53
5/18/2021 7:45:00 AM 14.51 58.118 0.238 6.87 85.27 8.62
5/18/2021 8:00:00 AM 14.57 58.226 0.238 6.86 164.7 8.74
5/18/2021 8:15:00 AM 14.63 58.334 0.237 6.88 211.3 8.88
5/18/2021 8:30:00 AM 14.71 58.478 0.237 6.89 80.08 9
5/18/2021 8:45:00 AM 14.81 58.658 0.237 6.89 115.8 9.11
5/18/2021 9:00:00 AM 14.91 58.838 0.237 6.91 102.7 9.21
5/18/2021 9:15:00 AM 15.02 59.036 0.237 6.92 73.51 9.33
5/18/2021 9:30:00 AM 15.13 59.234 0.237 6.94 75.76 9.45
5/18/2021 9:45:00 AM 15.28 59.504 0.237 6.95 644 9.55
5/18/2021 10:00:00 AM 15.47 59.846 0.236 6.96 97.6 9.62
5/18/2021 10:15:00 AM 15.66 60.188 0.236 6.98 101.8 9.7
5/18/2021 10:30:00 AM 15.86 60.548 0.236 7 231.9 9.76
5/18/2021 10:45:00 AM 16.09 60.962 0.236 7.02 432.1 9.8
5/18/2021 11:00:00 AM 16.32 61.376 0.236 7.04 80.71 9.88
5/18/2021 11:15:00 AM 16.54 61.772 0.235 7.05 67.47 9.95
5/18/2021 11:30:00 AM 16.72 62.096 0.236 7.07 186.6 9.96
5/18/2021 11:45:00 AM 16.96 62.528 0.236 7.08 89.35 10.03
5/18/2021 12:00:00 PM 17.21 62.978 0.236 7.1 52.48 10.06
5/18/2021 12:15:00 PM 17.45 63.41 0.236 7.13 80.58 10.16
5/18/2021 12:30:00 PM 17.7 63.86 0.235 7.14 183.4 10.19
5/18/2021 12:45:00 PM 17.93 64.274 0.235 7.16 60.1 10.21
5/18/2021 1:00:00 PM 18.14 64.652 0.235 7.18 325.1 10.2
5/18/2021 1:15:00 PM 18.35 65.03 0.234 7.2 78 10.21
5/18/2021 1:30:00 PM 18.54 65.372 0.234 7.22 171.3 10.21
5/18/2021 1:45:00 PM 18.71 65.67799 0.235 7.23 111.3 10.2
5/18/2021 2:00:00 PM 18.83 65.894 0.235 7.25 106.6 10.19
5/18/2021 2:15:00 PM 18.89 66.002 0.236 7.25 102.2 10.08
5/18/2021 2:30:00 PM 18.97 66.146 0.236 7.27 173.8 10.09
5/18/2021 2:45:00 PM 19.02 66.236 0.236 7.28 130.5 9.99
5/18/2021 3:00:00 PM 19.1 66.38 0.236 7.3 122.4 9.99
5/18/2021 3:15:00 PM 19.17 66.506 0.235 7.3 86.17 9.99
5/18/2021 3:30:00 PM 19.23 66.614 0.235 7.31 106.8 9.95
5/18/2021 3:45:00 PM 19.26 66.668 0.235 7.32 59.98 9.88
5/18/2021 4:00:00 PM 19.26 66.668 0.235 7.33 82.49 9.79
5/18/2021 4:15:00 PM 19.26 66.668 0.235 7.34 109 9.72
5/18/2021 4:30:00 PM 19.23 66.614 0.236 7.34 84.73 9.64
5/18/2021 4:45:00 PM 19.18 66.524 0.236 7.34 124.3 9.56
5/18/2021 5:00:00 PM 19.13 66.434 0.236 7.35 147.1 9.45
5/18/2021 5:15:00 PM 19.09 66.362 0.236 7.35 110.2 9.33
5/18/2021 5:30:00 PM 19.04 66.272 0.236 7.34 87.73 9.24
5/18/2021 5:45:00 PM 18.98 66.164 0.236 7.34 327 9.11
5/18/2021 6:00:00 PM 18.91 66.038 0.236 7.32 96.19 9
5/18/2021 6:15:00 PM 18.81 65.858 0.236 7.31 113.9 8.89
5/18/2021 6:30:00 PM 18.73 65.714 0.236 7.29 174.9 8.75
5/18/2021 6:45:00 PM 18.64 65.552 0.237 7.29 73.62 8.65
5/18/2021 7:00:00 PM 18.61 65.498 0.237 7.27 173.9 8.54
5/18/2021 7:15:00 PM 18.51 65.318 0.238 7.27 201.1 8.47
5/18/2021 7:30:00 PM 18.44 65.192 0.238 7.26 452.5 8.4
5/18/2021 7:45:00 PM 18.34 65.012 0.238 7.24 199.4 8.33
5/18/2021 8:00:00 PM 18.31 64.958 0.237 7.23 425.8 8.25
5/18/2021 8:15:00 PM 18.18 64.724 0.237 7.22 118.7 8.18
5/18/2021 8:30:00 PM 18.08 64.544 0.237 7.2 128.8 8.1
5/18/2021 8:45:00 PM 17.99 64.382 0.237 7.19 97.83 8
5/18/2021 9:00:00 PM 17.88 64.184 0.238 7.18 415 7.95
5/18/2021 9:15:00 PM 17.76 63.968 0.239 7.17 82.35 7.91
5/18/2021 9:30:00 PM 17.72 63.896 0.239 7.15 181.6 7.83
5/18/2021 9:45:00 PM 17.62 63.716 0.24 7.14 586.4 7.82
5/18/2021 10:00:00 PM 17.56 63.608 0.239 7.13 152 7.77
5/18/2021 10:15:00 PM 17.5 63.5 0.24 7.1 462.7 7.75
5/18/2021 10:30:00 PM 17.44 63.392 0.239 7.09 103.1 7.73
5/18/2021 10:45:00 PM 17.38 63.284 0.239 7.08 227.1 7.7
5/18/2021 11:00:00 PM 17.29 63.122 0.239 7.07 120.8 7.68
5/18/2021 11:15:00 PM 17.23 63.014 0.239 7.05 247.6 7.66
5/18/2021 11:30:00 PM 17.23 63.014 0.239 7.06 238.2 7.67
5/18/2021 11:45:00 PM 17.18 62.924 0.24 7.04 152.3 7.69
5/19/2021 12:00:00 AM 17.14 62.852 0.24 7.04 130.8 7.69
5/19/2021 12:15:00 AM 17.1 62.78 0.24 7.03 93.4 7.68
5/19/2021 12:30:00 AM 17.05 62.69 0.24 7.03 93.41 7.65
5/19/2021 12:45:00 AM 17.01 62.618 0.24 7.02 142.2 7.65
5/19/2021 1:00:00 AM 16.94 62.492 0.24 7.01 205.6 7.64
5/19/2021 1:15:00 AM 16.91 62.438 0.24 7 156.6 7.63
5/19/2021 1:30:00 AM 16.85 62.33 0.239 6.99 194.5 7.6
5/19/2021 1:45:00 AM 16.83 62.294 0.239 6.99 142.5 7.59
5/19/2021 2:00:00 AM 16.8 62.24 0.239 6.98 100.7 7.6
5/19/2021 2:15:00 AM 16.77 62.186 0.24 6.97 211 7.6
5/19/2021 2:30:00 AM 16.72 62.096 0.241 6.97 145.2 7.62
5/19/2021 2:45:00 AM 16.71 62.078 0.24 6.96 99.22 7.64
5/19/2021 3:00:00 AM 16.68 62.024 0.24 6.95 182.7 7.65
5/19/2021 3:15:00 AM 16.65 61.97 0.24 6.95 84.47 7.64
5/19/2021 3:30:00 AM 16.6 61.88 0.24 6.95 225.4 7.66
5/19/2021 3:45:00 AM 16.56 61.808 0.24 6.95 232.4 7.66
5/19/2021 4:00:00 AM 16.52 61.736 0.239 6.94 167.3 7.65
5/19/2021 4:15:00 AM 16.45 61.61 0.24 6.93 349.1 7.64
5/19/2021 4:30:00 AM 16.38 61.484 0.24 6.92 146.7 7.65
5/19/2021 4:45:00 AM 16.28 61.304 0.241 6.91 256.2 7.66
5/19/2021 5:00:00 AM 16.26 61.268 0.241 6.91 692.1 7.68
5/19/2021 5:15:00 AM 16.18 61.124 0.241 6.91 136.6 7.67
5/19/2021 5:30:00 AM 16.13 61.034 0.241 6.9 131.1 7.68
5/19/2021 5:45:00 AM 16.12 61.016 0.24 6.9 149.5 7.69
5/19/2021 6:00:00 AM 16.07 60.926 0.24 6.89 136.7 7.71
5/19/2021 6:15:00 AM 15.99 60.782 0.24 6.89 143.9 7.73
5/19/2021 6:30:00 AM 15.95 60.71 0.239 6.88 156.3 7.77
5/19/2021 6:45:00 AM 15.91 60.638 0.24 6.89 78.41 7.84
5/19/2021 7:00:00 AM 15.9 60.62 0.24 6.89 112.6 7.93
5/19/2021 7:15:00 AM 15.87 60.566 0.24 6.89 127.2 8.02
5/19/2021 7:30:00 AM 15.86 60.548 0.24 6.9 152.7 8.12
5/19/2021 7:45:00 AM 15.89 60.602 0.239 6.9 107.6 8.21
5/19/2021 8:00:00 AM 15.93 60.674 0.239 6.91 167 8.33
5/19/2021 8:15:00 AM 15.99 60.782 0.238 6.92 171.3 8.48
5/19/2021 8:30:00 AM 16.07 60.926 0.238 6.93 162.7 8.62
5/19/2021 8:45:00 AM 16.15 61.07 0.238 6.94 228.8 8.75
5/19/2021 9:00:00 AM 16.25 61.25 0.238 6.95 513.5 8.88
5/19/2021 9:15:00 AM 16.36 61.448 0.238 6.96 640.3 9.01
5/19/2021 9:30:00 AM 16.5 61.7 0.238 6.97 116 9.16
5/19/2021 9:45:00 AM 16.64 61.952 0.238 6.99 300.9 9.28
5/19/2021 10:00:00 AM 16.8 62.24 0.237 7 158.6 9.39
5/19/2021 10:15:00 AM 16.98 62.564 0.237 7.02 105.7 9.48
5/19/2021 10:30:00 AM 17.18 62.924 0.236 7.04 349.4 9.56
5/19/2021 10:45:00 AM 17.38 63.284 0.236 7.06 207.8 9.63
5/19/2021 11:00:00 AM 17.61 63.698 0.236 7.08 94.52 9.71
5/19/2021 11:15:00 AM 17.84 64.112 0.236 7.1 161.9 9.78
5/19/2021 11:30:00 AM 18.07 64.526 0.235 7.13 133.7 9.83
5/19/2021 11:45:00 AM 18.3 64.94 0.236 7.13 159.5 9.9
5/19/2021 12:00:00 PM 18.53 65.354 0.236 7.16 173.8 9.96
5/19/2021 12:15:00 PM 18.77 65.786 0.237 7.18 401.1 9.99
5/19/2021 12:30:00 PM 19 66.2 0.236 7.2 724.6 10.04
5/19/2021 12:45:00 PM 19.23 66.614 0.236 7.22 204.6 10.04
5/19/2021 1:00:00 PM 19.44 66.992 0.235 7.24 101.8 10.06
5/19/2021 1:15:00 PM 19.64 67.352 0.235 7.26 216.8 10.07
5/19/2021 1:30:00 PM 19.82 67.676 0.235 7.27 97.22 10.05
5/19/2021 1:45:00 PM 19.96 67.92799 0.236 7.29 179.8 10.01
5/19/2021 2:00:00 PM 20.11 68.198 0.236 7.3 207.8 10
5/19/2021 2:15:00 PM 20.23 68.414 0.237 7.31 472.8 9.97
5/19/2021 2:30:00 PM 20.35 68.63 0.237 7.33 202.8 9.93
5/19/2021 2:45:00 PM 20.45 68.81 0.237 7.34 105.8 9.89
5/19/2021 3:00:00 PM 20.5 68.9 0.237 7.34 185.8 9.79
5/19/2021 3:15:00 PM 20.55 68.99 0.236 7.36 262.6 9.77
5/19/2021 3:30:00 PM 20.58 69.044 0.236 7.37 144.3 9.67
5/19/2021 3:45:00 PM 20.58 69.044 0.236 7.37 121.1 9.61
5/19/2021 4:00:00 PM 20.54 68.972 0.236 7.38 147.8 9.5
5/19/2021 4:15:00 PM 20.52 68.936 0.236 7.38 156.8 9.4
5/19/2021 4:30:00 PM 20.48 68.864 0.237 7.38 192.1 9.31
5/19/2021 4:45:00 PM 20.45 68.81 0.237 7.38 138 9.2
5/19/2021 5:00:00 PM 20.4 68.72 0.238 7.38 143.8 9.07
5/19/2021 5:15:00 PM 20.35 68.63 0.238 7.38 107.9 9
5/19/2021 5:30:00 PM 20.29 68.522 0.238 7.38 128.2 8.9
5/19/2021 5:45:00 PM 20.25 68.45 0.237 7.37 183.8 8.83
5/19/2021 6:00:00 PM 20.21 68.378 0.237 7.36 112.1 8.76
5/19/2021 6:15:00 PM 20.11 68.198 0.237 7.35 344.8 8.63
5/19/2021 6:30:00 PM 20.04 68.07201 0.237 7.35 176.2 8.54
5/19/2021 6:45:00 PM 19.97 67.946 0.237 7.35 195.7 8.51
5/19/2021 7:00:00 PM 19.88 67.784 0.238 7.34 170.7 8.46
5/19/2021 7:15:00 PM 19.85 67.73 0.238 7.32 314.1 8.41
5/19/2021 7:30:00 PM 19.79 67.622 0.239 7.33 294.8 8.3
5/19/2021 7:45:00 PM 19.65 67.37 0.239 7.32 241.6 8.14
5/19/2021 8:00:00 PM 19.54 67.172 0.239 7.3 308.5 7.96
5/19/2021 8:15:00 PM 19.43 66.974 0.239 7.27 324.1 7.8
5/19/2021 8:30:00 PM 19.28 66.704 0.239 7.26 197.2 7.66
5/19/2021 8:45:00 PM 19.19 66.542 0.238 7.24 195.2 7.54
5/19/2021 9:00:00 PM 19.02 66.236 0.239 7.22 329 7.44
5/19/2021 9:15:00 PM 18.93 66.074 0.239 7.21 442.9 7.39
5/19/2021 9:30:00 PM 18.84 65.912 0.24 7.2 208.7 7.38
5/19/2021 9:45:00 PM 18.84 65.912 0.24 7.18 375.5 7.39
5/19/2021 10:00:00 PM 18.76 65.768 0.241 7.17 282.1 7.38
5/19/2021 10:15:00 PM 18.73 65.714 0.24 7.16 464.6 7.37
5/19/2021 10:30:00 PM 18.69 65.642 0.24 7.15 683.3 7.38
5/19/2021 10:45:00 PM 18.58 65.444 0.24 7.13 222.2 7.4
5/19/2021 11:00:00 PM 18.57 65.426 0.24 7.13 395.9 7.39
5/19/2021 11:15:00 PM 18.47 65.246 0.24 7.12 279.3 7.38
5/19/2021 11:30:00 PM 18.36 65.048 0.24 7.11 386.6 7.32
5/19/2021 11:45:00 PM 18.34 65.012 0.241 7.1 446.2 7.32
5/20/2021 12:00:00 AM 18.27 64.886 0.241 7.1 380 7.28
5/20/2021 12:15:00 AM 18.24 64.832 0.241 7.08 270.6 7.24
5/20/2021 12:30:00 AM 18.11 64.598 0.242 7.06 572.7 7.2
5/20/2021 12:45:00 AM 18.11 64.598 0.241 7.06 495.1 7.17
5/20/2021 1:00:00 AM 18.04 64.472 0.241 7.05 546.2 7.16
5/20/2021 1:15:00 AM 17.99 64.382 0.241 7.04 447.6 7.16
5/20/2021 1:30:00 AM 18 64.4 0.241 7.03 406.9 7.16
5/20/2021 1:45:00 AM 17.96 64.328 0.24 7.03 574.7 7.15
5/20/2021 2:00:00 AM 17.86 64.148 0.241 7.01 823.6 7.17
5/20/2021 2:15:00 AM 17.86 64.148 0.241 7.01 707.9 7.19
5/20/2021 2:30:00 AM 17.87 64.166 0.241 7.01 582.9 7.22
5/20/2021 2:45:00 AM 17.84 64.112 0.242 7.01 571.5 7.23
5/20/2021 3:00:00 AM 17.82 64.076 0.241 7.01 774 7.26
5/20/2021 3:15:00 AM 17.76 63.968 0.241 7.01 667 7.29
5/20/2021 3:30:00 AM 17.71 63.878 0.241 7.01 734.1 7.29
5/20/2021 3:45:00 AM 17.7 63.86 0.241 7 1032 7.3
5/20/2021 4:00:00 AM 17.6 63.68 0.241 6.99 1137 7.33
5/20/2021 4:15:00 AM 17.64 63.752 0.24 6.99 941.9 7.34
5/20/2021 4:30:00 AM 17.53 63.554 0.241 6.99 889.5 7.38
5/20/2021 4:45:00 AM 17.49 63.482 0.241 7 1015 7.42
5/20/2021 5:00:00 AM 17.45 63.41 0.241 6.99 724.4 7.44
5/20/2021 5:15:00 AM 17.38 63.284 0.241 6.99 675.4 7.45
5/20/2021 5:30:00 AM 17.39 63.302 0.241 6.99 640 7.47
5/20/2021 5:45:00 AM 17.28 63.104 0.241 6.99 690 7.46
5/20/2021 6:00:00 AM 17.19 62.942 0.241 7 762.2 7.46
5/20/2021 6:15:00 AM 17.19 62.942 0.24 7 872.3 7.48
5/20/2021 6:30:00 AM 17.07 62.726 0.241 6.99 1581 7.49
5/20/2021 6:45:00 AM 17.08 62.744 0.24 6.98 1608 7.55
5/20/2021 7:00:00 AM 17.05 62.69 0.24 6.98 1784 7.63
5/20/2021 7:15:00 AM 17.03 62.654 0.241 6.99 2007 7.72
5/20/2021 7:30:00 AM 17.06 62.708 0.24 7.01 1099 7.83
5/20/2021 7:45:00 AM 17.07 62.726 0.24 7.01 1225 7.9
5/20/2021 8:00:00 AM 17.11 62.798 0.24 7.03 778.5 8.03
5/20/2021 8:15:00 AM 17.21 62.978 0.239 7.03 497.9 8.14
5/20/2021 8:30:00 AM 17.23 63.014 0.239 7.03 597.4 8.27
5/20/2021 8:45:00 AM 17.28 63.104 0.239 7.03 507.9 8.41
5/20/2021 9:00:00 AM 17.37 63.266 0.238 7.03 352.7 8.53
5/20/2021 9:15:00 AM 17.49 63.482 0.238 7.04 325.3 8.69
5/20/2021 9:30:00 AM 17.61 63.698 0.238 7.06 240.6 8.85
5/20/2021 9:45:00 AM 17.74 63.932 0.238 7.07 314.3 8.96
5/20/2021 10:00:00 AM 17.89 64.202 0.238 7.08 424.8 9.11
5/20/2021 10:15:00 AM 18.06 64.508 0.237 7.09 248.1 9.23
5/20/2021 10:30:00 AM 18.25 64.85 0.237 7.11 184.5 9.33
5/20/2021 10:45:00 AM 18.44 65.192 0.237 7.13 398.4 9.41
5/20/2021 11:00:00 AM 18.63 65.534 0.237 7.15 424.5 9.48
5/20/2021 11:15:00 AM 18.82 65.876 0.237 7.17 440.4 9.55
5/20/2021 11:30:00 AM 19.01 66.218 0.236 7.18 301.2 9.58
5/20/2021 11:45:00 AM 19.2 66.56 0.237 7.19 416.6 9.64
5/20/2021 12:00:00 PM 19.43 66.974 0.237 7.2 324.8 9.71
5/20/2021 12:15:00 PM 19.65 67.37 0.237 7.21 249.5 9.74
5/20/2021 12:30:00 PM 19.86 67.748 0.237 7.23 214.1 9.75
5/20/2021 12:45:00 PM 20.09 68.162 0.237 7.24 298.9 9.76
5/20/2021 1:00:00 PM 20.31 68.558 0.237 7.26 563.4 9.79
5/20/2021 1:15:00 PM 20.52 68.936 0.237 7.27 423.5 9.79
5/20/2021 1:30:00 PM 20.68 69.224 0.237 7.29 380 9.74
5/20/2021 1:45:00 PM 20.85 69.53 0.237 7.3 305.8 9.74
5/20/2021 2:00:00 PM 20.99 69.782 0.238 7.31 455.5 9.71
5/20/2021 2:15:00 PM 21.14 70.052 0.238 7.32 371.9 9.7
5/20/2021 2:30:00 PM 21.26 70.268 0.237 7.33 309 9.66
5/20/2021 2:45:00 PM 21.4 70.52 0.237 7.34 334.9 9.62
5/20/2021 3:00:00 PM 21.45 70.61 0.237 7.35 456.9 9.57
5/20/2021 3:15:00 PM 21.53 70.754 0.236 7.37 173 9.51
5/20/2021 3:30:00 PM 21.53 70.754 0.237 7.37 165.4 9.44
5/20/2021 3:45:00 PM 21.55 70.79 0.236 7.38 181.6 9.38
5/20/2021 4:00:00 PM 21.54 70.772 0.236 7.39 267.5 9.31
5/20/2021 4:15:00 PM 21.53 70.754 0.236 7.39 158.4 9.22
5/20/2021 4:30:00 PM 21.5 70.7 0.237 7.4 172 9.1
5/20/2021 4:45:00 PM 21.36 70.448 0.238 7.39 480.8 8.93
5/20/2021 5:00:00 PM 21.2 70.16 0.238 7.39 458.3 8.79
5/20/2021 5:15:00 PM 21.21 70.17799 0.238 7.38 395.2 8.64
5/20/2021 5:30:00 PM 21.25 70.25 0.238 7.39 462.8 8.5
5/20/2021 5:45:00 PM 21.23 70.214 0.238 7.38 520.6 8.38
5/20/2021 6:00:00 PM 21.22 70.196 0.238 7.37 521.9 8.27
5/20/2021 6:15:00 PM 21.12 70.016 0.238 7.37 724.5 8.19
5/20/2021 6:30:00 PM 20.97 69.746 0.238 7.34 333.6 8.09
5/20/2021 6:45:00 PM 20.84 69.512 0.238 7.33 318.2 8.01
5/20/2021 7:00:00 PM 20.66 69.188 0.238 7.32 577.4 7.94
5/20/2021 7:15:00 PM 20.57 69.026 0.239 7.32 406.2 7.86
5/20/2021 7:30:00 PM 20.44 68.792 0.239 7.3 425.5 7.77
5/20/2021 7:45:00 PM 20.25 68.45 0.239 7.28 489.3 7.65
5/20/2021 8:00:00 PM 20.12 68.216 0.239 7.27 686 7.52
5/20/2021 8:15:00 PM 19.97 67.946 0.239 7.25 461.9 7.45
5/20/2021 8:30:00 PM 19.9 67.82 0.239 7.24 500.4 7.36
5/20/2021 8:45:00 PM 19.84 67.712 0.238 7.23 528.3 7.27
5/20/2021 9:00:00 PM 19.61 67.298 0.239 7.21 823.2 7.2
5/20/2021 9:15:00 PM 19.52 67.136 0.239 7.19 803.3 7.15
5/20/2021 9:30:00 PM 19.41 66.938 0.24 7.18 1024 7.14
5/20/2021 9:45:00 PM 19.37 66.866 0.24 7.17 1112 7.12
5/20/2021 10:00:00 PM 19.28 66.704 0.24 7.15 1626 7.12
5/20/2021 10:15:00 PM 19.17 66.506 0.24 7.13 928.9 7.12
5/20/2021 10:30:00 PM 19.14 66.452 0.24 7.13 1767 7.13
5/20/2021 10:45:00 PM 19.02 66.236 0.24 7.12 1337 7.15
5/20/2021 11:00:00 PM 18.92 66.056 0.239 7.11 771.4 7.17
5/20/2021 11:15:00 PM 18.79 65.82201 0.239 7.1 549.5 7.18
5/20/2021 11:30:00 PM 18.72 65.696 0.239 7.09 1229 7.18
5/20/2021 11:45:00 PM 18.66 65.588 0.24 7.08 770 7.16
5/21/2021 12:00:00 AM 18.59 65.462 0.24 7.07 369.1 7.17
5/21/2021 12:15:00 AM 18.53 65.354 0.24 7.07 920.9 7.16
5/21/2021 12:30:00 AM 18.49 65.282 0.24 7.06 1288 7.17
5/21/2021 12:45:00 AM 18.38 65.084 0.24 7.05 1364 7.16
5/21/2021 1:00:00 AM 18.41 65.138 0.24 7.06 917.9 7.19
5/21/2021 1:15:00 AM 18.34 65.012 0.24 7.06 1229 7.21
5/21/2021 1:30:00 AM 18.25 64.85 0.239 7.04 1295 7.22
5/21/2021 1:45:00 AM 18.19 64.742 0.239 7.05 1654 7.22
5/21/2021 2:00:00 AM 18.11 64.598 0.239 7.03 1906 7.22
5/21/2021 2:15:00 AM 18.1 64.58 0.24 7.04 2331 7.23
5/21/2021 2:30:00 AM 17.98 64.364 0.24 7.03 1953 7.23
5/21/2021 2:45:00 AM 17.95 64.31 0.24 7.01 2393 7.24
5/21/2021 3:00:00 AM 17.92 64.256 0.24 7 2144 7.23
5/21/2021 3:15:00 AM 17.86 64.148 0.24 7 2518 7.22
5/21/2021 3:30:00 AM 17.78 64.004 0.24 7 2548 7.22
5/21/2021 3:45:00 AM 17.78 64.004 0.239 7 610.8 7.25
5/21/2021 4:00:00 AM 17.68 63.824 0.239 6.99 769.4 7.24
5/21/2021 4:15:00 AM 17.56 63.608 0.24 6.98 2016 7.26
5/21/2021 4:30:00 AM 17.48 63.464 0.24 6.98 1519 7.31
5/21/2021 4:45:00 AM 17.47 63.446 0.24 6.97 2045 7.36
5/21/2021 5:00:00 AM 17.4 63.32 0.24 6.96 2026 7.39
5/21/2021 5:15:00 AM 17.41 63.338 0.24 6.97 2067 7.43
5/21/2021 5:30:00 AM 17.32 63.176 0.241 6.96 1794 7.46
5/21/2021 5:45:00 AM 17.29 63.122 0.24 6.96 1775 7.48
5/21/2021 6:00:00 AM 17.25 63.05 0.24 6.95 1599 7.5
5/21/2021 6:15:00 AM 17.19 62.942 0.24 6.96 1020 7.54
5/21/2021 6:30:00 AM 17.07 62.726 0.24 6.95 1613 7.57
5/21/2021 6:45:00 AM 17.01 62.618 0.239 6.96 2289 7.6
5/21/2021 7:00:00 AM 17 62.6 0.239 6.96 2034 7.66
5/21/2021 7:15:00 AM 16.94 62.492 0.24 6.95 1591 7.75
5/21/2021 7:30:00 AM 16.96 62.528 0.24 6.96 1795 7.82
5/21/2021 7:45:00 AM 16.97 62.546 0.24 6.96 1504 7.92
5/21/2021 8:00:00 AM 17.01 62.618 0.239 6.97 1429 8.01
5/21/2021 8:15:00 AM 17.04 62.672 0.239 6.98 1729 8.12
5/21/2021 8:30:00 AM 17.11 62.798 0.239 6.98 1030 8.25
5/21/2021 8:45:00 AM 17.14 62.852 0.238 6.99 1585 8.36
5/21/2021 9:00:00 AM 17.24 63.032 0.238 6.99 1908 8.48
5/21/2021 9:15:00 AM 17.33 63.194 0.238 7 2013 8.6
5/21/2021 9:30:00 AM 17.45 63.41 0.238 7.02 1798 8.75
5/21/2021 9:45:00 AM 17.53 63.554 0.238 7.03 1883 8.87
5/21/2021 10:00:00 AM 17.68 63.824 0.237 7.04 1685 8.97
5/21/2021 10:15:00 AM 17.8 64.04 0.237 7.05 2051 9.05
5/21/2021 10:30:00 AM 17.97 64.346 0.237 7.05 2079 9.14
5/21/2021 10:45:00 AM 18.16 64.688 0.236 7.06 1579 9.21
5/21/2021 11:00:00 AM 18.33 64.994 0.236 7.07 632.6 9.28
5/21/2021 11:15:00 AM 18.54 65.372 0.236 7.09 1084 9.34
5/21/2021 11:30:00 AM 18.73 65.714 0.236 7.1 1376 9.43
5/21/2021 11:45:00 AM 18.93 66.074 0.236 7.11 1680 9.47
5/21/2021 12:00:00 PM 19.15 66.47 0.236 7.13 2239 9.54
5/21/2021 12:15:00 PM 19.37 66.866 0.236 7.15 2596 9.58
5/21/2021 12:30:00 PM 19.56 67.208 0.236 7.16 1869 9.6
5/21/2021 12:45:00 PM 19.78 67.604 0.236 7.18 1750 9.64
5/21/2021 1:00:00 PM 19.99 67.982 0.236 7.18 1489 9.69
5/21/2021 1:15:00 PM 20.19 68.342 0.235 7.2 1838 9.69
5/21/2021 1:30:00 PM 20.36 68.648 0.235 7.21 1101 9.66
5/21/2021 1:45:00 PM 20.53 68.954 0.235 7.22 1884 9.65
5/21/2021 2:00:00 PM 20.63 69.134 0.235 7.23 1946 9.6
5/21/2021 2:15:00 PM 20.78 69.404 0.236 7.25 2252 9.58
5/21/2021 2:30:00 PM 20.89 69.602 0.237 7.25 1743 9.52
5/21/2021 2:45:00 PM 20.99 69.782 0.237 7.26 2157 9.5
5/21/2021 3:00:00 PM 21.09 69.962 0.237 7.27 2226 9.45
5/21/2021 3:15:00 PM 21.17 70.106 0.236 7.28 1474 9.4
5/21/2021 3:30:00 PM 21.16 70.088 0.236 7.29 1537 9.31
5/21/2021 3:45:00 PM 21.2 70.16 0.236 7.3 2091 9.24
5/21/2021 4:00:00 PM 21.19 70.142 0.236 7.29 2319 9.15
5/21/2021 4:15:00 PM 21.16 70.088 0.236 7.3 1954 9.06
5/21/2021 4:30:00 PM 21.12 70.016 0.236 7.3 2339 8.97
5/21/2021 4:45:00 PM 21.1 69.98 0.236 7.31 1816 8.88
5/21/2021 5:00:00 PM 21.09 69.962 0.237 7.31 2171 8.79
5/21/2021 5:15:00 PM 21.08 69.944 0.237 7.3 3285 8.68
5/21/2021 5:30:00 PM 21.03 69.854 0.237 7.3 2150 8.6
5/21/2021 5:45:00 PM 20.9 69.62 0.237 7.29 3357 8.48
5/21/2021 6:00:00 PM 20.87 69.566 0.237 7.3 2313 8.38
5/21/2021 6:15:00 PM 20.87 69.566 0.236 7.3 2925 8.28
5/21/2021 6:30:00 PM 20.7 69.26 0.236 7.29 2853 8.16
5/21/2021 6:45:00 PM 20.63 69.134 0.236 7.28 3634 8.05
5/21/2021 7:00:00 PM 20.58 69.044 0.237 7.27 3040 7.94
5/21/2021 7:15:00 PM 20.46 68.828 0.237 7.26 2291 7.85
5/21/2021 7:30:00 PM 20.37 68.666 0.238 7.27 2766 7.75
5/21/2021 7:45:00 PM 20.35 68.63 0.238 7.25 2940 7.67
5/21/2021 8:00:00 PM 20.27 68.486 0.238 7.24 3532 7.6
5/21/2021 8:15:00 PM 20.12 68.216 0.238 7.23 3495 7.53
5/21/2021 8:30:00 PM 20 68 0.238 7.22 3950 7.45
5/21/2021 8:45:00 PM 19.84 67.712 0.238 7.2 3488 7.38
5/21/2021 9:00:00 PM 19.7 67.46 0.238 7.2 3348 7.31
5/21/2021 9:15:00 PM 19.6 67.28 0.238 7.17 3635 7.26
5/21/2021 9:30:00 PM 19.51 67.118 0.239 7.17 2545 7.24
5/21/2021 9:45:00 PM 19.45 67.01 0.239 7.16 2433 7.22
5/21/2021 10:00:00 PM 19.38 66.884 0.239 7.16 2813 7.21
5/21/2021 10:15:00 PM 19.34 66.812 0.239 7.14 2592 7.21
5/21/2021 10:30:00 PM 19.31 66.758 0.239 7.14 2107 7.19
5/21/2021 10:45:00 PM 19.18 66.524 0.239 7.12 2552 7.2
5/21/2021 11:00:00 PM 19.1 66.38 0.239 7.12 3233 7.19
5/21/2021 11:15:00 PM 19.03 66.254 0.239 7.11 2314 7.19
5/21/2021 11:30:00 PM 18.96 66.128 0.239 7.09 1135 7.18
5/21/2021 11:45:00 PM 18.96 66.128 0.239 7.1 1375 7.18
5/22/2021 12:00:00 AM 18.86 65.948 0.24 7.09 1945 7.19
5/22/2021 12:15:00 AM 18.77 65.786 0.24 7.09 2400 7.19
5/22/2021 12:30:00 AM 18.8 65.84 0.24 7.08 3214 7.18
5/22/2021 12:45:00 AM 18.73 65.714 0.24 7.06 3001 7.15
5/22/2021 1:00:00 AM 18.63 65.534 0.24 7.05 1934 7.14
5/22/2021 1:15:00 AM 18.64 65.552 0.24 7.05 2859 7.12
5/22/2021 1:30:00 AM 18.53 65.354 0.24 7.04 2951 7.11
5/22/2021 1:45:00 AM 18.47 65.246 0.239 7.03 3505 7.1
5/22/2021 2:00:00 AM 18.41 65.138 0.239 7.02 3059 7.08
5/22/2021 2:15:00 AM 18.37 65.066 0.24 7.02 3368 7.1
5/22/2021 2:30:00 AM 18.27 64.886 0.24 7.01 3596 7.11
5/22/2021 2:45:00 AM 18.29 64.922 0.24 7 3271 7.11
5/22/2021 3:00:00 AM 18.23 64.814 0.241 7 2902 7.12
5/22/2021 3:15:00 AM 18.24 64.832 0.241 6.99 2942 7.15
5/22/2021 3:30:00 AM 18.23 64.814 0.24 7 3042 7.15
5/22/2021 3:45:00 AM 18.16 64.688 0.24 6.98 2865 7.16
5/22/2021 4:00:00 AM 18.16 64.688 0.24 6.98 2551 7.17
5/22/2021 4:15:00 AM 18.11 64.598 0.24 6.98 2542 7.17
5/22/2021 4:30:00 AM 18.11 64.598 0.239 6.98 2589 7.22
5/22/2021 4:45:00 AM 18.03 64.454 0.24 6.97 2089 7.21
5/22/2021 5:00:00 AM 18.03 64.454 0.24 6.97 2093 7.25
5/22/2021 5:15:00 AM 18 64.4 0.24 6.97 1627 7.25
5/22/2021 5:30:00 AM 17.89 64.202 0.24 6.95 1960 7.25
5/22/2021 5:45:00 AM 17.84 64.112 0.24 6.96 1926 7.25
5/22/2021 6:00:00 AM 17.84 64.112 0.24 6.96 2440 7.26
5/22/2021 6:15:00 AM 17.8 64.04 0.239 6.96 2465 7.28
5/22/2021 6:30:00 AM 17.72 63.896 0.239 6.95 2674 7.3
5/22/2021 6:45:00 AM 17.72 63.896 0.239 6.95 2990 7.37
5/22/2021 7:00:00 AM 17.68 63.824 0.239 6.94 2121 7.46
5/22/2021 7:15:00 AM 17.69 63.842 0.239 6.95 2627 7.55
5/22/2021 7:30:00 AM 17.7 63.86 0.239 6.96 1928 7.65
5/22/2021 7:45:00 AM 17.72 63.896 0.239 6.95 2176 7.77
5/22/2021 8:00:00 AM 17.77 63.986 0.239 6.97 2264 7.88
5/22/2021 8:15:00 AM 17.81 64.058 0.238 6.98 2397 7.99
5/22/2021 8:30:00 AM 17.85 64.13 0.238 6.99 2405 8.1
5/22/2021 8:45:00 AM 17.84 64.112 0.238 6.99 2419 8.15
5/22/2021 9:00:00 AM 17.9 64.22 0.237 7 916.6 8.21
5/22/2021 9:15:00 AM 17.97 64.346 0.237 7.01 1409 8.33
5/22/2021 9:30:00 AM 18.03 64.454 0.237 7.01 1444 8.44
5/22/2021 9:45:00 AM 18.12 64.616 0.237 7.02 821.7 8.57
5/22/2021 10:00:00 AM 18.25 64.85 0.237 7.03 1276 8.73
5/22/2021 10:15:00 AM 18.38 65.084 0.237 7.04 1719 8.83
5/22/2021 10:30:00 AM 18.48 65.264 0.236 7.06 2167 8.93
5/22/2021 10:45:00 AM 18.67 65.606 0.236 7.07 1768 9.04
5/22/2021 11:00:00 AM 18.81 65.858 0.236 7.09 1507 9.11
5/22/2021 11:15:00 AM 19.01 66.218 0.235 7.1 2337 9.21
5/22/2021 11:30:00 AM 19.19 66.542 0.235 7.11 2543 9.27
5/22/2021 11:45:00 AM 19.43 66.974 0.235 7.12 1407 9.39
5/22/2021 12:00:00 PM 19.6 67.28 0.235 7.14 2014 9.46
5/22/2021 12:15:00 PM 19.7 67.46 0.236 7.15 1988 9.42
5/22/2021 12:30:00 PM 19.85 67.73 0.235 7.16 2240 9.45
5/22/2021 12:45:00 PM 20 68 0.235 7.17 2500 9.51
5/22/2021 1:00:00 PM 20.26 68.468 0.235 7.19 2252 9.54
5/22/2021 1:15:00 PM 20.41 68.738 0.235 7.2 2845 9.57
5/22/2021 1:30:00 PM 20.54 68.972 0.235 7.22 2416 9.56
5/22/2021 1:45:00 PM 20.6 69.08 0.234 7.21 2660 9.52
5/22/2021 2:00:00 PM 20.63 69.134 0.235 7.23 1910 9.44
5/22/2021 2:15:00 PM 20.73 69.314 0.235 7.24 2029 9.4
5/22/2021 2:30:00 PM 20.79 69.422 0.236 7.25 2548 9.4
5/22/2021 2:45:00 PM 20.85 69.53 0.236 7.27 2052 9.41
5/22/2021 3:00:00 PM 20.87 69.566 0.235 7.26 2421 9.35
5/22/2021 3:15:00 PM 20.83 69.494 0.235 7.29 1506 9.17
5/22/2021 3:30:00 PM 20.79 69.422 0.235 7.3 1951 9.04
5/22/2021 3:45:00 PM 20.77 69.386 0.235 7.3 1502 8.93
5/22/2021 4:00:00 PM 20.68 69.224 0.235 7.3 1895 8.82
5/22/2021 4:15:00 PM 20.62 69.116 0.235 7.28 1436 8.78
5/22/2021 4:30:00 PM 20.55 68.99 0.235 7.3 1469 8.76
5/22/2021 4:45:00 PM 20.56 69.008 0.235 7.31 973 8.76
5/22/2021 5:00:00 PM 20.54 68.972 0.235 7.3 1134 8.73
5/22/2021 5:15:00 PM 20.48 68.864 0.236 7.29 1989 8.62
5/22/2021 5:30:00 PM 20.46 68.828 0.236 7.29 1594 8.48
5/22/2021 5:45:00 PM 20.37 68.666 0.236 7.29 1344 8.34
5/22/2021 6:00:00 PM 20.34 68.612 0.236 7.28 1445 8.2
5/22/2021 6:15:00 PM 20.27 68.486 0.236 7.28 1041 8.07
5/22/2021 6:30:00 PM 20.16 68.288 0.236 7.28 1633 7.98
5/22/2021 6:45:00 PM 20.04 68.07201 0.236 7.28 1256 7.88
5/22/2021 7:00:00 PM 20.03 68.054 0.236 7.26 1345 7.83
5/22/2021 7:15:00 PM 20.03 68.054 0.237 7.24 1129 7.75
5/22/2021 7:30:00 PM 19.94 67.892 0.237 7.24 1316 7.64
5/22/2021 7:45:00 PM 19.88 67.784 0.238 7.21 1545 7.53
5/22/2021 8:00:00 PM 19.83 67.694 0.238 7.22 1509 7.44
5/22/2021 8:15:00 PM 19.86 67.748 0.237 7.2 960.4 7.39
5/22/2021 8:30:00 PM 19.79 67.622 0.237 7.18 877.9 7.3
5/22/2021 8:45:00 PM 19.67 67.406 0.237 7.17 1696 7.26
5/22/2021 9:00:00 PM 19.6 67.28 0.237 7.16 1218 7.18
5/22/2021 9:15:00 PM 19.54 67.172 0.237 7.16 2180 7.16
5/22/2021 9:30:00 PM 19.51 67.118 0.237 7.14 1749 7.13
5/22/2021 9:45:00 PM 19.44 66.992 0.238 7.14 1285 7.11
5/22/2021 10:00:00 PM 19.43 66.974 0.239 7.14 1271 7.09
5/22/2021 10:15:00 PM 19.41 66.938 0.238 7.12 1143 7.09
5/22/2021 10:30:00 PM 19.4 66.92 0.238 7.12 1550 7.09
5/22/2021 10:45:00 PM 19.41 66.938 0.238 7.11 1257 7.07
5/22/2021 11:00:00 PM 19.23 66.614 0.238 7.09 1518 7.05
5/22/2021 11:15:00 PM 19.22 66.596 0.238 7.1 1347 7.03
5/22/2021 11:30:00 PM 19.13 66.434 0.237 7.1 1517 6.99
5/22/2021 11:45:00 PM 19.09 66.362 0.238 7.08 1367 6.99
5/23/2021 12:00:00 AM 19.01 66.218 0.238 7.07 1404 6.97
5/23/2021 12:15:00 AM 18.94 66.092 0.239 7.08 1447 6.95
5/23/2021 12:30:00 AM 18.93 66.074 0.239 7.05 1423 6.95
5/23/2021 12:45:00 AM 18.9 66.02 0.239 7.06 533.4 6.95
5/23/2021 1:00:00 AM 18.86 65.948 0.239 7.05 1122 6.96
5/23/2021 1:15:00 AM 18.83 65.894 0.238 7.05 489.1 6.96
5/23/2021 1:30:00 AM 18.78 65.804 0.238 7.06 541.6 6.98
5/23/2021 1:45:00 AM 18.73 65.714 0.238 7.05 1161 6.98
5/23/2021 2:00:00 AM 18.75 65.75 0.237 7.04 700.4 7
5/23/2021 2:15:00 AM 18.72 65.696 0.238 7.04 597.7 6.99
5/23/2021 2:30:00 AM 18.69 65.642 0.238 7.03 420.8 7.02
5/23/2021 2:45:00 AM 18.69 65.642 0.239 7.03 587.1 7.03
5/23/2021 3:00:00 AM 18.7 65.66 0.239 7.03 415.9 7.03
5/23/2021 3:15:00 AM 18.7 65.66 0.239 7.01 705 7.04
5/23/2021 3:30:00 AM 18.71 65.67799 0.238 7.01 525.1 7.06
5/23/2021 3:45:00 AM 18.66 65.588 0.238 7.01 588.6 7.06
5/23/2021 4:00:00 AM 18.62 65.516 0.238 7 492 7.07
5/23/2021 4:15:00 AM 18.69 65.642 0.237 7.01 683.4 7.07
5/23/2021 4:30:00 AM 18.62 65.516 0.238 7 574.2 7.1
5/23/2021 4:45:00 AM 18.65 65.57 0.238 7.01 678.8 7.1
5/23/2021 5:00:00 AM 18.59 65.462 0.239 7 797.7 7.08
5/23/2021 5:15:00 AM 18.49 65.282 0.239 7 1044 7.06
5/23/2021 5:30:00 AM 18.53 65.354 0.239 7 690.1 7.07
5/23/2021 5:45:00 AM 18.46 65.228 0.239 7 907.6 7.05
5/23/2021 6:00:00 AM 18.47 65.246 0.238 6.98 738.2 7.07
5/23/2021 6:15:00 AM 18.42 65.156 0.238 6.99 660.4 7.07
5/23/2021 6:30:00 AM 18.42 65.156 0.238 6.97 638.1 7.12
5/23/2021 6:45:00 AM 18.3 64.94 0.238 6.98 1001 7.16
5/23/2021 7:00:00 AM 18.33 64.994 0.238 6.98 843.3 7.23
5/23/2021 7:15:00 AM 18.37 65.066 0.238 6.99 599.7 7.3
5/23/2021 7:30:00 AM 18.38 65.084 0.238 6.97 674.3 7.39
5/23/2021 7:45:00 AM 18.41 65.138 0.238 6.98 582.1 7.49
5/23/2021 8:00:00 AM 18.43 65.174 0.238 6.99 590 7.55
5/23/2021 8:15:00 AM 18.49 65.282 0.237 7 571.5 7.66
5/23/2021 8:30:00 AM 18.48 65.264 0.237 6.99 616.8 7.79
5/23/2021 8:45:00 AM 18.55 65.39 0.237 7.01 741.2 7.88
5/23/2021 9:00:00 AM 18.64 65.552 0.236 7.01 284.2 7.97
5/23/2021 9:15:00 AM 18.71 65.67799 0.236 7.03 195.1 8.08
5/23/2021 9:30:00 AM 18.81 65.858 0.237 7.05 122.3 8.21
5/23/2021 9:45:00 AM 18.94 66.092 0.237 7.06 210.6 8.36
5/23/2021 10:00:00 AM 19.08 66.344 0.236 7.07 353.9 8.45
5/23/2021 10:15:00 AM 19.21 66.578 0.236 7.08 111.1 8.53
5/23/2021 10:30:00 AM 19.39 66.902 0.236 7.09 474.5 8.62
5/23/2021 10:45:00 AM 19.55 67.19 0.235 7.1 532.2 8.69
5/23/2021 11:00:00 AM 19.74 67.532 0.235 7.12 411.2 8.75
5/23/2021 11:15:00 AM 19.94 67.892 0.235 7.14 541.8 8.77
5/23/2021 11:30:00 AM 20.16 68.288 0.235 7.15 501.4 8.83
5/23/2021 11:45:00 AM 20.32 68.576 0.235 7.17 356.6 8.83
5/23/2021 12:00:00 PM 20.58 69.044 0.235 7.18 240.7 8.92
5/23/2021 12:15:00 PM 20.77 69.386 0.235 7.19 451.4 8.91
5/23/2021 12:30:00 PM 20.99 69.782 0.235 7.2 520.4 8.98
5/23/2021 12:45:00 PM 21.2 70.16 0.235 7.21 222.2 8.97
5/23/2021 1:00:00 PM 21.35 70.43 0.235 7.22 209.6 8.94
5/23/2021 1:15:00 PM 21.46 70.628 0.235 7.24 285 8.94
5/23/2021 1:30:00 PM 21.62 70.916 0.235 7.24 522.2 8.89
5/23/2021 1:45:00 PM 21.6 70.88 0.235 7.25 376.5 8.82
5/23/2021 2:00:00 PM 21.68 71.024 0.235 7.26 451.5 8.78
5/23/2021 2:15:00 PM 21.83 71.294 0.235 7.27 422.1 8.84
5/23/2021 2:30:00 PM 21.92 71.456 0.236 7.27 364.4 8.77
5/23/2021 2:45:00 PM 21.94 71.492 0.236 7.28 434.1 8.7
5/23/2021 3:00:00 PM 21.93 71.474 0.236 7.28 335.8 8.65
5/23/2021 3:15:00 PM 21.98 71.564 0.236 7.3 216.3 8.62
5/23/2021 3:30:00 PM 21.97 71.546 0.235 7.3 246.6 8.52
5/23/2021 3:45:00 PM 21.88 71.384 0.236 7.31 241.1 8.39
5/23/2021 4:00:00 PM 21.98 71.564 0.235 7.31 369.3 8.36
5/23/2021 4:15:00 PM 21.82 71.276 0.235 7.3 246.1 8.26
5/23/2021 4:30:00 PM 21.86 71.348 0.235 7.29 453.6 8.23
5/23/2021 4:45:00 PM 21.93 71.474 0.235 7.29 667.9 8.19
5/23/2021 5:00:00 PM 21.83 71.294 0.236 7.29 527.2 8.07
5/23/2021 5:15:00 PM 21.82 71.276 0.236 7.28 438.3 7.94
5/23/2021 5:30:00 PM 21.79 71.222 0.236 7.28 156.1 7.84
5/23/2021 5:45:00 PM 21.69 71.042 0.237 7.27 412.3 7.71
5/23/2021 6:00:00 PM 21.64 70.952 0.237 7.27 857.9 7.63
5/23/2021 6:15:00 PM 21.59 70.862 0.237 7.26 913.3 7.52
5/23/2021 6:30:00 PM 21.5 70.7 0.236 7.25 576.5 7.43
5/23/2021 6:45:00 PM 21.48 70.664 0.236 7.24 489.7 7.33
5/23/2021 7:00:00 PM 21.36 70.448 0.236 7.24 1177 7.28
5/23/2021 7:15:00 PM 21.23 70.214 0.237 7.24 882 7.2
5/23/2021 7:30:00 PM 21.33 70.394 0.237 7.23 878.6 7.17
5/23/2021 7:45:00 PM 21.13 70.034 0.237 7.22 723.2 7.09
5/23/2021 8:00:00 PM 21.13 70.034 0.237 7.22 814.5 7.04
5/23/2021 8:15:00 PM 21.05 69.89 0.237 7.21 723 6.99
5/23/2021 8:30:00 PM 21.11 69.998 0.237 7.21 912.6 6.94
5/23/2021 8:45:00 PM 20.91 69.638 0.237 7.2 815.5 6.88
5/23/2021 9:00:00 PM 20.82 69.476 0.237 7.18 963.1 6.82
5/23/2021 9:15:00 PM 20.7 69.26 0.237 7.18 1028 6.78
5/23/2021 9:30:00 PM 20.67 69.206 0.237 7.18 1103 6.73
5/23/2021 9:45:00 PM 20.51 68.918 0.238 7.16 1329 6.72
5/23/2021 10:00:00 PM 20.53 68.954 0.238 7.15 1548 6.69
5/23/2021 10:15:00 PM 20.61 69.098 0.238 7.14 1665 6.68
5/23/2021 10:30:00 PM 20.46 68.828 0.238 7.14 1589 6.66
5/23/2021 10:45:00 PM 20.46 68.828 0.238 7.14 1770 6.64
5/23/2021 11:00:00 PM 20.39 68.702 0.238 7.13 1774 6.62
5/23/2021 11:15:00 PM 20.28 68.504 0.238 7.1 2015 6.59
5/23/2021 11:30:00 PM 20.27 68.486 0.238 7.1 2213 6.57
5/23/2021 11:45:00 PM 20.17 68.306 0.238 7.09 2033 6.55
5/24/2021 12:00:00 AM 20.23 68.414 0.238 7.08 2133 6.57
5/24/2021 12:15:00 AM 20.2 68.36 0.239 7.08 2039 6.57
5/24/2021 12:30:00 AM 20.14 68.252 0.24 7.07 2229 6.58
5/24/2021 12:45:00 AM 20.24 68.432 0.239 7.07 1948 6.59
5/24/2021 1:00:00 AM 20.17 68.306 0.239 7.07 2181 6.6
5/24/2021 1:15:00 AM 20.17 68.306 0.239 7.07 1927 6.6
5/24/2021 1:30:00 AM 20.26 68.468 0.238 7.06 2296 6.63
5/24/2021 1:45:00 AM 20.15 68.27 0.238 7.06 2182 6.64
5/24/2021 2:00:00 AM 20.09 68.162 0.238 7.06 2437 6.63
5/24/2021 2:15:00 AM 20.03 68.054 0.238 7.07 2871 6.66
5/24/2021 2:30:00 AM 19.97 67.946 0.239 7.07 2972 6.66
5/24/2021 2:45:00 AM 20 68 0.239 7.06 2765 6.66
5/24/2021 3:00:00 AM 20 68 0.239 7.05 2933 6.66
5/24/2021 3:15:00 AM 19.98 67.964 0.239 7.04 2930 6.64
5/24/2021 3:30:00 AM 20.01 68.018 0.239 7.04 2943 6.63
5/24/2021 3:45:00 AM 19.99 67.982 0.239 7.03 2748 6.64
5/24/2021 4:00:00 AM 19.88 67.784 0.239 7.02 3079 6.64
5/24/2021 4:15:00 AM 19.84 67.712 0.239 7.03 3182 6.63
5/24/2021 4:30:00 AM 19.81 67.658 0.239 7.03 3330 6.65
5/24/2021 4:45:00 AM 19.75 67.55 0.239 7.04 3639 6.68
5/24/2021 5:00:00 AM 19.78 67.604 0.239 7.03 3597 6.69
5/24/2021 5:15:00 AM 19.71 67.478 0.24 7.02 3675 6.71
5/24/2021 5:30:00 AM 19.69 67.442 0.24 7.02 1946 6.72
5/24/2021 5:45:00 AM 19.71 67.478 0.24 7.03 2022 6.73
5/24/2021 6:00:00 AM 19.62 67.316 0.24 7.02 2953 6.75
5/24/2021 6:15:00 AM 19.61 67.298 0.239 7.02 2382 6.78
5/24/2021 6:30:00 AM 19.54 67.172 0.239 7.03 1986 6.8
5/24/2021 6:45:00 AM 19.47 67.046 0.239 7.02 2030 6.84
5/24/2021 7:00:00 AM 19.52 67.136 0.238 7.01 2128 6.87
5/24/2021 7:15:00 AM 19.49 67.082 0.239 7.02 2291 6.89
5/24/2021 7:30:00 AM 19.44 66.992 0.239 7.01 3196 6.96
5/24/2021 7:45:00 AM 19.48 67.064 0.239 7.01 3424 6.99
5/24/2021 8:00:00 AM 19.45 67.01 0.239 7.01 2828 7.03
5/24/2021 8:15:00 AM 19.41 66.938 0.239 7 2332 7.04
5/24/2021 8:30:00 AM 19.37 66.866 0.239 7.01 2986 7.04
5/24/2021 8:45:00 AM 19.29 66.722 0.238 7.01 2757 7.07
5/24/2021 9:00:00 AM 19.23 66.614 0.238 7.01 2708 7.05
5/24/2021 9:15:00 AM 19.22 66.596 0.237 7 3090 7.04
5/24/2021 9:30:00 AM 19.15 66.47 0.238 7 3107 7.03
5/24/2021 9:45:00 AM 19.15 66.47 0.238 7.01 3141 7.05
5/24/2021 10:00:00 AM 19.1 66.38 0.238 7 1970 7.1
5/24/2021 10:15:00 AM 19.02 66.236 0.238 7 1807 7.13
5/24/2021 10:30:00 AM 19.02 66.236 0.237 7 3610 7.16
5/24/2021 10:45:00 AM 18.98 66.164 0.237 6.99 3351 7.2
5/24/2021 11:00:00 AM 19.02 66.236 0.236 7 2554 7.26
5/24/2021 11:15:00 AM 18.97 66.146 0.236 7 2645 7.37
5/24/2021 11:30:00 AM 18.92 66.056 0.236 7 2538 7.43
5/24/2021 11:45:00 AM 18.89 66.002 0.236 7.02 2057 7.49
5/24/2021 12:00:00 PM 18.86 65.948 0.236 7.01 2569 7.55
5/24/2021 12:15:00 PM 18.88 65.984 0.236 7.01 2719 7.59
5/24/2021 12:30:00 PM 18.89 66.002 0.236 7.02 2838 7.66
5/24/2021 12:45:00 PM 18.89 66.002 0.236 7.02 1990 7.71
5/24/2021 1:00:00 PM 18.97 66.146 0.235 7.03 2327 7.76
5/24/2021 1:15:00 PM 18.94 66.092 0.235 7.03 2481 7.77
5/24/2021 1:30:00 PM 18.92 66.056 0.235 7.03 2648 7.76
5/24/2021 1:45:00 PM 18.86 65.948 0.235 7.02 2352 7.72
5/24/2021 2:00:00 PM 18.84 65.912 0.235 7.03 2153 7.75
5/24/2021 2:15:00 PM 18.84 65.912 0.235 7.03 2764 7.81
5/24/2021 2:30:00 PM 18.83 65.894 0.235 7.04 1941 7.86
5/24/2021 2:45:00 PM 18.81 65.858 0.236 7.05 2437 7.92
5/24/2021 3:00:00 PM 18.78 65.804 0.236 7.05 2429 7.94
5/24/2021 3:15:00 PM 18.78 65.804 0.235 7.05 2648 7.97
5/24/2021 3:30:00 PM 18.8 65.84 0.235 7.05 2677 7.96
5/24/2021 3:45:00 PM 18.72 65.696 0.235 7.05 2489 7.98
5/24/2021 4:00:00 PM 18.73 65.714 0.235 7.05 2976 8.08
5/24/2021 4:15:00 PM 18.75 65.75 0.234 7.06 3084 8.21
5/24/2021 4:30:00 PM 18.72 65.696 0.234 7.05 3275 8.23
5/24/2021 4:45:00 PM 18.68 65.624 0.235 7.05 2972 8.18
5/24/2021 5:00:00 PM 18.7 65.66 0.235 7.05 2701 8.07
5/24/2021 5:15:00 PM 18.67 65.606 0.235 7.06 2308 8
5/24/2021 5:30:00 PM 18.66 65.588 0.235 7.06 2539 7.95
5/24/2021 5:45:00 PM 18.69 65.642 0.235 7.06 2809 7.91
5/24/2021 6:00:00 PM 18.73 65.714 0.235 7.06 2501 7.85
5/24/2021 6:15:00 PM 18.67 65.606 0.234 7.05 2538 7.77
5/24/2021 6:30:00 PM 18.61 65.498 0.235 7.04 1571 7.66
5/24/2021 6:45:00 PM 18.54 65.372 0.235 7.04 2098 7.58
5/24/2021 7:00:00 PM 18.46 65.228 0.235 7.04 2523 7.53
5/24/2021 7:15:00 PM 18.44 65.192 0.236 7.03 1341 7.52
5/24/2021 7:30:00 PM 18.4 65.12 0.236 7.03 1423 7.49
5/24/2021 7:45:00 PM 18.37 65.066 0.236 7.03 3007 7.47
5/24/2021 8:00:00 PM 18.31 64.958 0.236 7.03 3020 7.42
5/24/2021 8:15:00 PM 18.27 64.886 0.236 7.03 2389 7.4
5/24/2021 8:30:00 PM 18.21 64.778 0.236 7.02 2726 7.36
5/24/2021 8:45:00 PM 18.17 64.706 0.236 7.02 2624 7.33
5/24/2021 9:00:00 PM 18.08 64.544 0.236 7.02 2500 7.32
5/24/2021 9:15:00 PM 18.09 64.562 0.236 7.01 2899 7.32
5/24/2021 9:30:00 PM 18.03 64.454 0.236 7 2779 7.33
5/24/2021 9:45:00 PM 18.01 64.418 0.236 7.01 2738 7.37
5/24/2021 10:00:00 PM 17.96 64.328 0.236 7.01 2846 7.39
5/24/2021 10:15:00 PM 17.93 64.274 0.236 7 2966 7.41
5/24/2021 10:30:00 PM 17.86 64.148 0.236 6.99 3605 7.41
5/24/2021 10:45:00 PM 17.8 64.04 0.236 6.99 2953 7.41
5/24/2021 11:00:00 PM 17.81 64.058 0.235 6.99 2958 7.4
5/24/2021 11:15:00 PM 17.74 63.932 0.235 6.99 2740 7.43
5/24/2021 11:30:00 PM 17.7 63.86 0.235 6.99 2478 7.42
5/24/2021 11:45:00 PM 17.66 63.788 0.235 6.98 2762 7.43
5/25/2021 12:00:00 AM 17.61 63.698 0.236 6.98 2894 7.46
5/25/2021 12:15:00 AM 17.56 63.608 0.236 6.98 3073 7.46
5/25/2021 12:30:00 AM 17.54 63.572 0.236 6.98 3404 7.46
5/25/2021 12:45:00 AM 17.49 63.482 0.236 6.98 3279 7.45
5/25/2021 1:00:00 AM 17.46 63.428 0.236 6.97 2528 7.48
5/25/2021 1:15:00 AM 17.45 63.41 0.236 6.97 2914 7.47
5/25/2021 1:30:00 AM 17.4 63.32 0.236 6.97 2494 7.47
5/25/2021 1:45:00 AM 17.4 63.32 0.235 6.97 2782 7.48
5/25/2021 2:00:00 AM 17.34 63.212 0.235 6.97 2881 7.49
5/25/2021 2:15:00 AM 17.32 63.176 0.236 6.97 2665 7.51
5/25/2021 2:30:00 AM 17.3 63.14 0.236 6.97 3039 7.53
5/25/2021 2:45:00 AM 17.25 63.05 0.237 6.97 2570 7.53
5/25/2021 3:00:00 AM 17.23 63.014 0.237 6.98 2434 7.55
5/25/2021 3:15:00 AM 17.22 62.996 0.237 6.97 2497 7.57
5/25/2021 3:30:00 AM 17.2 62.96 0.237 6.97 2770 7.57
5/25/2021 3:45:00 AM 17.16 62.888 0.236 6.97 2957 7.59
5/25/2021 4:00:00 AM 17.14 62.852 0.236 6.97 3265 7.57
5/25/2021 4:15:00 AM 17.12 62.816 0.236 6.97 3021 7.58
5/25/2021 4:30:00 AM 17.1 62.78 0.236 6.98 3251 7.59
5/25/2021 4:45:00 AM 17.07 62.726 0.237 6.97 3093 7.62
5/25/2021 5:00:00 AM 17.03 62.654 0.237 6.95 2684 7.62
5/25/2021 5:15:00 AM 17.02 62.636 0.237 6.95 2827 7.65
5/25/2021 5:30:00 AM 17 62.6 0.237 6.95 2979 7.64
5/25/2021 5:45:00 AM 16.97 62.546 0.237 6.96 3144 7.67
5/25/2021 6:00:00 AM 16.96 62.528 0.237 6.96 2977 7.68
5/25/2021 6:15:00 AM 16.95 62.51 0.237 6.94 2638 7.71
5/25/2021 6:30:00 AM 16.93 62.474 0.237 6.94 3234 7.73
5/25/2021 6:45:00 AM 16.91 62.438 0.237 6.95 2978 7.74
5/25/2021 7:00:00 AM 16.91 62.438 0.237 6.95 3154 7.8
5/25/2021 7:15:00 AM 16.89 62.402 0.237 6.95 2843 7.83
5/25/2021 7:30:00 AM 16.87 62.366 0.237 6.94 3439 7.86
5/25/2021 7:45:00 AM 16.87 62.366 0.237 6.96 3332 7.94
5/25/2021 8:00:00 AM 16.86 62.348 0.237 6.95 3164 7.96
5/25/2021 8:15:00 AM 16.86 62.348 0.237 6.95 3386 8
5/25/2021 8:30:00 AM 16.86 62.348 0.236 6.95 3616 8.03
5/25/2021 8:45:00 AM 16.85 62.33 0.236 6.95 3717 8.06
5/25/2021 9:00:00 AM 16.85 62.33 0.236 6.95 3567 8.08
5/25/2021 9:15:00 AM 16.86 62.348 0.236 6.95 4103 8.13
5/25/2021 9:30:00 AM 16.88 62.384 0.236 6.96 3675 8.22
5/25/2021 9:45:00 AM 16.9 62.42 0.236 6.96 3735 8.3
5/25/2021 10:00:00 AM 16.92 62.456 0.236 6.95 3806 8.35
5/25/2021 10:15:00 AM 16.94 62.492 0.236 6.97 3498 8.39
5/25/2021 10:30:00 AM 16.99 62.582 0.236 6.96 3697 8.45
5/25/2021 10:45:00 AM 17.04 62.672 0.235 6.97 3792 8.54
5/25/2021 11:00:00 AM 17.1 62.78 0.235 6.97 3997 8.61
5/25/2021 11:15:00 AM 17.2 62.96 0.235 6.98 3787 8.72
5/25/2021 11:30:00 AM 17.29 63.122 0.234 6.99 4147 8.77
5/25/2021 11:45:00 AM 17.37 63.266 0.234 7 3505 8.81
5/25/2021 12:00:00 PM 17.46 63.428 0.234 7.01 3081 8.89
5/25/2021 12:15:00 PM 17.54 63.572 0.235 7.01 3272 8.96
5/25/2021 12:30:00 PM 17.61 63.698 0.235 7.03 3106 8.95
5/25/2021 12:45:00 PM 17.69 63.842 0.235 7.04 3186 8.96
5/25/2021 1:00:00 PM 17.78 64.004 0.234 7.07 2681 9.05
5/25/2021 1:15:00 PM 17.91 64.238 0.234 7.09 3067 9.1
5/25/2021 1:30:00 PM 18.02 64.436 0.234 7.11 2968 9.14
5/25/2021 1:45:00 PM 18.13 64.634 0.234 7.12 3082 9.13
5/25/2021 2:00:00 PM 18.24 64.832 0.233 7.12 3081 9.12
5/25/2021 2:15:00 PM 18.36 65.048 0.233 7.14 3152 9.17
5/25/2021 2:30:00 PM 18.46 65.228 0.234 7.14 3253 9.19
5/25/2021 2:45:00 PM 18.56 65.408 0.234 7.15 3706 9.21
5/25/2021 3:00:00 PM 18.73 65.714 0.234 7.15 2672 9.22
5/25/2021 3:15:00 PM 18.85 65.93 0.234 7.15 2623 9.19
5/25/2021 3:30:00 PM 18.92 66.056 0.234 7.16 2392 9.15
5/25/2021 3:45:00 PM 18.96 66.128 0.234 7.16 3077 9.05
5/25/2021 4:00:00 PM 18.99 66.182 0.234 7.14 3036 8.98
5/25/2021 4:15:00 PM 19.07 66.326 0.233 7.15 2872 8.92
5/25/2021 4:30:00 PM 19.11 66.398 0.233 7.15 3023 8.84
5/25/2021 4:45:00 PM 19.13 66.434 0.234 7.15 2950 8.79
5/25/2021 5:00:00 PM 19.14 66.452 0.234 7.15 2802 8.72
5/25/2021 5:15:00 PM 19.15 66.47 0.234 7.14 2735 8.64
5/25/2021 5:30:00 PM 19.15 66.47 0.234 7.14 3061 8.53
5/25/2021 5:45:00 PM 19.15 66.47 0.234 7.14 3145 8.47
5/25/2021 6:00:00 PM 19.15 66.47 0.234 7.14 3345 8.39
5/25/2021 6:15:00 PM 19.15 66.47 0.234 7.14 3282 8.27
5/25/2021 6:30:00 PM 19.1 66.38 0.234 7.14 3190 8.18
5/25/2021 6:45:00 PM 19.05 66.29 0.234 7.14 3465 8.08
5/25/2021 7:00:00 PM 19.01 66.218 0.234 7.14 3312 7.99
5/25/2021 7:15:00 PM 18.96 66.128 0.235 7.14 3458 7.93
5/25/2021 7:30:00 PM 18.93 66.074 0.235 7.13 3526 7.85
5/25/2021 7:45:00 PM 18.89 66.002 0.235 7.11 3497 7.8
5/25/2021 8:00:00 PM 18.83 65.894 0.235 7.12 3519 7.73
5/25/2021 8:15:00 PM 18.79 65.82201 0.235 7.11 3530 7.69
5/25/2021 8:30:00 PM 18.7 65.66 0.235 7.11 3495 7.61
5/25/2021 8:45:00 PM 18.64 65.552 0.235 7.11 3594 7.57
5/25/2021 9:00:00 PM 18.58 65.444 0.234 7.1 3418 7.51
5/25/2021 9:15:00 PM 18.51 65.318 0.234 7.09 3461 7.48
5/25/2021 9:30:00 PM 18.45 65.21 0.235 7.08 3574 7.47
5/25/2021 9:45:00 PM 18.4 65.12 0.235 7.07 3527 7.46
5/25/2021 10:00:00 PM 18.39 65.102 0.235 7.06 3743 7.46
5/25/2021 10:15:00 PM 18.33 64.994 0.235 7.06 2714 7.44
5/25/2021 10:30:00 PM 18.29 64.922 0.235 7.05 2647 7.43
5/25/2021 10:45:00 PM 18.24 64.832 0.235 7.06 2567 7.41
5/25/2021 11:00:00 PM 18.19 64.742 0.235 7.04 2544 7.41
5/25/2021 11:15:00 PM 18.12 64.616 0.235 7.03 2766 7.39
5/25/2021 11:30:00 PM 18.08 64.544 0.235 7.03 2937 7.36
5/25/2021 11:45:00 PM 18.04 64.472 0.235 7.02 2204 7.36
5/26/2021 12:00:00 AM 18.01 64.418 0.235 7.01 2742 7.36
5/26/2021 12:15:00 AM 17.97 64.346 0.236 7 2688 7.35
5/26/2021 12:30:00 AM 17.98 64.364 0.236 6.99 2960 7.38
5/26/2021 12:45:00 AM 17.96 64.328 0.236 7 3082 7.37
5/26/2021 1:00:00 AM 17.95 64.31 0.236 6.99 3028 7.37
5/26/2021 1:15:00 AM 17.91 64.238 0.235 6.99 2769 7.34
5/26/2021 1:30:00 AM 17.89 64.202 0.235 6.99 2817 7.32
5/26/2021 1:45:00 AM 17.83 64.094 0.235 6.98 2899 7.3
5/26/2021 2:00:00 AM 17.84 64.112 0.235 6.99 2917 7.3
5/26/2021 2:15:00 AM 17.82 64.076 0.235 6.98 3118 7.29
5/26/2021 2:30:00 AM 17.83 64.094 0.236 6.98 2860 7.31
5/26/2021 2:45:00 AM 17.84 64.112 0.236 6.98 3022 7.32
5/26/2021 3:00:00 AM 17.82 64.076 0.236 6.98 3171 7.33
5/26/2021 3:15:00 AM 17.85 64.13 0.236 6.98 3028 7.35
5/26/2021 3:30:00 AM 17.81 64.058 0.236 6.98 3398 7.35
5/26/2021 3:45:00 AM 17.8 64.04 0.236 6.97 3741 7.34
5/26/2021 4:00:00 AM 17.77 63.986 0.236 6.97 3206 7.3
5/26/2021 4:15:00 AM 17.75 63.95 0.236 6.97 3139 7.3
5/26/2021 4:30:00 AM 17.76 63.968 0.236 6.97 3097 7.29
5/26/2021 4:45:00 AM 17.72 63.896 0.236 6.97 3282 7.3
5/26/2021 5:00:00 AM 17.71 63.878 0.237 6.97 2895 7.28
5/26/2021 5:15:00 AM 17.69 63.842 0.237 6.96 3136 7.29
5/26/2021 5:30:00 AM 17.71 63.878 0.237 6.97 2999 7.3
5/26/2021 5:45:00 AM 17.68 63.824 0.237 6.96 3092 7.29
5/26/2021 6:00:00 AM 17.69 63.842 0.237 6.97 2797 7.3
5/26/2021 6:15:00 AM 17.68 63.824 0.237 6.95 3200 7.32
5/26/2021 6:30:00 AM 17.69 63.842 0.237 6.96 2902 7.33
5/26/2021 6:45:00 AM 17.67 63.806 0.237 6.95 2770 7.36
5/26/2021 7:00:00 AM 17.68 63.824 0.237 6.95 2615 7.41
5/26/2021 7:15:00 AM 17.7 63.86 0.237 6.95 2610 7.47
5/26/2021 7:30:00 AM 17.73 63.914 0.237 6.95 2699 7.54
5/26/2021 7:45:00 AM 17.75 63.95 0.237 6.95 2224 7.59
5/26/2021 8:00:00 AM 17.79 64.022 0.237 6.95 2478 7.64
5/26/2021 8:15:00 AM 17.82 64.076 0.237 6.95 2466 7.7
5/26/2021 8:30:00 AM 17.85 64.13 0.236 6.96 2308 7.74
5/26/2021 8:45:00 AM 17.84 64.112 0.236 6.95 2395 7.77
5/26/2021 9:00:00 AM 17.89 64.202 0.236 6.96 2145 7.82
5/26/2021 9:15:00 AM 17.96 64.328 0.236 6.97 2199 7.98
5/26/2021 9:30:00 AM 18.05 64.49 0.236 6.98 2150 8.1
5/26/2021 9:45:00 AM 18.14 64.652 0.236 6.99 1759 8.15
5/26/2021 10:00:00 AM 18.27 64.886 0.236 6.99 2249 8.29
5/26/2021 10:15:00 AM 18.44 65.192 0.236 7 2020 8.4
5/26/2021 10:30:00 AM 18.63 65.534 0.235 7.01 1943 8.52
5/26/2021 10:45:00 AM 18.83 65.894 0.235 7.03 1762 8.6
5/26/2021 11:00:00 AM 19.03 66.254 0.235 7.04 1997 8.62
5/26/2021 11:15:00 AM 19.23 66.614 0.234 7.05 1278 8.68
5/26/2021 11:30:00 AM 19.44 66.992 0.234 7.06 1325 8.69
5/26/2021 11:45:00 AM 19.61 67.298 0.235 7.07 1381 8.74
5/26/2021 12:00:00 PM 19.89 67.802 0.235 7.08 1432 8.78
5/26/2021 12:15:00 PM 20.09 68.162 0.235 7.08 1686 8.82
5/26/2021 12:30:00 PM 20.28 68.504 0.235 7.09 1607 8.82
5/26/2021 12:45:00 PM 20.56 69.008 0.235 7.1 1336 8.86
5/26/2021 1:00:00 PM 20.76 69.368 0.235 7.13 1430 8.87
5/26/2021 1:15:00 PM 20.97 69.746 0.235 7.13 1351 8.85
5/26/2021 1:30:00 PM 21.16 70.088 0.235 7.14 1529 8.83
5/26/2021 1:45:00 PM 21.33 70.394 0.235 7.14 1709 8.81
5/26/2021 2:00:00 PM 21.51 70.718 0.235 7.15 1815 8.78
5/26/2021 2:15:00 PM 21.65 70.97 0.236 7.16 2004 8.75
5/26/2021 2:30:00 PM 21.82 71.276 0.236 7.16 1515 8.74
5/26/2021 2:45:00 PM 21.94 71.492 0.236 7.17 1615 8.69
5/26/2021 3:00:00 PM 22 71.6 0.237 7.18 1587 8.63
5/26/2021 3:15:00 PM 22.07 71.726 0.237 7.18 2038 8.56
5/26/2021 3:30:00 PM 22.11 71.798 0.237 7.19 1878 8.48
5/26/2021 3:45:00 PM 22.07 71.726 0.237 7.19 2063 8.38
5/26/2021 4:00:00 PM 21.97 71.546 0.237 7.19 2056 8.21
5/26/2021 4:15:00 PM 21.81 71.258 0.237 7.18 2083 7.96
5/26/2021 4:30:00 PM 21.62 70.916 0.237 7.19 2075 7.74
5/26/2021 4:45:00 PM 21.55 70.79 0.236 7.19 2164 7.59
5/26/2021 5:00:00 PM 21.35 70.43 0.237 7.18 2141 7.49
5/26/2021 5:15:00 PM 21.27 70.286 0.237 7.18 2089 7.45
5/26/2021 5:30:00 PM 21.21 70.17799 0.236 7.19 2009 7.48
5/26/2021 5:45:00 PM 21.11 69.998 0.236 7.18 2239 7.47
5/26/2021 6:00:00 PM 21.01 69.818 0.236 7.18 2332 7.36
5/26/2021 6:15:00 PM 20.92 69.656 0.236 7.18 2429 7.24
5/26/2021 6:30:00 PM 20.82 69.476 0.236 7.16 2423 7.11
5/26/2021 6:45:00 PM 20.77 69.386 0.236 7.16 2533 7.03
5/26/2021 7:00:00 PM 20.72 69.296 0.236 7.15 2365 7
5/26/2021 7:15:00 PM 20.59 69.062 0.237 7.14 2719 7
5/26/2021 7:30:00 PM 20.57 69.026 0.236 7.12 2726 7
5/26/2021 7:45:00 PM 20.5 68.9 0.237 7.11 2662 6.97
5/26/2021 8:00:00 PM 20.45 68.81 0.237 7.1 2529 6.95
5/26/2021 8:15:00 PM 20.43 68.774 0.236 7.1 3139 6.94
5/26/2021 8:30:00 PM 20.4 68.72 0.236 7.1 2871 6.95
5/26/2021 8:45:00 PM 20.34 68.612 0.236 7.1 2847 6.92
5/26/2021 9:00:00 PM 20.31 68.558 0.235 7.09 3316 6.9
5/26/2021 9:15:00 PM 20.19 68.342 0.236 7.09 3064 6.88
5/26/2021 9:30:00 PM 20.19 68.342 0.236 7.09 3127 6.88
5/26/2021 9:45:00 PM 20.22 68.396 0.236 7.07 3172 6.86
5/26/2021 10:00:00 PM 20.14 68.252 0.237 7.07 3154 6.82
5/26/2021 10:15:00 PM 20.08 68.144 0.237 7.07 3084 6.79
5/26/2021 10:30:00 PM 20.02 68.036 0.236 7.05 3298 6.76
5/26/2021 10:45:00 PM 20.03 68.054 0.236 7.06 2987 6.76
5/26/2021 11:00:00 PM 20 68 0.236 7.06 3000 6.74
5/26/2021 11:15:00 PM 19.99 67.982 0.236 7.06 3209 6.75
5/26/2021 11:30:00 PM 19.99 67.982 0.236 7.07 3266 6.75
5/26/2021 11:45:00 PM 20.02 68.036 0.236 7.07 3332 6.78
5/27/2021 12:00:00 AM 20.08 68.144 0.237 7.07 3461 6.8
5/27/2021 12:15:00 AM 20.12 68.216 0.237 7.08 3191 6.83
5/27/2021 12:30:00 AM 20.18 68.324 0.237 7.09 3390 6.84
5/27/2021 12:45:00 AM 20.24 68.432 0.237 7.08 2934 6.86
5/27/2021 1:00:00 AM 20.33 68.594 0.237 7.08 3355 6.86
5/27/2021 1:15:00 AM 20.33 68.594 0.237 7.09 3411 6.88
5/27/2021 1:30:00 AM 20.37 68.666 0.236 7.09 3669 6.87
5/27/2021 1:45:00 AM 20.36 68.648 0.236 7.09 3567 6.88
5/27/2021 2:00:00 AM 20.36 68.648 0.236 7.09 3008 6.89
5/27/2021 2:15:00 AM 20.4 68.72 0.237 7.09 3322 6.91
5/27/2021 2:30:00 AM 20.38 68.684 0.236 7.09 3066 6.91
5/27/2021 2:45:00 AM 20.37 68.666 0.236 7.09 2993 6.91
5/27/2021 3:00:00 AM 20.34 68.612 0.235 7.08 3099 6.92
5/27/2021 3:15:00 AM 20.29 68.522 0.234 7.08 2948 6.89
5/27/2021 3:30:00 AM 20.2 68.36 0.234 7.09 3009 6.87
5/27/2021 3:45:00 AM 20.17 68.306 0.233 7.08 3455 6.87
5/27/2021 4:00:00 AM 20.08 68.144 0.233 7.09 3834 6.9
5/27/2021 4:15:00 AM 20 68 0.233 7.08 3717 6.88
5/27/2021 4:30:00 AM 19.93 67.874 0.233 7.08 4036 6.91
5/27/2021 4:45:00 AM 19.9 67.82 0.233 7.07 4134 6.9
5/27/2021 5:00:00 AM 19.79 67.622 0.233 7.08 4310 6.92
5/27/2021 5:15:00 AM 19.71 67.478 0.234 7.08 4384 6.92
5/27/2021 5:30:00 AM 19.63 67.334 0.233 7.07 4498 6.91
5/27/2021 5:45:00 AM 19.55 67.19 0.233 7.08 4526 6.9
5/27/2021 6:00:00 AM 19.49 67.082 0.234 7.07 4526 6.91
5/27/2021 6:15:00 AM 19.38 66.884 0.234 7.06 4526 6.94
5/27/2021 6:30:00 AM 19.34 66.812 0.233 7.07 4526 6.94
5/27/2021 6:45:00 AM 19.31 66.758 0.233 7.06 4526 6.99
5/27/2021 7:00:00 AM 19.25 66.65 0.234 7.06 4526 7.05
5/27/2021 7:15:00 AM 19.24 66.632 0.234 7.06 4526 7.1
5/27/2021 7:30:00 AM 19.24 66.632 0.234 7.07 4526 7.18
5/27/2021 7:45:00 AM 19.28 66.704 0.235 7.08 4526 7.22
5/27/2021 8:00:00 AM 19.29 66.722 0.234 7.08 4224 7.31
5/27/2021 8:15:00 AM 19.35 66.83 0.235 7.09 4357 7.38
5/27/2021 8:30:00 AM 19.41 66.938 0.234 7.11 4086 7.45
5/27/2021 8:45:00 AM 19.44 66.992 0.234 7.12 4488 7.51
5/27/2021 9:00:00 AM 19.49 67.082 0.234 7.12 4484 7.57
5/27/2021 9:15:00 AM 19.59 67.262 0.235 7.13 4421 7.63
5/27/2021 9:30:00 AM 19.67 67.406 0.235 7.15 4352 7.72
5/27/2021 9:45:00 AM 19.78 67.604 0.235 7.15 4491 7.77
5/27/2021 10:00:00 AM 19.86 67.748 0.235 7.15 4460 7.8
5/27/2021 10:15:00 AM 19.95 67.91 0.235 7.15 4291 7.82
5/27/2021 10:30:00 AM 20.08 68.144 0.235 7.17 4172 7.86
5/27/2021 10:45:00 AM 20.13 68.234 0.234 7.17 4390 7.79
5/27/2021 11:00:00 AM 20.24 68.432 0.234 7.18 4335 7.84
5/27/2021 11:15:00 AM 20.36 68.648 0.234 7.18 4476 7.86
5/27/2021 11:30:00 AM 20.52 68.936 0.234 7.19 4526 7.91
5/27/2021 11:45:00 AM 20.72 69.296 0.234 7.2 4526 7.99
5/27/2021 12:00:00 PM 20.91 69.638 0.234 7.21 4526 8.06
5/27/2021 12:15:00 PM 21.11 69.998 0.234 7.23 4526 8.12
5/27/2021 12:30:00 PM 21.28 70.304 0.234 7.25 4526 8.17
5/27/2021 12:45:00 PM 21.43 70.574 0.234 7.26 4526 8.2
5/27/2021 1:00:00 PM 21.53 70.754 0.234 7.26 4514 8.16
5/27/2021 1:15:00 PM 21.62 70.916 0.233 7.28 4395 8.18
5/27/2021 1:30:00 PM 21.76 71.168 0.233 7.27 4283 8.21
5/27/2021 1:45:00 PM 21.82 71.276 0.233 7.29 4479 8.22
5/27/2021 2:00:00 PM 21.97 71.546 0.233 7.29 4428 8.25
5/27/2021 2:15:00 PM 22.02 71.636 0.233 7.3 4428 8.22
5/27/2021 2:30:00 PM 22.04 71.672 0.233 7.3 4484 8.12
5/27/2021 2:45:00 PM 22.14 71.852 0.233 7.31 4437 8.09
5/27/2021 3:00:00 PM 22.13 71.834 0.233 7.31 4526 8
5/27/2021 3:15:00 PM 22.15 71.87 0.233 7.31 4416 7.96
5/27/2021 3:30:00 PM 22.14 71.852 0.232 7.31 4413 7.9
5/27/2021 3:45:00 PM 22.1 71.78 0.232 7.31 4278 7.85
5/27/2021 4:00:00 PM 22.05 71.69 0.232 7.31 4402 7.78
5/27/2021 4:15:00 PM 21.99 71.582 0.231 7.31 4398 7.7
5/27/2021 4:30:00 PM 21.97 71.546 0.231 7.31 4423 7.66
5/27/2021 4:45:00 PM 21.95 71.51 0.232 7.3 4526 7.67
5/27/2021 5:00:00 PM 21.9 71.42 0.232 7.31 4526 7.6
5/27/2021 5:15:00 PM 21.85 71.33 0.232 7.3 4526 7.51
5/27/2021 5:30:00 PM 21.79 71.222 0.232 7.3 4526 7.46
5/27/2021 5:45:00 PM 21.71 71.078 0.232 7.27 4526 7.39
5/27/2021 6:00:00 PM 21.65 70.97 0.233 7.28 4526 7.39
5/27/2021 6:15:00 PM 21.56 70.808 0.233 7.28 4526 7.36
5/27/2021 6:30:00 PM 21.52 70.736 0.233 7.28 4526 7.35
5/27/2021 6:45:00 PM 21.42 70.556 0.233 7.27 4526 7.25
5/27/2021 7:00:00 PM 21.33 70.394 0.233 7.26 4523 7.22
5/27/2021 7:15:00 PM 21.26 70.268 0.234 7.25 4526 7.16
5/27/2021 7:30:00 PM 21.17 70.106 0.234 7.25 4526 7.11
5/27/2021 7:45:00 PM 21.1 69.98 0.234 7.23 4526 7.1
5/27/2021 8:00:00 PM 20.97 69.746 0.235 7.22 4526 7.03
5/27/2021 8:15:00 PM 20.97 69.746 0.234 7.22 4526 6.99
5/27/2021 8:30:00 PM 20.86 69.548 0.234 7.22 4526 6.94
5/27/2021 8:45:00 PM 20.77 69.386 0.234 7.2 4526 6.9
5/27/2021 9:00:00 PM 20.65 69.17 0.234 7.21 4526 6.85
5/27/2021 9:15:00 PM 20.58 69.044 0.234 7.2 4526 6.82
5/27/2021 9:30:00 PM 20.45 68.81 0.234 7.19 4526 6.79
5/27/2021 9:45:00 PM 20.39 68.702 0.235 7.17 4526 6.79
5/27/2021 10:00:00 PM 20.34 68.612 0.235 7.16 4526 6.79
5/27/2021 10:15:00 PM 20.24 68.432 0.235 7.14 4526 6.77
5/27/2021 10:30:00 PM 20.15 68.27 0.234 7.14 4526 6.77
5/27/2021 10:45:00 PM 20.11 68.198 0.234 7.14 4526 6.78
5/27/2021 11:00:00 PM 20.09 68.162 0.234 7.13 4526 6.76
5/27/2021 11:15:00 PM 20.01 68.018 0.233 7.13 4526 6.75
5/27/2021 11:30:00 PM 19.91 67.838 0.233 7.14 4526 6.73
5/27/2021 11:45:00 PM 19.81 67.658 0.234 7.13 4526 6.72
5/28/2021 12:00:00 AM 19.83 67.694 0.234 7.14 4526 6.73
5/28/2021 12:15:00 AM 19.72 67.496 0.235 7.13 4526 6.72
5/28/2021 12:30:00 AM 19.73 67.514 0.235 7.12 4526 6.73
5/28/2021 12:45:00 AM 19.67 67.406 0.235 7.12 4526 6.72
5/28/2021 1:00:00 AM 19.72 67.496 0.235 7.11 4526 6.72
5/28/2021 1:15:00 AM 19.63 67.334 0.235 7.12 4526 6.76
5/28/2021 1:30:00 AM 19.57 67.226 0.235 7.09 4496 6.75
5/28/2021 1:45:00 AM 19.6 67.28 0.235 7.1 4237 6.75
5/28/2021 2:00:00 AM 19.53 67.154 0.235 7.11 4270 6.79
5/28/2021 2:15:00 AM 19.5 67.1 0.235 7.1 253.3 6.8
5/28/2021 2:30:00 AM 19.51 67.118 0.236 7.12 3412 6.84
5/28/2021 2:45:00 AM 19.49 67.082 0.236 7.13 3526 6.84
5/28/2021 3:00:00 AM 19.54 67.172 0.236 7.11 3492 6.85
5/28/2021 3:15:00 AM 19.45 67.01 0.236 7.11 3511 6.88
5/28/2021 3:30:00 AM 19.43 66.974 0.236 7.1 3258 6.87
5/28/2021 3:45:00 AM 19.34 66.812 0.236 7.11 3129 6.87
5/28/2021 4:00:00 AM 19.34 66.812 0.236 7.11 3323 6.89
5/28/2021 4:15:00 AM 19.31 66.758 0.236 7.1 3197 6.88
5/28/2021 4:30:00 AM 19.24 66.632 0.236 7.11 3478 6.86
5/28/2021 4:45:00 AM 19.22 66.596 0.236 7.11 3701 6.87
5/28/2021 5:00:00 AM 19.16 66.488 0.237 7.1 3436 6.88
5/28/2021 5:15:00 AM 19.12 66.416 0.237 7.1 3286 6.87
5/28/2021 5:30:00 AM 19.07 66.326 0.237 7.1 3263 6.88
5/28/2021 5:45:00 AM 19.04 66.272 0.237 7.1 3314 6.91
5/28/2021 6:00:00 AM 18.94 66.092 0.237 7.09 3093 6.91
5/28/2021 6:15:00 AM 18.95 66.11 0.236 7.09 3023 6.92
5/28/2021 6:30:00 AM 18.89 66.002 0.236 7.1 2878 6.96
5/28/2021 6:45:00 AM 18.84 65.912 0.236 7.1 3042 7.02
5/28/2021 7:00:00 AM 18.78 65.804 0.237 7.1 2917 7.07
5/28/2021 7:15:00 AM 18.76 65.768 0.237 7.11 3163 7.14
5/28/2021 7:30:00 AM 18.73 65.714 0.237 7.12 3042 7.21
5/28/2021 7:45:00 AM 18.77 65.786 0.237 7.12 2855 7.27
5/28/2021 8:00:00 AM 18.75 65.75 0.237 7.12 2911 7.34
5/28/2021 8:15:00 AM 18.71 65.67799 0.237 7.13 2903 7.4
5/28/2021 8:30:00 AM 18.7 65.66 0.237 7.13 2825 7.46
5/28/2021 8:45:00 AM 18.7 65.66 0.236 7.12 3071 7.55
5/28/2021 9:00:00 AM 18.71 65.67799 0.236 7.14 3139 7.6
5/28/2021 9:15:00 AM 18.76 65.768 0.236 7.14 3188 7.7
5/28/2021 9:30:00 AM 18.83 65.894 0.236 7.15 3115 7.82
5/28/2021 9:45:00 AM 18.86 65.948 0.236 7.16